<?xml version="1.0" encoding="UTF-8" standalone="no" ?>
<gpx xmlns="http://www.topografix.com/GPX/1/1" xmlns:xsi="http://www.w3.org/2001/XMLSchema-instance" xsi:schemaLocation="http://www.topografix.com/GPX/1/1 http://www.topografix.com/GPX/1/1/gpx.xsd" version="1.1" creator="VisuGPX - https://www.visugpx.com">
  <metadata>
    <name>Aiglepierre Pretin Salins</name>
    <desc><![CDATA[Randonnée effectuée le 26 octobre 2017
L'indice IBP d'effort est de 79, (suivant l'échelle de la FFRP) un score compris entre 76 et 100 correspond au niveau 4 qualifié de "ASSEZ DIFFICILE". La randonnée pédestre présente des difficultés et nécessite un engagement physique certain. Ce niveau correspond à des randonnées pédestres plus soutenues.]]></desc>
  </metadata>
  <trk>
    <name><![CDATA[26 oct. 2017 à 08:47:18]]></name>
    <cmt><![CDATA[26 oct. 2017 à 08:47:18]]></cmt>
    <trkseg>
      <trkpt lat="46.9488" lon="5.81929">
        <ele>365</ele>
        <time>2017-10-26T06:47:18Z</time>
      </trkpt>
      <trkpt lat="46.94867" lon="5.81906">
        <ele>367</ele>
        <time>2017-10-26T06:47:37Z</time>
      </trkpt>
      <trkpt lat="46.94865" lon="5.81901">
        <ele>367</ele>
        <time>2017-10-26T06:47:41Z</time>
      </trkpt>
      <trkpt lat="46.94858" lon="5.8189">
        <ele>366</ele>
        <time>2017-10-26T06:47:49Z</time>
      </trkpt>
      <trkpt lat="46.94849" lon="5.81881">
        <ele>367</ele>
        <time>2017-10-26T06:47:58Z</time>
      </trkpt>
      <trkpt lat="46.94843" lon="5.81871">
        <ele>366</ele>
        <time>2017-10-26T06:48:06Z</time>
      </trkpt>
      <trkpt lat="46.94841" lon="5.81861">
        <ele>369</ele>
        <time>2017-10-26T06:48:25Z</time>
      </trkpt>
      <trkpt lat="46.94815" lon="5.81826">
        <ele>370</ele>
        <time>2017-10-26T06:48:57Z</time>
      </trkpt>
      <trkpt lat="46.94782" lon="5.81787">
        <ele>371</ele>
        <time>2017-10-26T06:49:29Z</time>
      </trkpt>
      <trkpt lat="46.94751" lon="5.81746">
        <ele>372</ele>
        <time>2017-10-26T06:50:03Z</time>
      </trkpt>
      <trkpt lat="46.94721" lon="5.81707">
        <ele>372</ele>
        <time>2017-10-26T06:50:34Z</time>
      </trkpt>
      <trkpt lat="46.94705" lon="5.8169">
        <ele>372</ele>
        <time>2017-10-26T06:50:50Z</time>
      </trkpt>
      <trkpt lat="46.947" lon="5.81682">
        <ele>372</ele>
        <time>2017-10-26T06:51:10Z</time>
      </trkpt>
      <trkpt lat="46.94694" lon="5.81672">
        <ele>372</ele>
        <time>2017-10-26T06:51:18Z</time>
      </trkpt>
      <trkpt lat="46.94682" lon="5.81658">
        <ele>373</ele>
        <time>2017-10-26T06:51:31Z</time>
      </trkpt>
      <trkpt lat="46.94679" lon="5.81653">
        <ele>374</ele>
        <time>2017-10-26T06:52:47Z</time>
      </trkpt>
      <trkpt lat="46.94674" lon="5.81643">
        <ele>375</ele>
        <time>2017-10-26T06:52:54Z</time>
      </trkpt>
      <trkpt lat="46.94669" lon="5.81639">
        <ele>375</ele>
        <time>2017-10-26T06:52:58Z</time>
      </trkpt>
      <trkpt lat="46.94639" lon="5.81594">
        <ele>376</ele>
        <time>2017-10-26T06:53:31Z</time>
      </trkpt>
      <trkpt lat="46.94607" lon="5.81556">
        <ele>377</ele>
        <time>2017-10-26T06:54:02Z</time>
      </trkpt>
      <trkpt lat="46.94599" lon="5.81546">
        <ele>377</ele>
        <time>2017-10-26T06:54:10Z</time>
      </trkpt>
      <trkpt lat="46.94578" lon="5.81513">
        <ele>378</ele>
        <time>2017-10-26T06:54:36Z</time>
      </trkpt>
      <trkpt lat="46.94559" lon="5.81496">
        <ele>378</ele>
        <time>2017-10-26T06:54:53Z</time>
      </trkpt>
      <trkpt lat="46.94534" lon="5.81484">
        <ele>379</ele>
        <time>2017-10-26T06:55:17Z</time>
      </trkpt>
      <trkpt lat="46.94531" lon="5.81476">
        <ele>380</ele>
        <time>2017-10-26T06:55:40Z</time>
      </trkpt>
      <trkpt lat="46.94513" lon="5.81467">
        <ele>381</ele>
        <time>2017-10-26T06:55:56Z</time>
      </trkpt>
      <trkpt lat="46.94508" lon="5.81468">
        <ele>381</ele>
        <time>2017-10-26T06:55:59Z</time>
      </trkpt>
      <trkpt lat="46.94503" lon="5.81461">
        <ele>381</ele>
        <time>2017-10-26T06:56:37Z</time>
      </trkpt>
      <trkpt lat="46.94497" lon="5.8146">
        <ele>382</ele>
        <time>2017-10-26T06:56:42Z</time>
      </trkpt>
      <trkpt lat="46.94493" lon="5.81455">
        <ele>383</ele>
        <time>2017-10-26T06:56:47Z</time>
      </trkpt>
      <trkpt lat="46.94458" lon="5.81434">
        <ele>384</ele>
        <time>2017-10-26T06:57:19Z</time>
      </trkpt>
      <trkpt lat="46.94436" lon="5.81419">
        <ele>384</ele>
        <time>2017-10-26T06:57:40Z</time>
      </trkpt>
      <trkpt lat="46.94431" lon="5.81416">
        <ele>384</ele>
        <time>2017-10-26T06:57:44Z</time>
      </trkpt>
      <trkpt lat="46.94399" lon="5.81396">
        <ele>386</ele>
        <time>2017-10-26T06:58:16Z</time>
      </trkpt>
      <trkpt lat="46.94367" lon="5.81377">
        <ele>389</ele>
        <time>2017-10-26T06:58:48Z</time>
      </trkpt>
      <trkpt lat="46.94359" lon="5.81368">
        <ele>391</ele>
        <time>2017-10-26T06:58:57Z</time>
      </trkpt>
      <trkpt lat="46.94335" lon="5.81359">
        <ele>393</ele>
        <time>2017-10-26T06:59:24Z</time>
      </trkpt>
      <trkpt lat="46.94325" lon="5.81362">
        <ele>394</ele>
        <time>2017-10-26T06:59:35Z</time>
      </trkpt>
      <trkpt lat="46.9432" lon="5.81366">
        <ele>394</ele>
        <time>2017-10-26T06:59:40Z</time>
      </trkpt>
      <trkpt lat="46.94316" lon="5.81371">
        <ele>395</ele>
        <time>2017-10-26T06:59:45Z</time>
      </trkpt>
      <trkpt lat="46.94313" lon="5.81375">
        <ele>395</ele>
        <time>2017-10-26T06:59:50Z</time>
      </trkpt>
      <trkpt lat="46.94309" lon="5.81388">
        <ele>396</ele>
        <time>2017-10-26T07:00:00Z</time>
      </trkpt>
      <trkpt lat="46.94308" lon="5.81396">
        <ele>399</ele>
        <time>2017-10-26T07:02:14Z</time>
      </trkpt>
      <trkpt lat="46.94312" lon="5.81438">
        <ele>403</ele>
        <time>2017-10-26T07:02:44Z</time>
      </trkpt>
      <trkpt lat="46.94311" lon="5.81467">
        <ele>406</ele>
        <time>2017-10-26T07:03:05Z</time>
      </trkpt>
      <trkpt lat="46.94309" lon="5.81473">
        <ele>407</ele>
        <time>2017-10-26T07:03:09Z</time>
      </trkpt>
      <trkpt lat="46.94307" lon="5.81479">
        <ele>407</ele>
        <time>2017-10-26T07:03:13Z</time>
      </trkpt>
      <trkpt lat="46.94302" lon="5.81484">
        <ele>407</ele>
        <time>2017-10-26T07:03:18Z</time>
      </trkpt>
      <trkpt lat="46.94297" lon="5.81486">
        <ele>407</ele>
        <time>2017-10-26T07:03:23Z</time>
      </trkpt>
      <trkpt lat="46.94291" lon="5.81484">
        <ele>408</ele>
        <time>2017-10-26T07:03:28Z</time>
      </trkpt>
      <trkpt lat="46.94283" lon="5.81477">
        <ele>408</ele>
        <time>2017-10-26T07:03:36Z</time>
      </trkpt>
      <trkpt lat="46.94277" lon="5.81466">
        <ele>409</ele>
        <time>2017-10-26T07:03:46Z</time>
      </trkpt>
      <trkpt lat="46.94273" lon="5.81461">
        <ele>410</ele>
        <time>2017-10-26T07:03:51Z</time>
      </trkpt>
      <trkpt lat="46.94269" lon="5.81458">
        <ele>409</ele>
        <time>2017-10-26T07:03:56Z</time>
      </trkpt>
      <trkpt lat="46.94264" lon="5.81454">
        <ele>410</ele>
        <time>2017-10-26T07:04:01Z</time>
      </trkpt>
      <trkpt lat="46.94261" lon="5.81448">
        <ele>412</ele>
        <time>2017-10-26T07:04:09Z</time>
      </trkpt>
      <trkpt lat="46.94244" lon="5.81434">
        <ele>417</ele>
        <time>2017-10-26T07:04:31Z</time>
      </trkpt>
      <trkpt lat="46.9423" lon="5.81428">
        <ele>419</ele>
        <time>2017-10-26T07:04:44Z</time>
      </trkpt>
      <trkpt lat="46.94225" lon="5.81427">
        <ele>419</ele>
        <time>2017-10-26T07:04:48Z</time>
      </trkpt>
      <trkpt lat="46.94219" lon="5.81425">
        <ele>420</ele>
        <time>2017-10-26T07:04:53Z</time>
      </trkpt>
      <trkpt lat="46.94215" lon="5.8142">
        <ele>421</ele>
        <time>2017-10-26T07:05:05Z</time>
      </trkpt>
      <trkpt lat="46.94202" lon="5.81414">
        <ele>420</ele>
        <time>2017-10-26T07:05:38Z</time>
      </trkpt>
      <trkpt lat="46.94193" lon="5.81418">
        <ele>420</ele>
        <time>2017-10-26T07:05:48Z</time>
      </trkpt>
      <trkpt lat="46.94188" lon="5.81416">
        <ele>419</ele>
        <time>2017-10-26T07:05:52Z</time>
      </trkpt>
      <trkpt lat="46.94182" lon="5.81417">
        <ele>419</ele>
        <time>2017-10-26T07:05:57Z</time>
      </trkpt>
      <trkpt lat="46.94173" lon="5.81421">
        <ele>419</ele>
        <time>2017-10-26T07:06:06Z</time>
      </trkpt>
      <trkpt lat="46.94173" lon="5.81414">
        <ele>422</ele>
        <time>2017-10-26T07:06:27Z</time>
      </trkpt>
      <trkpt lat="46.94168" lon="5.81424">
        <ele>424</ele>
        <time>2017-10-26T07:07:13Z</time>
      </trkpt>
      <trkpt lat="46.94165" lon="5.81444">
        <ele>426</ele>
        <time>2017-10-26T07:07:32Z</time>
      </trkpt>
      <trkpt lat="46.94166" lon="5.81459">
        <ele>427</ele>
        <time>2017-10-26T07:07:41Z</time>
      </trkpt>
      <trkpt lat="46.94168" lon="5.81465">
        <ele>429</ele>
        <time>2017-10-26T07:07:45Z</time>
      </trkpt>
      <trkpt lat="46.94168" lon="5.81473">
        <ele>430</ele>
        <time>2017-10-26T07:07:54Z</time>
      </trkpt>
      <trkpt lat="46.94173" lon="5.81501">
        <ele>434</ele>
        <time>2017-10-26T07:08:09Z</time>
      </trkpt>
      <trkpt lat="46.94176" lon="5.81514">
        <ele>435</ele>
        <time>2017-10-26T07:08:18Z</time>
      </trkpt>
      <trkpt lat="46.94179" lon="5.81528">
        <ele>434</ele>
        <time>2017-10-26T07:08:28Z</time>
      </trkpt>
      <trkpt lat="46.94171" lon="5.81534">
        <ele>434</ele>
        <time>2017-10-26T07:08:42Z</time>
      </trkpt>
      <trkpt lat="46.94163" lon="5.81526">
        <ele>434</ele>
        <time>2017-10-26T07:08:55Z</time>
      </trkpt>
      <trkpt lat="46.94137" lon="5.81509">
        <ele>441</ele>
        <time>2017-10-26T07:09:27Z</time>
      </trkpt>
      <trkpt lat="46.94119" lon="5.81505">
        <ele>445</ele>
        <time>2017-10-26T07:09:52Z</time>
      </trkpt>
      <trkpt lat="46.94103" lon="5.81493">
        <ele>448</ele>
        <time>2017-10-26T07:10:06Z</time>
      </trkpt>
      <trkpt lat="46.94094" lon="5.81485">
        <ele>448</ele>
        <time>2017-10-26T07:10:17Z</time>
      </trkpt>
      <trkpt lat="46.94085" lon="5.81481">
        <ele>450</ele>
        <time>2017-10-26T07:10:28Z</time>
      </trkpt>
      <trkpt lat="46.94071" lon="5.81463">
        <ele>454</ele>
        <time>2017-10-26T07:10:48Z</time>
      </trkpt>
      <trkpt lat="46.94066" lon="5.81453">
        <ele>454</ele>
        <time>2017-10-26T07:10:56Z</time>
      </trkpt>
      <trkpt lat="46.94051" lon="5.81436">
        <ele>456</ele>
        <time>2017-10-26T07:11:13Z</time>
      </trkpt>
      <trkpt lat="46.94042" lon="5.8143">
        <ele>458</ele>
        <time>2017-10-26T07:11:23Z</time>
      </trkpt>
      <trkpt lat="46.94033" lon="5.81429">
        <ele>459</ele>
        <time>2017-10-26T07:11:32Z</time>
      </trkpt>
      <trkpt lat="46.94025" lon="5.81437">
        <ele>460</ele>
        <time>2017-10-26T07:11:43Z</time>
      </trkpt>
      <trkpt lat="46.94024" lon="5.8145">
        <ele>461</ele>
        <time>2017-10-26T07:11:52Z</time>
      </trkpt>
      <trkpt lat="46.94024" lon="5.81493">
        <ele>464</ele>
        <time>2017-10-26T07:12:23Z</time>
      </trkpt>
      <trkpt lat="46.94029" lon="5.8152">
        <ele>467</ele>
        <time>2017-10-26T07:12:47Z</time>
      </trkpt>
      <trkpt lat="46.94031" lon="5.81534">
        <ele>467</ele>
        <time>2017-10-26T07:12:59Z</time>
      </trkpt>
      <trkpt lat="46.94033" lon="5.81547">
        <ele>466</ele>
        <time>2017-10-26T07:13:06Z</time>
      </trkpt>
      <trkpt lat="46.94036" lon="5.8156">
        <ele>467</ele>
        <time>2017-10-26T07:13:16Z</time>
      </trkpt>
      <trkpt lat="46.94054" lon="5.81609">
        <ele>470</ele>
        <time>2017-10-26T07:13:49Z</time>
      </trkpt>
      <trkpt lat="46.94064" lon="5.81647">
        <ele>473</ele>
        <time>2017-10-26T07:14:20Z</time>
      </trkpt>
      <trkpt lat="46.94075" lon="5.81661">
        <ele>474</ele>
        <time>2017-10-26T07:14:42Z</time>
      </trkpt>
      <trkpt lat="46.94077" lon="5.8167">
        <ele>476</ele>
        <time>2017-10-26T07:17:47Z</time>
      </trkpt>
      <trkpt lat="46.94075" lon="5.81676">
        <ele>476</ele>
        <time>2017-10-26T07:17:54Z</time>
      </trkpt>
      <trkpt lat="46.94075" lon="5.81686">
        <ele>478</ele>
        <time>2017-10-26T07:18:07Z</time>
      </trkpt>
      <trkpt lat="46.94075" lon="5.81696">
        <ele>480</ele>
        <time>2017-10-26T07:18:19Z</time>
      </trkpt>
      <trkpt lat="46.94075" lon="5.81717">
        <ele>483</ele>
        <time>2017-10-26T07:18:38Z</time>
      </trkpt>
      <trkpt lat="46.94074" lon="5.81751">
        <ele>487</ele>
        <time>2017-10-26T07:19:14Z</time>
      </trkpt>
      <trkpt lat="46.94068" lon="5.81776">
        <ele>491</ele>
        <time>2017-10-26T07:19:42Z</time>
      </trkpt>
      <trkpt lat="46.94067" lon="5.81807">
        <ele>496</ele>
        <time>2017-10-26T07:20:11Z</time>
      </trkpt>
      <trkpt lat="46.94057" lon="5.81818">
        <ele>502</ele>
        <time>2017-10-26T07:20:42Z</time>
      </trkpt>
      <trkpt lat="46.94045" lon="5.81815">
        <ele>507</ele>
        <time>2017-10-26T07:21:00Z</time>
      </trkpt>
      <trkpt lat="46.94037" lon="5.81821">
        <ele>509</ele>
        <time>2017-10-26T07:21:18Z</time>
      </trkpt>
      <trkpt lat="46.94008" lon="5.81825">
        <ele>516</ele>
        <time>2017-10-26T07:22:07Z</time>
      </trkpt>
      <trkpt lat="46.94" lon="5.81823">
        <ele>517</ele>
        <time>2017-10-26T07:22:18Z</time>
      </trkpt>
      <trkpt lat="46.93978" lon="5.81804">
        <ele>521</ele>
        <time>2017-10-26T07:23:28Z</time>
      </trkpt>
      <trkpt lat="46.93942" lon="5.81774">
        <ele>529</ele>
        <time>2017-10-26T07:24:31Z</time>
      </trkpt>
      <trkpt lat="46.9392" lon="5.81763">
        <ele>532</ele>
        <time>2017-10-26T07:25:06Z</time>
      </trkpt>
      <trkpt lat="46.93911" lon="5.81761">
        <ele>534</ele>
        <time>2017-10-26T07:25:21Z</time>
      </trkpt>
      <trkpt lat="46.93901" lon="5.81756">
        <ele>539</ele>
        <time>2017-10-26T07:25:56Z</time>
      </trkpt>
      <trkpt lat="46.93894" lon="5.81746">
        <ele>540</ele>
        <time>2017-10-26T07:26:08Z</time>
      </trkpt>
      <trkpt lat="46.93895" lon="5.81732">
        <ele>541</ele>
        <time>2017-10-26T07:27:08Z</time>
      </trkpt>
      <trkpt lat="46.93901" lon="5.81717">
        <ele>541</ele>
        <time>2017-10-26T07:28:07Z</time>
      </trkpt>
      <trkpt lat="46.93903" lon="5.81703">
        <ele>542</ele>
        <time>2017-10-26T07:28:18Z</time>
      </trkpt>
      <trkpt lat="46.93905" lon="5.81689">
        <ele>547</ele>
        <time>2017-10-26T07:28:32Z</time>
      </trkpt>
      <trkpt lat="46.93905" lon="5.81675">
        <ele>549</ele>
        <time>2017-10-26T07:28:48Z</time>
      </trkpt>
      <trkpt lat="46.93907" lon="5.81661">
        <ele>553</ele>
        <time>2017-10-26T07:29:08Z</time>
      </trkpt>
      <trkpt lat="46.93903" lon="5.81649">
        <ele>552</ele>
        <time>2017-10-26T07:29:20Z</time>
      </trkpt>
      <trkpt lat="46.93901" lon="5.81606">
        <ele>554</ele>
        <time>2017-10-26T07:30:00Z</time>
      </trkpt>
      <trkpt lat="46.93895" lon="5.81596">
        <ele>554</ele>
        <time>2017-10-26T07:30:11Z</time>
      </trkpt>
      <trkpt lat="46.93891" lon="5.81588">
        <ele>555</ele>
        <time>2017-10-26T07:30:22Z</time>
      </trkpt>
      <trkpt lat="46.93888" lon="5.81581">
        <ele>555</ele>
        <time>2017-10-26T07:30:31Z</time>
      </trkpt>
      <trkpt lat="46.93889" lon="5.81572">
        <ele>555</ele>
        <time>2017-10-26T07:30:47Z</time>
      </trkpt>
      <trkpt lat="46.93889" lon="5.81565">
        <ele>555</ele>
        <time>2017-10-26T07:30:56Z</time>
      </trkpt>
      <trkpt lat="46.93889" lon="5.81554">
        <ele>556</ele>
        <time>2017-10-26T07:31:07Z</time>
      </trkpt>
      <trkpt lat="46.93888" lon="5.81547">
        <ele>555</ele>
        <time>2017-10-26T07:31:12Z</time>
      </trkpt>
      <trkpt lat="46.93889" lon="5.81533">
        <ele>556</ele>
        <time>2017-10-26T07:31:23Z</time>
      </trkpt>
      <trkpt lat="46.93888" lon="5.81525">
        <ele>555</ele>
        <time>2017-10-26T07:31:28Z</time>
      </trkpt>
      <trkpt lat="46.93889" lon="5.81517">
        <ele>555</ele>
        <time>2017-10-26T07:31:34Z</time>
      </trkpt>
      <trkpt lat="46.93886" lon="5.8151">
        <ele>555</ele>
        <time>2017-10-26T07:31:39Z</time>
      </trkpt>
      <trkpt lat="46.93884" lon="5.81504">
        <ele>556</ele>
        <time>2017-10-26T07:31:45Z</time>
      </trkpt>
      <trkpt lat="46.93882" lon="5.81477">
        <ele>557</ele>
        <time>2017-10-26T07:32:06Z</time>
      </trkpt>
      <trkpt lat="46.93879" lon="5.81464">
        <ele>558</ele>
        <time>2017-10-26T07:32:17Z</time>
      </trkpt>
      <trkpt lat="46.93877" lon="5.81451">
        <ele>558</ele>
        <time>2017-10-26T07:32:28Z</time>
      </trkpt>
      <trkpt lat="46.93874" lon="5.81431">
        <ele>560</ele>
        <time>2017-10-26T07:32:46Z</time>
      </trkpt>
      <trkpt lat="46.93875" lon="5.81424">
        <ele>560</ele>
        <time>2017-10-26T07:32:52Z</time>
      </trkpt>
      <trkpt lat="46.93875" lon="5.81416">
        <ele>562</ele>
        <time>2017-10-26T07:32:59Z</time>
      </trkpt>
      <trkpt lat="46.93873" lon="5.8141">
        <ele>562</ele>
        <time>2017-10-26T07:33:08Z</time>
      </trkpt>
      <trkpt lat="46.93868" lon="5.8139">
        <ele>559</ele>
        <time>2017-10-26T07:33:25Z</time>
      </trkpt>
      <trkpt lat="46.93868" lon="5.81383">
        <ele>559</ele>
        <time>2017-10-26T07:33:30Z</time>
      </trkpt>
      <trkpt lat="46.93866" lon="5.81377">
        <ele>558</ele>
        <time>2017-10-26T07:33:34Z</time>
      </trkpt>
      <trkpt lat="46.93868" lon="5.8137">
        <ele>558</ele>
        <time>2017-10-26T07:33:41Z</time>
      </trkpt>
      <trkpt lat="46.93869" lon="5.81364">
        <ele>559</ele>
        <time>2017-10-26T07:33:47Z</time>
      </trkpt>
      <trkpt lat="46.93869" lon="5.8135">
        <ele>560</ele>
        <time>2017-10-26T07:34:02Z</time>
      </trkpt>
      <trkpt lat="46.93871" lon="5.81343">
        <ele>559</ele>
        <time>2017-10-26T07:34:12Z</time>
      </trkpt>
      <trkpt lat="46.93872" lon="5.81336">
        <ele>559</ele>
        <time>2017-10-26T07:34:21Z</time>
      </trkpt>
      <trkpt lat="46.93872" lon="5.81329">
        <ele>559</ele>
        <time>2017-10-26T07:34:28Z</time>
      </trkpt>
      <trkpt lat="46.93866" lon="5.81321">
        <ele>558</ele>
        <time>2017-10-26T07:35:03Z</time>
      </trkpt>
      <trkpt lat="46.93867" lon="5.81305">
        <ele>557</ele>
        <time>2017-10-26T07:35:40Z</time>
      </trkpt>
      <trkpt lat="46.93866" lon="5.81297">
        <ele>558</ele>
        <time>2017-10-26T07:35:46Z</time>
      </trkpt>
      <trkpt lat="46.93859" lon="5.81284">
        <ele>557</ele>
        <time>2017-10-26T07:35:54Z</time>
      </trkpt>
      <trkpt lat="46.93858" lon="5.81278">
        <ele>555</ele>
        <time>2017-10-26T07:36:02Z</time>
      </trkpt>
      <trkpt lat="46.93858" lon="5.81271">
        <ele>554</ele>
        <time>2017-10-26T07:36:10Z</time>
      </trkpt>
      <trkpt lat="46.93863" lon="5.81251">
        <ele>550</ele>
        <time>2017-10-26T07:36:25Z</time>
      </trkpt>
      <trkpt lat="46.93864" lon="5.81237">
        <ele>546</ele>
        <time>2017-10-26T07:36:37Z</time>
      </trkpt>
      <trkpt lat="46.93858" lon="5.81221">
        <ele>542</ele>
        <time>2017-10-26T07:37:17Z</time>
      </trkpt>
      <trkpt lat="46.93864" lon="5.812">
        <ele>542</ele>
        <time>2017-10-26T07:37:55Z</time>
      </trkpt>
      <trkpt lat="46.93866" lon="5.81187">
        <ele>544</ele>
        <time>2017-10-26T07:38:06Z</time>
      </trkpt>
      <trkpt lat="46.93863" lon="5.81175">
        <ele>546</ele>
        <time>2017-10-26T07:38:17Z</time>
      </trkpt>
      <trkpt lat="46.93865" lon="5.81164">
        <ele>547</ele>
        <time>2017-10-26T07:38:26Z</time>
      </trkpt>
      <trkpt lat="46.93873" lon="5.81146">
        <ele>552</ele>
        <time>2017-10-26T07:38:42Z</time>
      </trkpt>
      <trkpt lat="46.93874" lon="5.8114">
        <ele>552</ele>
        <time>2017-10-26T07:38:47Z</time>
      </trkpt>
      <trkpt lat="46.93875" lon="5.81133">
        <ele>553</ele>
        <time>2017-10-26T07:38:52Z</time>
      </trkpt>
      <trkpt lat="46.93877" lon="5.81118">
        <ele>553</ele>
        <time>2017-10-26T07:39:02Z</time>
      </trkpt>
      <trkpt lat="46.9388" lon="5.81111">
        <ele>554</ele>
        <time>2017-10-26T07:39:07Z</time>
      </trkpt>
      <trkpt lat="46.93881" lon="5.81104">
        <ele>554</ele>
        <time>2017-10-26T07:39:12Z</time>
      </trkpt>
      <trkpt lat="46.93887" lon="5.81084">
        <ele>552</ele>
        <time>2017-10-26T07:39:29Z</time>
      </trkpt>
      <trkpt lat="46.93888" lon="5.81078">
        <ele>552</ele>
        <time>2017-10-26T07:39:33Z</time>
      </trkpt>
      <trkpt lat="46.93887" lon="5.8107">
        <ele>553</ele>
        <time>2017-10-26T07:39:39Z</time>
      </trkpt>
      <trkpt lat="46.93884" lon="5.81064">
        <ele>553</ele>
        <time>2017-10-26T07:39:44Z</time>
      </trkpt>
      <trkpt lat="46.93876" lon="5.81056">
        <ele>551</ele>
        <time>2017-10-26T07:39:59Z</time>
      </trkpt>
      <trkpt lat="46.93867" lon="5.81055">
        <ele>552</ele>
        <time>2017-10-26T07:40:08Z</time>
      </trkpt>
      <trkpt lat="46.93859" lon="5.81063">
        <ele>554</ele>
        <time>2017-10-26T07:40:21Z</time>
      </trkpt>
      <trkpt lat="46.93852" lon="5.81071">
        <ele>553</ele>
        <time>2017-10-26T07:40:29Z</time>
      </trkpt>
      <trkpt lat="46.93844" lon="5.81078">
        <ele>553</ele>
        <time>2017-10-26T07:40:39Z</time>
      </trkpt>
      <trkpt lat="46.93831" lon="5.81097">
        <ele>555</ele>
        <time>2017-10-26T07:40:56Z</time>
      </trkpt>
      <trkpt lat="46.93818" lon="5.81117">
        <ele>555</ele>
        <time>2017-10-26T07:41:16Z</time>
      </trkpt>
      <trkpt lat="46.93803" lon="5.81136">
        <ele>555</ele>
        <time>2017-10-26T07:41:37Z</time>
      </trkpt>
      <trkpt lat="46.93794" lon="5.81139">
        <ele>555</ele>
        <time>2017-10-26T07:41:43Z</time>
      </trkpt>
      <trkpt lat="46.93786" lon="5.81165">
        <ele>555</ele>
        <time>2017-10-26T07:41:58Z</time>
      </trkpt>
      <trkpt lat="46.9378" lon="5.81175">
        <ele>555</ele>
        <time>2017-10-26T07:42:09Z</time>
      </trkpt>
      <trkpt lat="46.93763" lon="5.81189">
        <ele>556</ele>
        <time>2017-10-26T07:42:27Z</time>
      </trkpt>
      <trkpt lat="46.9375" lon="5.8121">
        <ele>556</ele>
        <time>2017-10-26T07:42:47Z</time>
      </trkpt>
      <trkpt lat="46.9374" lon="5.81213">
        <ele>556</ele>
        <time>2017-10-26T07:42:54Z</time>
      </trkpt>
      <trkpt lat="46.93708" lon="5.81242">
        <ele>553</ele>
        <time>2017-10-26T07:43:32Z</time>
      </trkpt>
      <trkpt lat="46.93701" lon="5.81252">
        <ele>553</ele>
        <time>2017-10-26T07:43:42Z</time>
      </trkpt>
      <trkpt lat="46.93688" lon="5.81258">
        <ele>552</ele>
        <time>2017-10-26T07:44:01Z</time>
      </trkpt>
      <trkpt lat="46.9369" lon="5.81272">
        <ele>552</ele>
        <time>2017-10-26T07:45:00Z</time>
      </trkpt>
      <trkpt lat="46.93679" lon="5.81275">
        <ele>550</ele>
        <time>2017-10-26T07:46:53Z</time>
      </trkpt>
      <trkpt lat="46.93661" lon="5.81285">
        <ele>547</ele>
        <time>2017-10-26T07:47:13Z</time>
      </trkpt>
      <trkpt lat="46.93653" lon="5.81292">
        <ele>547</ele>
        <time>2017-10-26T07:47:22Z</time>
      </trkpt>
      <trkpt lat="46.93644" lon="5.81296">
        <ele>546</ele>
        <time>2017-10-26T07:47:30Z</time>
      </trkpt>
      <trkpt lat="46.93631" lon="5.81316">
        <ele>545</ele>
        <time>2017-10-26T07:47:47Z</time>
      </trkpt>
      <trkpt lat="46.93623" lon="5.81323">
        <ele>544</ele>
        <time>2017-10-26T07:47:55Z</time>
      </trkpt>
      <trkpt lat="46.93613" lon="5.81326">
        <ele>544</ele>
        <time>2017-10-26T07:48:08Z</time>
      </trkpt>
      <trkpt lat="46.93597" lon="5.81358">
        <ele>545</ele>
        <time>2017-10-26T07:48:31Z</time>
      </trkpt>
      <trkpt lat="46.9359" lon="5.81367">
        <ele>545</ele>
        <time>2017-10-26T07:48:43Z</time>
      </trkpt>
      <trkpt lat="46.93584" lon="5.81379">
        <ele>545</ele>
        <time>2017-10-26T07:49:32Z</time>
      </trkpt>
      <trkpt lat="46.93572" lon="5.81404">
        <ele>544</ele>
        <time>2017-10-26T07:50:21Z</time>
      </trkpt>
      <trkpt lat="46.93563" lon="5.81407">
        <ele>542</ele>
        <time>2017-10-26T07:50:35Z</time>
      </trkpt>
      <trkpt lat="46.93554" lon="5.81405">
        <ele>543</ele>
        <time>2017-10-26T07:50:43Z</time>
      </trkpt>
      <trkpt lat="46.93545" lon="5.81408">
        <ele>544</ele>
        <time>2017-10-26T07:50:56Z</time>
      </trkpt>
      <trkpt lat="46.93538" lon="5.81416">
        <ele>545</ele>
        <time>2017-10-26T07:51:10Z</time>
      </trkpt>
      <trkpt lat="46.93529" lon="5.81421">
        <ele>545</ele>
        <time>2017-10-26T07:51:19Z</time>
      </trkpt>
      <trkpt lat="46.93523" lon="5.81432">
        <ele>544</ele>
        <time>2017-10-26T07:51:26Z</time>
      </trkpt>
      <trkpt lat="46.93515" lon="5.81439">
        <ele>544</ele>
        <time>2017-10-26T07:51:33Z</time>
      </trkpt>
      <trkpt lat="46.93508" lon="5.81447">
        <ele>544</ele>
        <time>2017-10-26T07:51:42Z</time>
      </trkpt>
      <trkpt lat="46.93483" lon="5.81464">
        <ele>543</ele>
        <time>2017-10-26T07:52:08Z</time>
      </trkpt>
      <trkpt lat="46.93472" lon="5.81488">
        <ele>542</ele>
        <time>2017-10-26T07:52:26Z</time>
      </trkpt>
      <trkpt lat="46.93454" lon="5.81492">
        <ele>541</ele>
        <time>2017-10-26T07:52:43Z</time>
      </trkpt>
      <trkpt lat="46.93447" lon="5.815">
        <ele>541</ele>
        <time>2017-10-26T07:52:50Z</time>
      </trkpt>
      <trkpt lat="46.93432" lon="5.81515">
        <ele>541</ele>
        <time>2017-10-26T07:53:08Z</time>
      </trkpt>
      <trkpt lat="46.93414" lon="5.81525">
        <ele>543</ele>
        <time>2017-10-26T07:53:23Z</time>
      </trkpt>
      <trkpt lat="46.93405" lon="5.81524">
        <ele>545</ele>
        <time>2017-10-26T07:53:31Z</time>
      </trkpt>
      <trkpt lat="46.93396" lon="5.81531">
        <ele>545</ele>
        <time>2017-10-26T07:53:43Z</time>
      </trkpt>
      <trkpt lat="46.93389" lon="5.81541">
        <ele>544</ele>
        <time>2017-10-26T07:53:54Z</time>
      </trkpt>
      <trkpt lat="46.93385" lon="5.81555">
        <ele>543</ele>
        <time>2017-10-26T07:54:06Z</time>
      </trkpt>
      <trkpt lat="46.93389" lon="5.81569">
        <ele>543</ele>
        <time>2017-10-26T07:54:17Z</time>
      </trkpt>
      <trkpt lat="46.93387" lon="5.81583">
        <ele>543</ele>
        <time>2017-10-26T07:54:23Z</time>
      </trkpt>
      <trkpt lat="46.93387" lon="5.81596">
        <ele>543</ele>
        <time>2017-10-26T07:54:34Z</time>
      </trkpt>
      <trkpt lat="46.93384" lon="5.81608">
        <ele>542</ele>
        <time>2017-10-26T07:54:47Z</time>
      </trkpt>
      <trkpt lat="46.93377" lon="5.81618">
        <ele>542</ele>
        <time>2017-10-26T07:54:54Z</time>
      </trkpt>
      <trkpt lat="46.93377" lon="5.81631">
        <ele>542</ele>
        <time>2017-10-26T07:55:02Z</time>
      </trkpt>
      <trkpt lat="46.93371" lon="5.81658">
        <ele>541</ele>
        <time>2017-10-26T07:55:25Z</time>
      </trkpt>
      <trkpt lat="46.93369" lon="5.8167">
        <ele>539</ele>
        <time>2017-10-26T07:55:39Z</time>
      </trkpt>
      <trkpt lat="46.93367" lon="5.81683">
        <ele>540</ele>
        <time>2017-10-26T07:55:48Z</time>
      </trkpt>
      <trkpt lat="46.93364" lon="5.81696">
        <ele>541</ele>
        <time>2017-10-26T07:55:54Z</time>
      </trkpt>
      <trkpt lat="46.93361" lon="5.8171">
        <ele>541</ele>
        <time>2017-10-26T07:56:07Z</time>
      </trkpt>
      <trkpt lat="46.93357" lon="5.81721">
        <ele>542</ele>
        <time>2017-10-26T07:56:18Z</time>
      </trkpt>
      <trkpt lat="46.93352" lon="5.81763">
        <ele>542</ele>
        <time>2017-10-26T07:56:47Z</time>
      </trkpt>
      <trkpt lat="46.93353" lon="5.81776">
        <ele>542</ele>
        <time>2017-10-26T07:56:57Z</time>
      </trkpt>
      <trkpt lat="46.93352" lon="5.8179">
        <ele>542</ele>
        <time>2017-10-26T07:57:08Z</time>
      </trkpt>
      <trkpt lat="46.93364" lon="5.81822">
        <ele>541</ele>
        <time>2017-10-26T07:57:25Z</time>
      </trkpt>
      <trkpt lat="46.93369" lon="5.81826">
        <ele>541</ele>
        <time>2017-10-26T07:57:29Z</time>
      </trkpt>
      <trkpt lat="46.93372" lon="5.8184">
        <ele>541</ele>
        <time>2017-10-26T07:57:37Z</time>
      </trkpt>
      <trkpt lat="46.93374" lon="5.81847">
        <ele>540</ele>
        <time>2017-10-26T07:57:42Z</time>
      </trkpt>
      <trkpt lat="46.93374" lon="5.81855">
        <ele>541</ele>
        <time>2017-10-26T07:57:47Z</time>
      </trkpt>
      <trkpt lat="46.93376" lon="5.81863">
        <ele>539</ele>
        <time>2017-10-26T08:00:10Z</time>
      </trkpt>
      <trkpt lat="46.93382" lon="5.8187">
        <ele>537</ele>
        <time>2017-10-26T08:00:17Z</time>
      </trkpt>
      <trkpt lat="46.93382" lon="5.81876">
        <ele>536</ele>
        <time>2017-10-26T08:00:22Z</time>
      </trkpt>
      <trkpt lat="46.93382" lon="5.81883">
        <ele>536</ele>
        <time>2017-10-26T08:00:26Z</time>
      </trkpt>
      <trkpt lat="46.93385" lon="5.81937">
        <ele>538</ele>
        <time>2017-10-26T08:00:58Z</time>
      </trkpt>
      <trkpt lat="46.93389" lon="5.81973">
        <ele>539</ele>
        <time>2017-10-26T08:01:20Z</time>
      </trkpt>
      <trkpt lat="46.93389" lon="5.8198">
        <ele>539</ele>
        <time>2017-10-26T08:01:27Z</time>
      </trkpt>
      <trkpt lat="46.93394" lon="5.82036">
        <ele>540</ele>
        <time>2017-10-26T08:02:00Z</time>
      </trkpt>
      <trkpt lat="46.93403" lon="5.82086">
        <ele>541</ele>
        <time>2017-10-26T08:02:31Z</time>
      </trkpt>
      <trkpt lat="46.93404" lon="5.82101">
        <ele>541</ele>
        <time>2017-10-26T08:02:40Z</time>
      </trkpt>
      <trkpt lat="46.93405" lon="5.82108">
        <ele>541</ele>
        <time>2017-10-26T08:02:44Z</time>
      </trkpt>
      <trkpt lat="46.93407" lon="5.8212">
        <ele>541</ele>
        <time>2017-10-26T08:03:10Z</time>
      </trkpt>
      <trkpt lat="46.9341" lon="5.82126">
        <ele>540</ele>
        <time>2017-10-26T08:03:27Z</time>
      </trkpt>
      <trkpt lat="46.9341" lon="5.82133">
        <ele>539</ele>
        <time>2017-10-26T08:03:31Z</time>
      </trkpt>
      <trkpt lat="46.93413" lon="5.8214">
        <ele>539</ele>
        <time>2017-10-26T08:03:36Z</time>
      </trkpt>
      <trkpt lat="46.93415" lon="5.82147">
        <ele>539</ele>
        <time>2017-10-26T08:03:41Z</time>
      </trkpt>
      <trkpt lat="46.93415" lon="5.82161">
        <ele>539</ele>
        <time>2017-10-26T08:03:50Z</time>
      </trkpt>
      <trkpt lat="46.93416" lon="5.82172">
        <ele>540</ele>
        <time>2017-10-26T08:04:45Z</time>
      </trkpt>
      <trkpt lat="46.93414" lon="5.82182">
        <ele>540</ele>
        <time>2017-10-26T08:04:49Z</time>
      </trkpt>
      <trkpt lat="46.93412" lon="5.82198">
        <ele>541</ele>
        <time>2017-10-26T08:04:57Z</time>
      </trkpt>
      <trkpt lat="46.93412" lon="5.82206">
        <ele>541</ele>
        <time>2017-10-26T08:05:01Z</time>
      </trkpt>
      <trkpt lat="46.93415" lon="5.82262">
        <ele>541</ele>
        <time>2017-10-26T08:05:36Z</time>
      </trkpt>
      <trkpt lat="46.93417" lon="5.82282">
        <ele>541</ele>
        <time>2017-10-26T08:05:48Z</time>
      </trkpt>
      <trkpt lat="46.93419" lon="5.82296">
        <ele>541</ele>
        <time>2017-10-26T08:05:56Z</time>
      </trkpt>
      <trkpt lat="46.93429" lon="5.82331">
        <ele>542</ele>
        <time>2017-10-26T08:06:18Z</time>
      </trkpt>
      <trkpt lat="46.9343" lon="5.82337">
        <ele>543</ele>
        <time>2017-10-26T08:06:22Z</time>
      </trkpt>
      <trkpt lat="46.93431" lon="5.82344">
        <ele>543</ele>
        <time>2017-10-26T08:06:26Z</time>
      </trkpt>
      <trkpt lat="46.93434" lon="5.82358">
        <ele>543</ele>
        <time>2017-10-26T08:06:34Z</time>
      </trkpt>
      <trkpt lat="46.93434" lon="5.82365">
        <ele>543</ele>
        <time>2017-10-26T08:06:39Z</time>
      </trkpt>
      <trkpt lat="46.93433" lon="5.82372">
        <ele>542</ele>
        <time>2017-10-26T08:06:45Z</time>
      </trkpt>
      <trkpt lat="46.93427" lon="5.82382">
        <ele>542</ele>
        <time>2017-10-26T08:06:57Z</time>
      </trkpt>
      <trkpt lat="46.93425" lon="5.82389">
        <ele>542</ele>
        <time>2017-10-26T08:07:02Z</time>
      </trkpt>
      <trkpt lat="46.93421" lon="5.82394">
        <ele>542</ele>
        <time>2017-10-26T08:07:07Z</time>
      </trkpt>
      <trkpt lat="46.93417" lon="5.82399">
        <ele>541</ele>
        <time>2017-10-26T08:07:13Z</time>
      </trkpt>
      <trkpt lat="46.93412" lon="5.82402">
        <ele>541</ele>
        <time>2017-10-26T08:07:17Z</time>
      </trkpt>
      <trkpt lat="46.93406" lon="5.82402">
        <ele>540</ele>
        <time>2017-10-26T08:07:20Z</time>
      </trkpt>
      <trkpt lat="46.93402" lon="5.82406">
        <ele>540</ele>
        <time>2017-10-26T08:07:24Z</time>
      </trkpt>
      <trkpt lat="46.93397" lon="5.82407">
        <ele>539</ele>
        <time>2017-10-26T08:07:27Z</time>
      </trkpt>
      <trkpt lat="46.93391" lon="5.8241">
        <ele>539</ele>
        <time>2017-10-26T08:07:31Z</time>
      </trkpt>
      <trkpt lat="46.93387" lon="5.82415">
        <ele>538</ele>
        <time>2017-10-26T08:07:35Z</time>
      </trkpt>
      <trkpt lat="46.93385" lon="5.82421">
        <ele>538</ele>
        <time>2017-10-26T08:07:40Z</time>
      </trkpt>
      <trkpt lat="46.93381" lon="5.82425">
        <ele>537</ele>
        <time>2017-10-26T08:07:47Z</time>
      </trkpt>
      <trkpt lat="46.93377" lon="5.82429">
        <ele>537</ele>
        <time>2017-10-26T08:07:52Z</time>
      </trkpt>
      <trkpt lat="46.93368" lon="5.82441">
        <ele>536</ele>
        <time>2017-10-26T08:08:28Z</time>
      </trkpt>
      <trkpt lat="46.93357" lon="5.82444">
        <ele>535</ele>
        <time>2017-10-26T08:08:36Z</time>
      </trkpt>
      <trkpt lat="46.93361" lon="5.82469">
        <ele>533</ele>
        <time>2017-10-26T08:09:36Z</time>
      </trkpt>
      <trkpt lat="46.9337" lon="5.82474">
        <ele>531</ele>
        <time>2017-10-26T08:09:46Z</time>
      </trkpt>
      <trkpt lat="46.93375" lon="5.82476">
        <ele>530</ele>
        <time>2017-10-26T08:09:50Z</time>
      </trkpt>
      <trkpt lat="46.93379" lon="5.8248">
        <ele>530</ele>
        <time>2017-10-26T08:09:54Z</time>
      </trkpt>
      <trkpt lat="46.93384" lon="5.82482">
        <ele>530</ele>
        <time>2017-10-26T08:09:58Z</time>
      </trkpt>
      <trkpt lat="46.93393" lon="5.82487">
        <ele>530</ele>
        <time>2017-10-26T08:10:06Z</time>
      </trkpt>
      <trkpt lat="46.93397" lon="5.82491">
        <ele>530</ele>
        <time>2017-10-26T08:10:11Z</time>
      </trkpt>
      <trkpt lat="46.93399" lon="5.82499">
        <ele>530</ele>
        <time>2017-10-26T08:10:16Z</time>
      </trkpt>
      <trkpt lat="46.93399" lon="5.82507">
        <ele>530</ele>
        <time>2017-10-26T08:10:21Z</time>
      </trkpt>
      <trkpt lat="46.93403" lon="5.8252">
        <ele>528</ele>
        <time>2017-10-26T08:10:32Z</time>
      </trkpt>
      <trkpt lat="46.93405" lon="5.82528">
        <ele>528</ele>
        <time>2017-10-26T08:10:37Z</time>
      </trkpt>
      <trkpt lat="46.93407" lon="5.8255">
        <ele>526</ele>
        <time>2017-10-26T08:10:51Z</time>
      </trkpt>
      <trkpt lat="46.93409" lon="5.82556">
        <ele>526</ele>
        <time>2017-10-26T08:10:58Z</time>
      </trkpt>
      <trkpt lat="46.93411" lon="5.82563">
        <ele>526</ele>
        <time>2017-10-26T08:11:03Z</time>
      </trkpt>
      <trkpt lat="46.93414" lon="5.82576">
        <ele>525</ele>
        <time>2017-10-26T08:11:10Z</time>
      </trkpt>
      <trkpt lat="46.93419" lon="5.82588">
        <ele>525</ele>
        <time>2017-10-26T08:11:20Z</time>
      </trkpt>
      <trkpt lat="46.93419" lon="5.82604">
        <ele>524</ele>
        <time>2017-10-26T08:11:26Z</time>
      </trkpt>
      <trkpt lat="46.93434" lon="5.82638">
        <ele>521</ele>
        <time>2017-10-26T08:11:52Z</time>
      </trkpt>
      <trkpt lat="46.93433" lon="5.82652">
        <ele>519</ele>
        <time>2017-10-26T08:11:59Z</time>
      </trkpt>
      <trkpt lat="46.93448" lon="5.82686">
        <ele>517</ele>
        <time>2017-10-26T08:12:22Z</time>
      </trkpt>
      <trkpt lat="46.93456" lon="5.82711">
        <ele>515</ele>
        <time>2017-10-26T08:12:39Z</time>
      </trkpt>
      <trkpt lat="46.93461" lon="5.82722">
        <ele>515</ele>
        <time>2017-10-26T08:12:48Z</time>
      </trkpt>
      <trkpt lat="46.93463" lon="5.82735">
        <ele>515</ele>
        <time>2017-10-26T08:12:58Z</time>
      </trkpt>
      <trkpt lat="46.93477" lon="5.82754">
        <ele>512</ele>
        <time>2017-10-26T08:13:16Z</time>
      </trkpt>
      <trkpt lat="46.93495" lon="5.82793">
        <ele>511</ele>
        <time>2017-10-26T08:13:41Z</time>
      </trkpt>
      <trkpt lat="46.93502" lon="5.82803">
        <ele>510</ele>
        <time>2017-10-26T08:13:49Z</time>
      </trkpt>
      <trkpt lat="46.935" lon="5.82804">
        <ele>509</ele>
        <time>2017-10-26T08:14:11Z</time>
      </trkpt>
      <trkpt lat="46.93497" lon="5.82797">
        <ele>507</ele>
        <time>2017-10-26T08:14:21Z</time>
      </trkpt>
      <trkpt lat="46.93488" lon="5.82791">
        <ele>506</ele>
        <time>2017-10-26T08:14:27Z</time>
      </trkpt>
      <trkpt lat="46.9347" lon="5.82789">
        <ele>505</ele>
        <time>2017-10-26T08:14:44Z</time>
      </trkpt>
      <trkpt lat="46.93461" lon="5.82784">
        <ele>503</ele>
        <time>2017-10-26T08:14:54Z</time>
      </trkpt>
      <trkpt lat="46.93432" lon="5.82782">
        <ele>499</ele>
        <time>2017-10-26T08:15:16Z</time>
      </trkpt>
      <trkpt lat="46.93424" lon="5.82777">
        <ele>495</ele>
        <time>2017-10-26T08:15:23Z</time>
      </trkpt>
      <trkpt lat="46.93415" lon="5.8278">
        <ele>492</ele>
        <time>2017-10-26T08:15:32Z</time>
      </trkpt>
      <trkpt lat="46.93406" lon="5.82787">
        <ele>488</ele>
        <time>2017-10-26T08:15:41Z</time>
      </trkpt>
      <trkpt lat="46.93397" lon="5.82791">
        <ele>486</ele>
        <time>2017-10-26T08:15:49Z</time>
      </trkpt>
      <trkpt lat="46.93392" lon="5.82803">
        <ele>485</ele>
        <time>2017-10-26T08:15:58Z</time>
      </trkpt>
      <trkpt lat="46.93392" lon="5.8281">
        <ele>483</ele>
        <time>2017-10-26T08:16:03Z</time>
      </trkpt>
      <trkpt lat="46.93393" lon="5.82817">
        <ele>480</ele>
        <time>2017-10-26T08:16:07Z</time>
      </trkpt>
      <trkpt lat="46.93407" lon="5.82848">
        <ele>474</ele>
        <time>2017-10-26T08:16:28Z</time>
      </trkpt>
      <trkpt lat="46.93421" lon="5.82868">
        <ele>468</ele>
        <time>2017-10-26T08:16:47Z</time>
      </trkpt>
      <trkpt lat="46.93424" lon="5.82874">
        <ele>468</ele>
        <time>2017-10-26T08:16:51Z</time>
      </trkpt>
      <trkpt lat="46.93428" lon="5.82879">
        <ele>467</ele>
        <time>2017-10-26T08:16:56Z</time>
      </trkpt>
      <trkpt lat="46.93433" lon="5.82892">
        <ele>465</ele>
        <time>2017-10-26T08:17:05Z</time>
      </trkpt>
      <trkpt lat="46.93452" lon="5.82931">
        <ele>463</ele>
        <time>2017-10-26T08:17:35Z</time>
      </trkpt>
      <trkpt lat="46.93467" lon="5.82949">
        <ele>463</ele>
        <time>2017-10-26T08:17:54Z</time>
      </trkpt>
      <trkpt lat="46.9348" lon="5.82972">
        <ele>461</ele>
        <time>2017-10-26T08:18:11Z</time>
      </trkpt>
      <trkpt lat="46.93483" lon="5.82986">
        <ele>460</ele>
        <time>2017-10-26T08:18:18Z</time>
      </trkpt>
      <trkpt lat="46.93495" lon="5.83008">
        <ele>458</ele>
        <time>2017-10-26T08:18:34Z</time>
      </trkpt>
      <trkpt lat="46.93503" lon="5.83015">
        <ele>457</ele>
        <time>2017-10-26T08:18:42Z</time>
      </trkpt>
      <trkpt lat="46.93511" lon="5.83041">
        <ele>455</ele>
        <time>2017-10-26T08:18:56Z</time>
      </trkpt>
      <trkpt lat="46.93533" lon="5.83066">
        <ele>451</ele>
        <time>2017-10-26T08:19:21Z</time>
      </trkpt>
      <trkpt lat="46.93542" lon="5.83071">
        <ele>450</ele>
        <time>2017-10-26T08:19:29Z</time>
      </trkpt>
      <trkpt lat="46.93551" lon="5.83073">
        <ele>449</ele>
        <time>2017-10-26T08:19:37Z</time>
      </trkpt>
      <trkpt lat="46.93557" lon="5.83084">
        <ele>448</ele>
        <time>2017-10-26T08:19:45Z</time>
      </trkpt>
      <trkpt lat="46.93565" lon="5.83093">
        <ele>447</ele>
        <time>2017-10-26T08:19:54Z</time>
      </trkpt>
      <trkpt lat="46.93574" lon="5.83096">
        <ele>445</ele>
        <time>2017-10-26T08:20:02Z</time>
      </trkpt>
      <trkpt lat="46.93596" lon="5.83126">
        <ele>443</ele>
        <time>2017-10-26T08:20:29Z</time>
      </trkpt>
      <trkpt lat="46.93599" lon="5.8314">
        <ele>442</ele>
        <time>2017-10-26T08:20:35Z</time>
      </trkpt>
      <trkpt lat="46.93605" lon="5.8315">
        <ele>441</ele>
        <time>2017-10-26T08:20:42Z</time>
      </trkpt>
      <trkpt lat="46.93602" lon="5.83161">
        <ele>438</ele>
        <time>2017-10-26T08:22:05Z</time>
      </trkpt>
      <trkpt lat="46.93587" lon="5.83158">
        <ele>436</ele>
        <time>2017-10-26T08:22:14Z</time>
      </trkpt>
      <trkpt lat="46.93576" lon="5.83152">
        <ele>434</ele>
        <time>2017-10-26T08:22:24Z</time>
      </trkpt>
      <trkpt lat="46.93566" lon="5.83154">
        <ele>433</ele>
        <time>2017-10-26T08:22:32Z</time>
      </trkpt>
      <trkpt lat="46.93556" lon="5.83157">
        <ele>433</ele>
        <time>2017-10-26T08:22:39Z</time>
      </trkpt>
      <trkpt lat="46.9355" lon="5.83166">
        <ele>433</ele>
        <time>2017-10-26T08:22:47Z</time>
      </trkpt>
      <trkpt lat="46.93547" lon="5.83181">
        <ele>432</ele>
        <time>2017-10-26T08:22:53Z</time>
      </trkpt>
      <trkpt lat="46.93544" lon="5.83236">
        <ele>423</ele>
        <time>2017-10-26T08:23:27Z</time>
      </trkpt>
      <trkpt lat="46.93544" lon="5.83251">
        <ele>422</ele>
        <time>2017-10-26T08:23:34Z</time>
      </trkpt>
      <trkpt lat="46.93549" lon="5.83279">
        <ele>420</ele>
        <time>2017-10-26T08:23:48Z</time>
      </trkpt>
      <trkpt lat="46.93545" lon="5.83292">
        <ele>420</ele>
        <time>2017-10-26T08:23:59Z</time>
      </trkpt>
      <trkpt lat="46.93545" lon="5.83336">
        <ele>416</ele>
        <time>2017-10-26T08:24:26Z</time>
      </trkpt>
      <trkpt lat="46.93549" lon="5.83359">
        <ele>412</ele>
        <time>2017-10-26T08:24:35Z</time>
      </trkpt>
      <trkpt lat="46.93551" lon="5.83372">
        <ele>411</ele>
        <time>2017-10-26T08:24:41Z</time>
      </trkpt>
      <trkpt lat="46.93554" lon="5.83386">
        <ele>411</ele>
        <time>2017-10-26T08:24:47Z</time>
      </trkpt>
      <trkpt lat="46.93563" lon="5.83411">
        <ele>407</ele>
        <time>2017-10-26T08:25:04Z</time>
      </trkpt>
      <trkpt lat="46.93567" lon="5.83468">
        <ele>398</ele>
        <time>2017-10-26T08:25:36Z</time>
      </trkpt>
      <trkpt lat="46.93565" lon="5.83536">
        <ele>388</ele>
        <time>2017-10-26T08:26:17Z</time>
      </trkpt>
      <trkpt lat="46.93562" lon="5.83558">
        <ele>389</ele>
        <time>2017-10-26T08:26:40Z</time>
      </trkpt>
      <trkpt lat="46.93561" lon="5.83571">
        <ele>389</ele>
        <time>2017-10-26T08:26:48Z</time>
      </trkpt>
      <trkpt lat="46.93561" lon="5.83594">
        <ele>386</ele>
        <time>2017-10-26T08:27:18Z</time>
      </trkpt>
      <trkpt lat="46.9356" lon="5.83608">
        <ele>387</ele>
        <time>2017-10-26T08:27:29Z</time>
      </trkpt>
      <trkpt lat="46.93564" lon="5.83678">
        <ele>378</ele>
        <time>2017-10-26T08:28:06Z</time>
      </trkpt>
      <trkpt lat="46.93561" lon="5.83705">
        <ele>375</ele>
        <time>2017-10-26T08:28:21Z</time>
      </trkpt>
      <trkpt lat="46.93567" lon="5.83732">
        <ele>373</ele>
        <time>2017-10-26T08:28:38Z</time>
      </trkpt>
      <trkpt lat="46.93565" lon="5.83759">
        <ele>373</ele>
        <time>2017-10-26T08:28:52Z</time>
      </trkpt>
      <trkpt lat="46.93566" lon="5.83774">
        <ele>372</ele>
        <time>2017-10-26T08:29:00Z</time>
      </trkpt>
      <trkpt lat="46.93567" lon="5.83782">
        <ele>372</ele>
        <time>2017-10-26T08:29:04Z</time>
      </trkpt>
      <trkpt lat="46.93568" lon="5.8379">
        <ele>371</ele>
        <time>2017-10-26T08:29:08Z</time>
      </trkpt>
      <trkpt lat="46.93571" lon="5.83797">
        <ele>371</ele>
        <time>2017-10-26T08:29:13Z</time>
      </trkpt>
      <trkpt lat="46.93573" lon="5.83811">
        <ele>370</ele>
        <time>2017-10-26T08:29:23Z</time>
      </trkpt>
      <trkpt lat="46.93575" lon="5.83817">
        <ele>370</ele>
        <time>2017-10-26T08:29:27Z</time>
      </trkpt>
      <trkpt lat="46.93578" lon="5.83822">
        <ele>369</ele>
        <time>2017-10-26T08:29:31Z</time>
      </trkpt>
      <trkpt lat="46.93582" lon="5.8383">
        <ele>368</ele>
        <time>2017-10-26T08:29:36Z</time>
      </trkpt>
      <trkpt lat="46.93584" lon="5.83835">
        <ele>368</ele>
        <time>2017-10-26T08:29:39Z</time>
      </trkpt>
      <trkpt lat="46.93594" lon="5.83838">
        <ele>368</ele>
        <time>2017-10-26T08:29:46Z</time>
      </trkpt>
      <trkpt lat="46.93597" lon="5.83844">
        <ele>368</ele>
        <time>2017-10-26T08:29:51Z</time>
      </trkpt>
      <trkpt lat="46.93597" lon="5.83852">
        <ele>368</ele>
        <time>2017-10-26T08:29:57Z</time>
      </trkpt>
      <trkpt lat="46.936" lon="5.83858">
        <ele>367</ele>
        <time>2017-10-26T08:30:04Z</time>
      </trkpt>
      <trkpt lat="46.93608" lon="5.83866">
        <ele>367</ele>
        <time>2017-10-26T08:30:19Z</time>
      </trkpt>
      <trkpt lat="46.93617" lon="5.83865">
        <ele>367</ele>
        <time>2017-10-26T08:31:10Z</time>
      </trkpt>
      <trkpt lat="46.93624" lon="5.83863">
        <ele>365</ele>
        <time>2017-10-26T08:32:11Z</time>
      </trkpt>
      <trkpt lat="46.93626" lon="5.8387">
        <ele>363</ele>
        <time>2017-10-26T08:32:18Z</time>
      </trkpt>
      <trkpt lat="46.93628" lon="5.83881">
        <ele>364</ele>
        <time>2017-10-26T08:36:50Z</time>
      </trkpt>
      <trkpt lat="46.93635" lon="5.8389">
        <ele>366</ele>
        <time>2017-10-26T08:36:58Z</time>
      </trkpt>
      <trkpt lat="46.93643" lon="5.83908">
        <ele>368</ele>
        <time>2017-10-26T08:37:12Z</time>
      </trkpt>
      <trkpt lat="46.93646" lon="5.83914">
        <ele>369</ele>
        <time>2017-10-26T08:37:17Z</time>
      </trkpt>
      <trkpt lat="46.93653" lon="5.83923">
        <ele>369</ele>
        <time>2017-10-26T08:37:26Z</time>
      </trkpt>
      <trkpt lat="46.93658" lon="5.83925">
        <ele>369</ele>
        <time>2017-10-26T08:37:30Z</time>
      </trkpt>
      <trkpt lat="46.93661" lon="5.83931">
        <ele>369</ele>
        <time>2017-10-26T08:37:35Z</time>
      </trkpt>
      <trkpt lat="46.9368" lon="5.83981">
        <ele>371</ele>
        <time>2017-10-26T08:38:12Z</time>
      </trkpt>
      <trkpt lat="46.9368" lon="5.83996">
        <ele>371</ele>
        <time>2017-10-26T08:38:20Z</time>
      </trkpt>
      <trkpt lat="46.93685" lon="5.84007">
        <ele>372</ele>
        <time>2017-10-26T08:38:28Z</time>
      </trkpt>
      <trkpt lat="46.93692" lon="5.84016">
        <ele>372</ele>
        <time>2017-10-26T08:38:35Z</time>
      </trkpt>
      <trkpt lat="46.93697" lon="5.84029">
        <ele>373</ele>
        <time>2017-10-26T08:38:44Z</time>
      </trkpt>
      <trkpt lat="46.93701" lon="5.84041">
        <ele>374</ele>
        <time>2017-10-26T08:38:52Z</time>
      </trkpt>
      <trkpt lat="46.93707" lon="5.84053">
        <ele>375</ele>
        <time>2017-10-26T08:39:01Z</time>
      </trkpt>
      <trkpt lat="46.93711" lon="5.84065">
        <ele>375</ele>
        <time>2017-10-26T08:39:09Z</time>
      </trkpt>
      <trkpt lat="46.93714" lon="5.84094">
        <ele>376</ele>
        <time>2017-10-26T08:39:28Z</time>
      </trkpt>
      <trkpt lat="46.93712" lon="5.84106">
        <ele>376</ele>
        <time>2017-10-26T08:39:37Z</time>
      </trkpt>
      <trkpt lat="46.93721" lon="5.84145">
        <ele>377</ele>
        <time>2017-10-26T08:40:03Z</time>
      </trkpt>
      <trkpt lat="46.93721" lon="5.8416">
        <ele>378</ele>
        <time>2017-10-26T08:40:11Z</time>
      </trkpt>
      <trkpt lat="46.93719" lon="5.84201">
        <ele>377</ele>
        <time>2017-10-26T08:40:35Z</time>
      </trkpt>
      <trkpt lat="46.93715" lon="5.84214">
        <ele>377</ele>
        <time>2017-10-26T08:40:43Z</time>
      </trkpt>
      <trkpt lat="46.93711" lon="5.84226">
        <ele>377</ele>
        <time>2017-10-26T08:40:50Z</time>
      </trkpt>
      <trkpt lat="46.93708" lon="5.84239">
        <ele>378</ele>
        <time>2017-10-26T08:40:59Z</time>
      </trkpt>
      <trkpt lat="46.93696" lon="5.84262">
        <ele>381</ele>
        <time>2017-10-26T08:41:15Z</time>
      </trkpt>
      <trkpt lat="46.9368" lon="5.84315">
        <ele>383</ele>
        <time>2017-10-26T08:41:49Z</time>
      </trkpt>
      <trkpt lat="46.93679" lon="5.8433">
        <ele>384</ele>
        <time>2017-10-26T08:41:57Z</time>
      </trkpt>
      <trkpt lat="46.93678" lon="5.84344">
        <ele>384</ele>
        <time>2017-10-26T08:42:04Z</time>
      </trkpt>
      <trkpt lat="46.93674" lon="5.84372">
        <ele>385</ele>
        <time>2017-10-26T08:42:21Z</time>
      </trkpt>
      <trkpt lat="46.93673" lon="5.84401">
        <ele>387</ele>
        <time>2017-10-26T08:42:42Z</time>
      </trkpt>
      <trkpt lat="46.93672" lon="5.84414">
        <ele>387</ele>
        <time>2017-10-26T08:42:56Z</time>
      </trkpt>
      <trkpt lat="46.93662" lon="5.84439">
        <ele>387</ele>
        <time>2017-10-26T08:43:13Z</time>
      </trkpt>
      <trkpt lat="46.93656" lon="5.8445">
        <ele>388</ele>
        <time>2017-10-26T08:43:21Z</time>
      </trkpt>
      <trkpt lat="46.93648" lon="5.84459">
        <ele>389</ele>
        <time>2017-10-26T08:43:29Z</time>
      </trkpt>
      <trkpt lat="46.93633" lon="5.84477">
        <ele>390</ele>
        <time>2017-10-26T08:43:45Z</time>
      </trkpt>
      <trkpt lat="46.93616" lon="5.84486">
        <ele>391</ele>
        <time>2017-10-26T08:44:01Z</time>
      </trkpt>
      <trkpt lat="46.9361" lon="5.84498">
        <ele>391</ele>
        <time>2017-10-26T08:44:08Z</time>
      </trkpt>
      <trkpt lat="46.93617" lon="5.84523">
        <ele>392</ele>
        <time>2017-10-26T08:44:22Z</time>
      </trkpt>
      <trkpt lat="46.93622" lon="5.84535">
        <ele>392</ele>
        <time>2017-10-26T08:44:30Z</time>
      </trkpt>
      <trkpt lat="46.93625" lon="5.84549">
        <ele>393</ele>
        <time>2017-10-26T08:44:38Z</time>
      </trkpt>
      <trkpt lat="46.93628" lon="5.84576">
        <ele>394</ele>
        <time>2017-10-26T08:44:51Z</time>
      </trkpt>
      <trkpt lat="46.93634" lon="5.84602">
        <ele>397</ele>
        <time>2017-10-26T08:45:11Z</time>
      </trkpt>
      <trkpt lat="46.93637" lon="5.84617">
        <ele>397</ele>
        <time>2017-10-26T08:45:18Z</time>
      </trkpt>
      <trkpt lat="46.93642" lon="5.84629">
        <ele>397</ele>
        <time>2017-10-26T08:45:27Z</time>
      </trkpt>
      <trkpt lat="46.93648" lon="5.84639">
        <ele>397</ele>
        <time>2017-10-26T08:45:36Z</time>
      </trkpt>
      <trkpt lat="46.93652" lon="5.84651">
        <ele>397</ele>
        <time>2017-10-26T08:45:45Z</time>
      </trkpt>
      <trkpt lat="46.93655" lon="5.84664">
        <ele>397</ele>
        <time>2017-10-26T08:45:54Z</time>
      </trkpt>
      <trkpt lat="46.93659" lon="5.84677">
        <ele>398</ele>
        <time>2017-10-26T08:46:03Z</time>
      </trkpt>
      <trkpt lat="46.93667" lon="5.84702">
        <ele>399</ele>
        <time>2017-10-26T08:46:20Z</time>
      </trkpt>
      <trkpt lat="46.93671" lon="5.84757">
        <ele>403</ele>
        <time>2017-10-26T08:46:48Z</time>
      </trkpt>
      <trkpt lat="46.93685" lon="5.84775">
        <ele>406</ele>
        <time>2017-10-26T08:47:05Z</time>
      </trkpt>
      <trkpt lat="46.93689" lon="5.84787">
        <ele>406</ele>
        <time>2017-10-26T08:47:13Z</time>
      </trkpt>
      <trkpt lat="46.93696" lon="5.84798">
        <ele>408</ele>
        <time>2017-10-26T08:47:22Z</time>
      </trkpt>
      <trkpt lat="46.93704" lon="5.84806">
        <ele>408</ele>
        <time>2017-10-26T08:47:33Z</time>
      </trkpt>
      <trkpt lat="46.93711" lon="5.84831">
        <ele>409</ele>
        <time>2017-10-26T08:47:54Z</time>
      </trkpt>
      <trkpt lat="46.93713" lon="5.84858">
        <ele>408</ele>
        <time>2017-10-26T08:48:14Z</time>
      </trkpt>
      <trkpt lat="46.93718" lon="5.8487">
        <ele>408</ele>
        <time>2017-10-26T08:48:23Z</time>
      </trkpt>
      <trkpt lat="46.93722" lon="5.84883">
        <ele>409</ele>
        <time>2017-10-26T08:48:34Z</time>
      </trkpt>
      <trkpt lat="46.9372" lon="5.84898">
        <ele>410</ele>
        <time>2017-10-26T08:48:45Z</time>
      </trkpt>
      <trkpt lat="46.93723" lon="5.8494">
        <ele>415</ele>
        <time>2017-10-26T08:49:14Z</time>
      </trkpt>
      <trkpt lat="46.93726" lon="5.84952">
        <ele>416</ele>
        <time>2017-10-26T08:49:23Z</time>
      </trkpt>
      <trkpt lat="46.93733" lon="5.8498">
        <ele>415</ele>
        <time>2017-10-26T08:49:39Z</time>
      </trkpt>
      <trkpt lat="46.93737" lon="5.84992">
        <ele>415</ele>
        <time>2017-10-26T08:49:47Z</time>
      </trkpt>
      <trkpt lat="46.93741" lon="5.85005">
        <ele>416</ele>
        <time>2017-10-26T08:49:56Z</time>
      </trkpt>
      <trkpt lat="46.93741" lon="5.85018">
        <ele>416</ele>
        <time>2017-10-26T08:50:04Z</time>
      </trkpt>
      <trkpt lat="46.93747" lon="5.85029">
        <ele>416</ele>
        <time>2017-10-26T08:50:13Z</time>
      </trkpt>
      <trkpt lat="46.9375" lon="5.85043">
        <ele>416</ele>
        <time>2017-10-26T08:50:21Z</time>
      </trkpt>
      <trkpt lat="46.93754" lon="5.85056">
        <ele>417</ele>
        <time>2017-10-26T08:50:30Z</time>
      </trkpt>
      <trkpt lat="46.93755" lon="5.8507">
        <ele>417</ele>
        <time>2017-10-26T08:50:39Z</time>
      </trkpt>
      <trkpt lat="46.93753" lon="5.85083">
        <ele>419</ele>
        <time>2017-10-26T08:50:48Z</time>
      </trkpt>
      <trkpt lat="46.93759" lon="5.85094">
        <ele>419</ele>
        <time>2017-10-26T08:50:54Z</time>
      </trkpt>
      <trkpt lat="46.93758" lon="5.85109">
        <ele>420</ele>
        <time>2017-10-26T08:51:01Z</time>
      </trkpt>
      <trkpt lat="46.93756" lon="5.85125">
        <ele>421</ele>
        <time>2017-10-26T08:51:11Z</time>
      </trkpt>
      <trkpt lat="46.93758" lon="5.85138">
        <ele>423</ele>
        <time>2017-10-26T08:51:20Z</time>
      </trkpt>
      <trkpt lat="46.93763" lon="5.85151">
        <ele>424</ele>
        <time>2017-10-26T08:51:28Z</time>
      </trkpt>
      <trkpt lat="46.93767" lon="5.85162">
        <ele>423</ele>
        <time>2017-10-26T08:51:36Z</time>
      </trkpt>
      <trkpt lat="46.93775" lon="5.85171">
        <ele>423</ele>
        <time>2017-10-26T08:51:41Z</time>
      </trkpt>
      <trkpt lat="46.93774" lon="5.85185">
        <ele>423</ele>
        <time>2017-10-26T08:51:52Z</time>
      </trkpt>
      <trkpt lat="46.93772" lon="5.85213">
        <ele>426</ele>
        <time>2017-10-26T08:52:13Z</time>
      </trkpt>
      <trkpt lat="46.93775" lon="5.85229">
        <ele>427</ele>
        <time>2017-10-26T08:52:30Z</time>
      </trkpt>
      <trkpt lat="46.93777" lon="5.85243">
        <ele>430</ele>
        <time>2017-10-26T08:52:42Z</time>
      </trkpt>
      <trkpt lat="46.93777" lon="5.85257">
        <ele>431</ele>
        <time>2017-10-26T08:52:53Z</time>
      </trkpt>
      <trkpt lat="46.93781" lon="5.8527">
        <ele>432</ele>
        <time>2017-10-26T08:53:02Z</time>
      </trkpt>
      <trkpt lat="46.93789" lon="5.8528">
        <ele>433</ele>
        <time>2017-10-26T08:53:08Z</time>
      </trkpt>
      <trkpt lat="46.93798" lon="5.85303">
        <ele>436</ele>
        <time>2017-10-26T08:53:23Z</time>
      </trkpt>
      <trkpt lat="46.938" lon="5.85331">
        <ele>440</ele>
        <time>2017-10-26T08:53:40Z</time>
      </trkpt>
      <trkpt lat="46.93806" lon="5.85343">
        <ele>440</ele>
        <time>2017-10-26T08:53:47Z</time>
      </trkpt>
      <trkpt lat="46.93808" lon="5.85358">
        <ele>441</ele>
        <time>2017-10-26T08:53:57Z</time>
      </trkpt>
      <trkpt lat="46.93811" lon="5.85371">
        <ele>442</ele>
        <time>2017-10-26T08:54:07Z</time>
      </trkpt>
      <trkpt lat="46.93815" lon="5.85399">
        <ele>444</ele>
        <time>2017-10-26T08:54:25Z</time>
      </trkpt>
      <trkpt lat="46.93826" lon="5.85422">
        <ele>444</ele>
        <time>2017-10-26T08:54:39Z</time>
      </trkpt>
      <trkpt lat="46.93832" lon="5.85448">
        <ele>447</ele>
        <time>2017-10-26T08:54:57Z</time>
      </trkpt>
      <trkpt lat="46.93838" lon="5.8546">
        <ele>449</ele>
        <time>2017-10-26T08:55:09Z</time>
      </trkpt>
      <trkpt lat="46.93845" lon="5.85485">
        <ele>451</ele>
        <time>2017-10-26T08:55:26Z</time>
      </trkpt>
      <trkpt lat="46.93851" lon="5.85496">
        <ele>451</ele>
        <time>2017-10-26T08:55:34Z</time>
      </trkpt>
      <trkpt lat="46.93871" lon="5.85542">
        <ele>457</ele>
        <time>2017-10-26T08:56:09Z</time>
      </trkpt>
      <trkpt lat="46.93877" lon="5.85568">
        <ele>456</ele>
        <time>2017-10-26T08:56:28Z</time>
      </trkpt>
      <trkpt lat="46.93882" lon="5.8558">
        <ele>457</ele>
        <time>2017-10-26T08:56:37Z</time>
      </trkpt>
      <trkpt lat="46.93884" lon="5.85592">
        <ele>458</ele>
        <time>2017-10-26T08:56:47Z</time>
      </trkpt>
      <trkpt lat="46.93889" lon="5.856">
        <ele>459</ele>
        <time>2017-10-26T08:57:29Z</time>
      </trkpt>
      <trkpt lat="46.93892" lon="5.85605">
        <ele>459</ele>
        <time>2017-10-26T08:57:46Z</time>
      </trkpt>
      <trkpt lat="46.93898" lon="5.85619">
        <ele>458</ele>
        <time>2017-10-26T08:57:55Z</time>
      </trkpt>
      <trkpt lat="46.93903" lon="5.85632">
        <ele>457</ele>
        <time>2017-10-26T08:58:02Z</time>
      </trkpt>
      <trkpt lat="46.93904" lon="5.85639">
        <ele>457</ele>
        <time>2017-10-26T08:58:07Z</time>
      </trkpt>
      <trkpt lat="46.93904" lon="5.85647">
        <ele>458</ele>
        <time>2017-10-26T08:58:13Z</time>
      </trkpt>
      <trkpt lat="46.93911" lon="5.85696">
        <ele>461</ele>
        <time>2017-10-26T08:58:49Z</time>
      </trkpt>
      <trkpt lat="46.93917" lon="5.85708">
        <ele>462</ele>
        <time>2017-10-26T08:58:56Z</time>
      </trkpt>
      <trkpt lat="46.93921" lon="5.85721">
        <ele>463</ele>
        <time>2017-10-26T08:59:05Z</time>
      </trkpt>
      <trkpt lat="46.93923" lon="5.85735">
        <ele>464</ele>
        <time>2017-10-26T08:59:15Z</time>
      </trkpt>
      <trkpt lat="46.93927" lon="5.85748">
        <ele>463</ele>
        <time>2017-10-26T08:59:23Z</time>
      </trkpt>
      <trkpt lat="46.93943" lon="5.858">
        <ele>463</ele>
        <time>2017-10-26T08:59:53Z</time>
      </trkpt>
      <trkpt lat="46.93943" lon="5.85814">
        <ele>463</ele>
        <time>2017-10-26T09:00:03Z</time>
      </trkpt>
      <trkpt lat="46.93951" lon="5.85839">
        <ele>465</ele>
        <time>2017-10-26T09:00:20Z</time>
      </trkpt>
      <trkpt lat="46.93955" lon="5.85853">
        <ele>466</ele>
        <time>2017-10-26T09:00:30Z</time>
      </trkpt>
      <trkpt lat="46.93971" lon="5.85889">
        <ele>468</ele>
        <time>2017-10-26T09:00:52Z</time>
      </trkpt>
      <trkpt lat="46.93983" lon="5.85911">
        <ele>469</ele>
        <time>2017-10-26T09:01:07Z</time>
      </trkpt>
      <trkpt lat="46.93987" lon="5.85923">
        <ele>469</ele>
        <time>2017-10-26T09:01:13Z</time>
      </trkpt>
      <trkpt lat="46.93994" lon="5.85934">
        <ele>470</ele>
        <time>2017-10-26T09:01:24Z</time>
      </trkpt>
      <trkpt lat="46.93999" lon="5.85946">
        <ele>470</ele>
        <time>2017-10-26T09:01:33Z</time>
      </trkpt>
      <trkpt lat="46.94019" lon="5.85993">
        <ele>472</ele>
        <time>2017-10-26T09:02:09Z</time>
      </trkpt>
      <trkpt lat="46.94036" lon="5.86035">
        <ele>479</ele>
        <time>2017-10-26T09:02:41Z</time>
      </trkpt>
      <trkpt lat="46.94053" lon="5.86059">
        <ele>484</ele>
        <time>2017-10-26T09:03:02Z</time>
      </trkpt>
      <trkpt lat="46.94066" lon="5.86071">
        <ele>486</ele>
        <time>2017-10-26T09:03:14Z</time>
      </trkpt>
      <trkpt lat="46.94077" lon="5.86096">
        <ele>491</ele>
        <time>2017-10-26T09:03:34Z</time>
      </trkpt>
      <trkpt lat="46.94084" lon="5.86104">
        <ele>492</ele>
        <time>2017-10-26T09:03:42Z</time>
      </trkpt>
      <trkpt lat="46.94087" lon="5.8611">
        <ele>493</ele>
        <time>2017-10-26T09:03:47Z</time>
      </trkpt>
      <trkpt lat="46.94092" lon="5.86115">
        <ele>493</ele>
        <time>2017-10-26T09:03:51Z</time>
      </trkpt>
      <trkpt lat="46.94105" lon="5.86138">
        <ele>496</ele>
        <time>2017-10-26T09:04:11Z</time>
      </trkpt>
      <trkpt lat="46.94122" lon="5.86163">
        <ele>497</ele>
        <time>2017-10-26T09:04:35Z</time>
      </trkpt>
      <trkpt lat="46.94125" lon="5.8617">
        <ele>497</ele>
        <time>2017-10-26T09:04:40Z</time>
      </trkpt>
      <trkpt lat="46.94132" lon="5.8618">
        <ele>498</ele>
        <time>2017-10-26T09:04:57Z</time>
      </trkpt>
      <trkpt lat="46.94137" lon="5.86186">
        <ele>499</ele>
        <time>2017-10-26T09:05:13Z</time>
      </trkpt>
      <trkpt lat="46.9414" lon="5.86193">
        <ele>500</ele>
        <time>2017-10-26T09:05:27Z</time>
      </trkpt>
      <trkpt lat="46.94151" lon="5.86202">
        <ele>501</ele>
        <time>2017-10-26T09:07:04Z</time>
      </trkpt>
      <trkpt lat="46.94156" lon="5.86205">
        <ele>503</ele>
        <time>2017-10-26T09:07:42Z</time>
      </trkpt>
      <trkpt lat="46.94056" lon="5.86246">
        <ele>512</ele>
        <time>2017-10-26T09:17:36Z</time>
      </trkpt>
      <trkpt lat="46.94031" lon="5.86249">
        <ele>516</ele>
        <time>2017-10-26T09:18:07Z</time>
      </trkpt>
      <trkpt lat="46.94027" lon="5.86248">
        <ele>517</ele>
        <time>2017-10-26T09:18:13Z</time>
      </trkpt>
      <trkpt lat="46.94017" lon="5.86254">
        <ele>518</ele>
        <time>2017-10-26T09:18:26Z</time>
      </trkpt>
      <trkpt lat="46.94005" lon="5.86264">
        <ele>520</ele>
        <time>2017-10-26T09:18:45Z</time>
      </trkpt>
      <trkpt lat="46.94001" lon="5.86269">
        <ele>522</ele>
        <time>2017-10-26T09:19:01Z</time>
      </trkpt>
      <trkpt lat="46.93993" lon="5.86263">
        <ele>523</ele>
        <time>2017-10-26T09:19:29Z</time>
      </trkpt>
      <trkpt lat="46.93989" lon="5.86264">
        <ele>525</ele>
        <time>2017-10-26T09:19:41Z</time>
      </trkpt>
      <trkpt lat="46.93984" lon="5.8626">
        <ele>526</ele>
        <time>2017-10-26T09:19:46Z</time>
      </trkpt>
      <trkpt lat="46.93978" lon="5.86256">
        <ele>527</ele>
        <time>2017-10-26T09:19:59Z</time>
      </trkpt>
      <trkpt lat="46.93971" lon="5.86246">
        <ele>528</ele>
        <time>2017-10-26T09:20:19Z</time>
      </trkpt>
      <trkpt lat="46.93967" lon="5.86241">
        <ele>529</ele>
        <time>2017-10-26T09:20:26Z</time>
      </trkpt>
      <trkpt lat="46.93961" lon="5.86231">
        <ele>531</ele>
        <time>2017-10-26T09:20:42Z</time>
      </trkpt>
      <trkpt lat="46.93958" lon="5.86227">
        <ele>531</ele>
        <time>2017-10-26T09:20:46Z</time>
      </trkpt>
      <trkpt lat="46.93942" lon="5.8621">
        <ele>533</ele>
        <time>2017-10-26T09:21:12Z</time>
      </trkpt>
      <trkpt lat="46.93933" lon="5.86204">
        <ele>534</ele>
        <time>2017-10-26T09:21:29Z</time>
      </trkpt>
      <trkpt lat="46.93925" lon="5.86198">
        <ele>537</ele>
        <time>2017-10-26T09:21:47Z</time>
      </trkpt>
      <trkpt lat="46.93914" lon="5.86182">
        <ele>541</ele>
        <time>2017-10-26T09:22:17Z</time>
      </trkpt>
      <trkpt lat="46.93912" lon="5.86176">
        <ele>543</ele>
        <time>2017-10-26T09:22:24Z</time>
      </trkpt>
      <trkpt lat="46.93908" lon="5.86171">
        <ele>544</ele>
        <time>2017-10-26T09:22:31Z</time>
      </trkpt>
      <trkpt lat="46.93906" lon="5.86165">
        <ele>546</ele>
        <time>2017-10-26T09:22:38Z</time>
      </trkpt>
      <trkpt lat="46.93902" lon="5.86159">
        <ele>546</ele>
        <time>2017-10-26T09:22:44Z</time>
      </trkpt>
      <trkpt lat="46.939" lon="5.86153">
        <ele>547</ele>
        <time>2017-10-26T09:22:54Z</time>
      </trkpt>
      <trkpt lat="46.93889" lon="5.86139">
        <ele>548</ele>
        <time>2017-10-26T09:23:12Z</time>
      </trkpt>
      <trkpt lat="46.93886" lon="5.86133">
        <ele>549</ele>
        <time>2017-10-26T09:23:18Z</time>
      </trkpt>
      <trkpt lat="46.93879" lon="5.86123">
        <ele>550</ele>
        <time>2017-10-26T09:23:33Z</time>
      </trkpt>
      <trkpt lat="46.93875" lon="5.86124">
        <ele>550</ele>
        <time>2017-10-26T09:23:40Z</time>
      </trkpt>
      <trkpt lat="46.93869" lon="5.86125">
        <ele>551</ele>
        <time>2017-10-26T09:23:53Z</time>
      </trkpt>
      <trkpt lat="46.93867" lon="5.86131">
        <ele>551</ele>
        <time>2017-10-26T09:23:59Z</time>
      </trkpt>
      <trkpt lat="46.93865" lon="5.86138">
        <ele>553</ele>
        <time>2017-10-26T09:24:07Z</time>
      </trkpt>
      <trkpt lat="46.93861" lon="5.86145">
        <ele>554</ele>
        <time>2017-10-26T09:24:11Z</time>
      </trkpt>
      <trkpt lat="46.93857" lon="5.86146">
        <ele>556</ele>
        <time>2017-10-26T09:24:19Z</time>
      </trkpt>
      <trkpt lat="46.93858" lon="5.86153">
        <ele>557</ele>
        <time>2017-10-26T09:24:27Z</time>
      </trkpt>
      <trkpt lat="46.93861" lon="5.86174">
        <ele>560</ele>
        <time>2017-10-26T09:24:48Z</time>
      </trkpt>
      <trkpt lat="46.9386" lon="5.86202">
        <ele>564</ele>
        <time>2017-10-26T09:25:16Z</time>
      </trkpt>
      <trkpt lat="46.9386" lon="5.86212">
        <ele>565</ele>
        <time>2017-10-26T09:25:26Z</time>
      </trkpt>
      <trkpt lat="46.93862" lon="5.86219">
        <ele>567</ele>
        <time>2017-10-26T09:25:34Z</time>
      </trkpt>
      <trkpt lat="46.93866" lon="5.86259">
        <ele>570</ele>
        <time>2017-10-26T09:26:16Z</time>
      </trkpt>
      <trkpt lat="46.93869" lon="5.86302">
        <ele>575</ele>
        <time>2017-10-26T09:26:56Z</time>
      </trkpt>
      <trkpt lat="46.93865" lon="5.86328">
        <ele>581</ele>
        <time>2017-10-26T09:27:28Z</time>
      </trkpt>
      <trkpt lat="46.93865" lon="5.86357">
        <ele>584</ele>
        <time>2017-10-26T09:27:52Z</time>
      </trkpt>
      <trkpt lat="46.93862" lon="5.8637">
        <ele>584</ele>
        <time>2017-10-26T09:28:01Z</time>
      </trkpt>
      <trkpt lat="46.93864" lon="5.86385">
        <ele>587</ele>
        <time>2017-10-26T09:28:12Z</time>
      </trkpt>
      <trkpt lat="46.93872" lon="5.86422">
        <ele>591</ele>
        <time>2017-10-26T09:29:13Z</time>
      </trkpt>
      <trkpt lat="46.93872" lon="5.86436">
        <ele>592</ele>
        <time>2017-10-26T09:29:25Z</time>
      </trkpt>
      <trkpt lat="46.93877" lon="5.86448">
        <ele>591</ele>
        <time>2017-10-26T09:29:34Z</time>
      </trkpt>
      <trkpt lat="46.93882" lon="5.86475">
        <ele>592</ele>
        <time>2017-10-26T09:29:53Z</time>
      </trkpt>
      <trkpt lat="46.93886" lon="5.86502">
        <ele>592</ele>
        <time>2017-10-26T09:30:16Z</time>
      </trkpt>
      <trkpt lat="46.93887" lon="5.86516">
        <ele>593</ele>
        <time>2017-10-26T09:30:29Z</time>
      </trkpt>
      <trkpt lat="46.9389" lon="5.86529">
        <ele>593</ele>
        <time>2017-10-26T09:30:37Z</time>
      </trkpt>
      <trkpt lat="46.9389" lon="5.86542">
        <ele>591</ele>
        <time>2017-10-26T09:30:48Z</time>
      </trkpt>
      <trkpt lat="46.93891" lon="5.86556">
        <ele>591</ele>
        <time>2017-10-26T09:31:00Z</time>
      </trkpt>
      <trkpt lat="46.93901" lon="5.86594">
        <ele>589</ele>
        <time>2017-10-26T09:31:35Z</time>
      </trkpt>
      <trkpt lat="46.93908" lon="5.8662">
        <ele>586</ele>
        <time>2017-10-26T09:31:54Z</time>
      </trkpt>
      <trkpt lat="46.93912" lon="5.86647">
        <ele>587</ele>
        <time>2017-10-26T09:32:12Z</time>
      </trkpt>
      <trkpt lat="46.93917" lon="5.86659">
        <ele>587</ele>
        <time>2017-10-26T09:32:20Z</time>
      </trkpt>
      <trkpt lat="46.93922" lon="5.8667">
        <ele>587</ele>
        <time>2017-10-26T09:32:27Z</time>
      </trkpt>
      <trkpt lat="46.93925" lon="5.86684">
        <ele>586</ele>
        <time>2017-10-26T09:32:36Z</time>
      </trkpt>
      <trkpt lat="46.93931" lon="5.86695">
        <ele>585</ele>
        <time>2017-10-26T09:32:44Z</time>
      </trkpt>
      <trkpt lat="46.93935" lon="5.86708">
        <ele>585</ele>
        <time>2017-10-26T09:32:55Z</time>
      </trkpt>
      <trkpt lat="46.93937" lon="5.86722">
        <ele>585</ele>
        <time>2017-10-26T09:33:07Z</time>
      </trkpt>
      <trkpt lat="46.93943" lon="5.86732">
        <ele>584</ele>
        <time>2017-10-26T09:33:14Z</time>
      </trkpt>
      <trkpt lat="46.93951" lon="5.86757">
        <ele>583</ele>
        <time>2017-10-26T09:33:31Z</time>
      </trkpt>
      <trkpt lat="46.93956" lon="5.86768">
        <ele>584</ele>
        <time>2017-10-26T09:33:41Z</time>
      </trkpt>
      <trkpt lat="46.93962" lon="5.86795">
        <ele>587</ele>
        <time>2017-10-26T09:33:59Z</time>
      </trkpt>
      <trkpt lat="46.93965" lon="5.86815">
        <ele>587</ele>
        <time>2017-10-26T09:34:18Z</time>
      </trkpt>
      <trkpt lat="46.93964" lon="5.86821">
        <ele>587</ele>
        <time>2017-10-26T09:34:24Z</time>
      </trkpt>
      <trkpt lat="46.9397" lon="5.86833">
        <ele>585</ele>
        <time>2017-10-26T09:34:39Z</time>
      </trkpt>
      <trkpt lat="46.93973" lon="5.86838">
        <ele>585</ele>
        <time>2017-10-26T09:34:44Z</time>
      </trkpt>
      <trkpt lat="46.93976" lon="5.86852">
        <ele>586</ele>
        <time>2017-10-26T09:34:54Z</time>
      </trkpt>
      <trkpt lat="46.93982" lon="5.86862">
        <ele>585</ele>
        <time>2017-10-26T09:35:03Z</time>
      </trkpt>
      <trkpt lat="46.93989" lon="5.86872">
        <ele>586</ele>
        <time>2017-10-26T09:35:14Z</time>
      </trkpt>
      <trkpt lat="46.93992" lon="5.86878">
        <ele>585</ele>
        <time>2017-10-26T09:35:18Z</time>
      </trkpt>
      <trkpt lat="46.93998" lon="5.86886">
        <ele>584</ele>
        <time>2017-10-26T09:35:34Z</time>
      </trkpt>
      <trkpt lat="46.93998" lon="5.86892">
        <ele>585</ele>
        <time>2017-10-26T09:35:40Z</time>
      </trkpt>
      <trkpt lat="46.94004" lon="5.86904">
        <ele>585</ele>
        <time>2017-10-26T09:35:53Z</time>
      </trkpt>
      <trkpt lat="46.94005" lon="5.8691">
        <ele>585</ele>
        <time>2017-10-26T09:35:59Z</time>
      </trkpt>
      <trkpt lat="46.94013" lon="5.86924">
        <ele>584</ele>
        <time>2017-10-26T09:36:30Z</time>
      </trkpt>
      <trkpt lat="46.94035" lon="5.86949">
        <ele>590</ele>
        <time>2017-10-26T09:37:07Z</time>
      </trkpt>
      <trkpt lat="46.94053" lon="5.86956">
        <ele>592</ele>
        <time>2017-10-26T09:37:24Z</time>
      </trkpt>
      <trkpt lat="46.94057" lon="5.86961">
        <ele>592</ele>
        <time>2017-10-26T09:37:29Z</time>
      </trkpt>
      <trkpt lat="46.94069" lon="5.86972">
        <ele>593</ele>
        <time>2017-10-26T09:37:48Z</time>
      </trkpt>
      <trkpt lat="46.94072" lon="5.86977">
        <ele>593</ele>
        <time>2017-10-26T09:37:56Z</time>
      </trkpt>
      <trkpt lat="46.94077" lon="5.8698">
        <ele>593</ele>
        <time>2017-10-26T09:38:02Z</time>
      </trkpt>
      <trkpt lat="46.94088" lon="5.8698">
        <ele>593</ele>
        <time>2017-10-26T09:38:10Z</time>
      </trkpt>
      <trkpt lat="46.94093" lon="5.8698">
        <ele>592</ele>
        <time>2017-10-26T09:38:19Z</time>
      </trkpt>
      <trkpt lat="46.94097" lon="5.86979">
        <ele>591</ele>
        <time>2017-10-26T09:38:23Z</time>
      </trkpt>
      <trkpt lat="46.94101" lon="5.86973">
        <ele>590</ele>
        <time>2017-10-26T09:38:27Z</time>
      </trkpt>
      <trkpt lat="46.94112" lon="5.86946">
        <ele>590</ele>
        <time>2017-10-26T09:39:03Z</time>
      </trkpt>
      <trkpt lat="46.94115" lon="5.8694">
        <ele>590</ele>
        <time>2017-10-26T09:39:09Z</time>
      </trkpt>
      <trkpt lat="46.94116" lon="5.86934">
        <ele>591</ele>
        <time>2017-10-26T09:39:16Z</time>
      </trkpt>
      <trkpt lat="46.94122" lon="5.86921">
        <ele>591</ele>
        <time>2017-10-26T09:39:28Z</time>
      </trkpt>
      <trkpt lat="46.94125" lon="5.86916">
        <ele>591</ele>
        <time>2017-10-26T09:39:34Z</time>
      </trkpt>
      <trkpt lat="46.94134" lon="5.86891">
        <ele>587</ele>
        <time>2017-10-26T09:39:52Z</time>
      </trkpt>
      <trkpt lat="46.94148" lon="5.86853">
        <ele>586</ele>
        <time>2017-10-26T09:40:25Z</time>
      </trkpt>
      <trkpt lat="46.94154" lon="5.86856">
        <ele>586</ele>
        <time>2017-10-26T09:40:39Z</time>
      </trkpt>
      <trkpt lat="46.94157" lon="5.86864">
        <ele>587</ele>
        <time>2017-10-26T09:40:56Z</time>
      </trkpt>
      <trkpt lat="46.94156" lon="5.86872">
        <ele>587</ele>
        <time>2017-10-26T09:41:01Z</time>
      </trkpt>
      <trkpt lat="46.94157" lon="5.86878">
        <ele>587</ele>
        <time>2017-10-26T09:41:05Z</time>
      </trkpt>
      <trkpt lat="46.94157" lon="5.86886">
        <ele>586</ele>
        <time>2017-10-26T09:41:15Z</time>
      </trkpt>
      <trkpt lat="46.94168" lon="5.86922">
        <ele>589</ele>
        <time>2017-10-26T09:41:55Z</time>
      </trkpt>
      <trkpt lat="46.94171" lon="5.86929">
        <ele>590</ele>
        <time>2017-10-26T09:42:01Z</time>
      </trkpt>
      <trkpt lat="46.94178" lon="5.8694">
        <ele>593</ele>
        <time>2017-10-26T09:42:16Z</time>
      </trkpt>
      <trkpt lat="46.94182" lon="5.86943">
        <ele>593</ele>
        <time>2017-10-26T09:42:23Z</time>
      </trkpt>
      <trkpt lat="46.94184" lon="5.86949">
        <ele>594</ele>
        <time>2017-10-26T09:42:30Z</time>
      </trkpt>
      <trkpt lat="46.94187" lon="5.86955">
        <ele>594</ele>
        <time>2017-10-26T09:42:38Z</time>
      </trkpt>
      <trkpt lat="46.94191" lon="5.86958">
        <ele>594</ele>
        <time>2017-10-26T09:42:46Z</time>
      </trkpt>
      <trkpt lat="46.94191" lon="5.86959">
        <ele>584</ele>
        <time>2017-10-26T09:44:58Z</time>
      </trkpt>
      <trkpt lat="46.94197" lon="5.86963">
        <ele>590</ele>
        <time>2017-10-26T09:46:43Z</time>
      </trkpt>
      <trkpt lat="46.94203" lon="5.86964">
        <ele>598</ele>
        <time>2017-10-26T09:47:32Z</time>
      </trkpt>
      <trkpt lat="46.94193" lon="5.8696">
        <ele>596</ele>
        <time>2017-10-26T09:49:40Z</time>
      </trkpt>
      <trkpt lat="46.9419" lon="5.86966">
        <ele>599</ele>
        <time>2017-10-26T09:49:47Z</time>
      </trkpt>
      <trkpt lat="46.9419" lon="5.86973">
        <ele>600</ele>
        <time>2017-10-26T09:49:54Z</time>
      </trkpt>
      <trkpt lat="46.94185" lon="5.86973">
        <ele>600</ele>
        <time>2017-10-26T09:49:59Z</time>
      </trkpt>
      <trkpt lat="46.9418" lon="5.86974">
        <ele>600</ele>
        <time>2017-10-26T09:50:02Z</time>
      </trkpt>
      <trkpt lat="46.94175" lon="5.86976">
        <ele>598</ele>
        <time>2017-10-26T09:50:08Z</time>
      </trkpt>
      <trkpt lat="46.94163" lon="5.86982">
        <ele>597</ele>
        <time>2017-10-26T09:51:05Z</time>
      </trkpt>
      <trkpt lat="46.94151" lon="5.86982">
        <ele>597</ele>
        <time>2017-10-26T09:51:09Z</time>
      </trkpt>
      <trkpt lat="46.94141" lon="5.86985">
        <ele>599</ele>
        <time>2017-10-26T09:51:16Z</time>
      </trkpt>
      <trkpt lat="46.94136" lon="5.86989">
        <ele>601</ele>
        <time>2017-10-26T09:51:23Z</time>
      </trkpt>
      <trkpt lat="46.94129" lon="5.86997">
        <ele>602</ele>
        <time>2017-10-26T09:51:38Z</time>
      </trkpt>
      <trkpt lat="46.94123" lon="5.86999">
        <ele>601</ele>
        <time>2017-10-26T09:51:48Z</time>
      </trkpt>
      <trkpt lat="46.94118" lon="5.87001">
        <ele>601</ele>
        <time>2017-10-26T09:51:55Z</time>
      </trkpt>
      <trkpt lat="46.94114" lon="5.87004">
        <ele>602</ele>
        <time>2017-10-26T09:52:01Z</time>
      </trkpt>
      <trkpt lat="46.94111" lon="5.87016">
        <ele>602</ele>
        <time>2017-10-26T09:52:52Z</time>
      </trkpt>
      <trkpt lat="46.94107" lon="5.87019">
        <ele>601</ele>
        <time>2017-10-26T09:52:58Z</time>
      </trkpt>
      <trkpt lat="46.94103" lon="5.87024">
        <ele>600</ele>
        <time>2017-10-26T09:53:04Z</time>
      </trkpt>
      <trkpt lat="46.94099" lon="5.8703">
        <ele>600</ele>
        <time>2017-10-26T09:53:11Z</time>
      </trkpt>
      <trkpt lat="46.94096" lon="5.87035">
        <ele>600</ele>
        <time>2017-10-26T09:53:16Z</time>
      </trkpt>
      <trkpt lat="46.94087" lon="5.87047">
        <ele>602</ele>
        <time>2017-10-26T09:53:35Z</time>
      </trkpt>
      <trkpt lat="46.94082" lon="5.8705">
        <ele>602</ele>
        <time>2017-10-26T09:53:42Z</time>
      </trkpt>
      <trkpt lat="46.94078" lon="5.87051">
        <ele>603</ele>
        <time>2017-10-26T09:53:49Z</time>
      </trkpt>
      <trkpt lat="46.94074" lon="5.87048">
        <ele>603</ele>
        <time>2017-10-26T09:53:56Z</time>
      </trkpt>
      <trkpt lat="46.94071" lon="5.87043">
        <ele>602</ele>
        <time>2017-10-26T09:54:00Z</time>
      </trkpt>
      <trkpt lat="46.94068" lon="5.87036">
        <ele>602</ele>
        <time>2017-10-26T09:54:12Z</time>
      </trkpt>
      <trkpt lat="46.94064" lon="5.87031">
        <ele>602</ele>
        <time>2017-10-26T09:54:18Z</time>
      </trkpt>
      <trkpt lat="46.94064" lon="5.87036">
        <ele>605</ele>
        <time>2017-10-26T09:55:56Z</time>
      </trkpt>
      <trkpt lat="46.94067" lon="5.87024">
        <ele>605</ele>
        <time>2017-10-26T09:58:04Z</time>
      </trkpt>
      <trkpt lat="46.94068" lon="5.87018">
        <ele>603</ele>
        <time>2017-10-26T09:58:08Z</time>
      </trkpt>
      <trkpt lat="46.94071" lon="5.87012">
        <ele>602</ele>
        <time>2017-10-26T09:58:14Z</time>
      </trkpt>
      <trkpt lat="46.94079" lon="5.8701">
        <ele>605</ele>
        <time>2017-10-26T09:58:55Z</time>
      </trkpt>
      <trkpt lat="46.9408" lon="5.87019">
        <ele>606</ele>
        <time>2017-10-26T10:00:09Z</time>
      </trkpt>
      <trkpt lat="46.94081" lon="5.87034">
        <ele>606</ele>
        <time>2017-10-26T10:00:19Z</time>
      </trkpt>
      <trkpt lat="46.94089" lon="5.8704">
        <ele>606</ele>
        <time>2017-10-26T10:00:33Z</time>
      </trkpt>
      <trkpt lat="46.94094" lon="5.8704">
        <ele>606</ele>
        <time>2017-10-26T10:00:38Z</time>
      </trkpt>
      <trkpt lat="46.94102" lon="5.8703">
        <ele>605</ele>
        <time>2017-10-26T10:00:48Z</time>
      </trkpt>
      <trkpt lat="46.94116" lon="5.87021">
        <ele>605</ele>
        <time>2017-10-26T10:01:01Z</time>
      </trkpt>
      <trkpt lat="46.9412" lon="5.87017">
        <ele>604</ele>
        <time>2017-10-26T10:01:05Z</time>
      </trkpt>
      <trkpt lat="46.94124" lon="5.87013">
        <ele>603</ele>
        <time>2017-10-26T10:01:10Z</time>
      </trkpt>
      <trkpt lat="46.94133" lon="5.87003">
        <ele>603</ele>
        <time>2017-10-26T10:01:20Z</time>
      </trkpt>
      <trkpt lat="46.94146" lon="5.86993">
        <ele>603</ele>
        <time>2017-10-26T10:01:37Z</time>
      </trkpt>
      <trkpt lat="46.94152" lon="5.86992">
        <ele>603</ele>
        <time>2017-10-26T10:01:42Z</time>
      </trkpt>
      <trkpt lat="46.94156" lon="5.86992">
        <ele>603</ele>
        <time>2017-10-26T10:01:50Z</time>
      </trkpt>
      <trkpt lat="46.94173" lon="5.86966">
        <ele>601</ele>
        <time>2017-10-26T10:02:13Z</time>
      </trkpt>
      <trkpt lat="46.94182" lon="5.86973">
        <ele>595</ele>
        <time>2017-10-26T10:03:26Z</time>
      </trkpt>
      <trkpt lat="46.94187" lon="5.86966">
        <ele>595</ele>
        <time>2017-10-26T10:03:33Z</time>
      </trkpt>
      <trkpt lat="46.94187" lon="5.86958">
        <ele>598</ele>
        <time>2017-10-26T10:03:37Z</time>
      </trkpt>
      <trkpt lat="46.94184" lon="5.86943">
        <ele>600</ele>
        <time>2017-10-26T10:03:45Z</time>
      </trkpt>
      <trkpt lat="46.94184" lon="5.86937">
        <ele>601</ele>
        <time>2017-10-26T10:03:49Z</time>
      </trkpt>
      <trkpt lat="46.94181" lon="5.8693">
        <ele>601</ele>
        <time>2017-10-26T10:03:54Z</time>
      </trkpt>
      <trkpt lat="46.94178" lon="5.86924">
        <ele>601</ele>
        <time>2017-10-26T10:03:58Z</time>
      </trkpt>
      <trkpt lat="46.9417" lon="5.86896">
        <ele>595</ele>
        <time>2017-10-26T10:04:16Z</time>
      </trkpt>
      <trkpt lat="46.94167" lon="5.86882">
        <ele>594</ele>
        <time>2017-10-26T10:04:24Z</time>
      </trkpt>
      <trkpt lat="46.94163" lon="5.86869">
        <ele>594</ele>
        <time>2017-10-26T10:04:32Z</time>
      </trkpt>
      <trkpt lat="46.94157" lon="5.86849">
        <ele>593</ele>
        <time>2017-10-26T10:04:45Z</time>
      </trkpt>
      <trkpt lat="46.94152" lon="5.86846">
        <ele>593</ele>
        <time>2017-10-26T10:04:50Z</time>
      </trkpt>
      <trkpt lat="46.94147" lon="5.86848">
        <ele>592</ele>
        <time>2017-10-26T10:04:53Z</time>
      </trkpt>
      <trkpt lat="46.94142" lon="5.86853">
        <ele>592</ele>
        <time>2017-10-26T10:04:57Z</time>
      </trkpt>
      <trkpt lat="46.94139" lon="5.86858">
        <ele>593</ele>
        <time>2017-10-26T10:05:00Z</time>
      </trkpt>
      <trkpt lat="46.94136" lon="5.86865">
        <ele>593</ele>
        <time>2017-10-26T10:05:04Z</time>
      </trkpt>
      <trkpt lat="46.9413" lon="5.86875">
        <ele>593</ele>
        <time>2017-10-26T10:05:12Z</time>
      </trkpt>
      <trkpt lat="46.94127" lon="5.86882">
        <ele>592</ele>
        <time>2017-10-26T10:05:16Z</time>
      </trkpt>
      <trkpt lat="46.94108" lon="5.86933">
        <ele>590</ele>
        <time>2017-10-26T10:05:48Z</time>
      </trkpt>
      <trkpt lat="46.94103" lon="5.86945">
        <ele>591</ele>
        <time>2017-10-26T10:05:56Z</time>
      </trkpt>
      <trkpt lat="46.94099" lon="5.86949">
        <ele>591</ele>
        <time>2017-10-26T10:06:02Z</time>
      </trkpt>
      <trkpt lat="46.94091" lon="5.86942">
        <ele>590</ele>
        <time>2017-10-26T10:06:09Z</time>
      </trkpt>
      <trkpt lat="46.94076" lon="5.86939">
        <ele>590</ele>
        <time>2017-10-26T10:06:20Z</time>
      </trkpt>
      <trkpt lat="46.94064" lon="5.86949">
        <ele>589</ele>
        <time>2017-10-26T10:06:29Z</time>
      </trkpt>
      <trkpt lat="46.94059" lon="5.86949">
        <ele>589</ele>
        <time>2017-10-26T10:06:35Z</time>
      </trkpt>
      <trkpt lat="46.94054" lon="5.86949">
        <ele>589</ele>
        <time>2017-10-26T10:06:42Z</time>
      </trkpt>
      <trkpt lat="46.9405" lon="5.86949">
        <ele>591</ele>
        <time>2017-10-26T10:06:50Z</time>
      </trkpt>
      <trkpt lat="46.94045" lon="5.86946">
        <ele>592</ele>
        <time>2017-10-26T10:06:56Z</time>
      </trkpt>
      <trkpt lat="46.94041" lon="5.86941">
        <ele>592</ele>
        <time>2017-10-26T10:07:01Z</time>
      </trkpt>
      <trkpt lat="46.94028" lon="5.86911">
        <ele>593</ele>
        <time>2017-10-26T10:07:27Z</time>
      </trkpt>
      <trkpt lat="46.94024" lon="5.86899">
        <ele>592</ele>
        <time>2017-10-26T10:07:36Z</time>
      </trkpt>
      <trkpt lat="46.94018" lon="5.86887">
        <ele>591</ele>
        <time>2017-10-26T10:07:45Z</time>
      </trkpt>
      <trkpt lat="46.94011" lon="5.86878">
        <ele>590</ele>
        <time>2017-10-26T10:07:53Z</time>
      </trkpt>
      <trkpt lat="46.94006" lon="5.86866">
        <ele>589</ele>
        <time>2017-10-26T10:08:02Z</time>
      </trkpt>
      <trkpt lat="46.93982" lon="5.86833">
        <ele>584</ele>
        <time>2017-10-26T10:08:30Z</time>
      </trkpt>
      <trkpt lat="46.93981" lon="5.86826">
        <ele>584</ele>
        <time>2017-10-26T10:08:36Z</time>
      </trkpt>
      <trkpt lat="46.93975" lon="5.86824">
        <ele>581</ele>
        <time>2017-10-26T10:08:51Z</time>
      </trkpt>
      <trkpt lat="46.93975" lon="5.86816">
        <ele>578</ele>
        <time>2017-10-26T10:10:09Z</time>
      </trkpt>
      <trkpt lat="46.93971" lon="5.86811">
        <ele>575</ele>
        <time>2017-10-26T10:10:14Z</time>
      </trkpt>
      <trkpt lat="46.93973" lon="5.86804">
        <ele>575</ele>
        <time>2017-10-26T10:10:55Z</time>
      </trkpt>
      <trkpt lat="46.93974" lon="5.86796">
        <ele>574</ele>
        <time>2017-10-26T10:11:00Z</time>
      </trkpt>
      <trkpt lat="46.93976" lon="5.86779">
        <ele>573</ele>
        <time>2017-10-26T10:11:09Z</time>
      </trkpt>
      <trkpt lat="46.93978" lon="5.8679">
        <ele>570</ele>
        <time>2017-10-26T10:11:56Z</time>
      </trkpt>
      <trkpt lat="46.93965" lon="5.86799">
        <ele>568</ele>
        <time>2017-10-26T10:13:08Z</time>
      </trkpt>
      <trkpt lat="46.93954" lon="5.86844">
        <ele>570</ele>
        <time>2017-10-26T10:50:53Z</time>
      </trkpt>
      <trkpt lat="46.93951" lon="5.86852">
        <ele>571</ele>
        <time>2017-10-26T10:50:58Z</time>
      </trkpt>
      <trkpt lat="46.93944" lon="5.86863">
        <ele>571</ele>
        <time>2017-10-26T10:51:09Z</time>
      </trkpt>
      <trkpt lat="46.93936" lon="5.86881">
        <ele>570</ele>
        <time>2017-10-26T10:51:25Z</time>
      </trkpt>
      <trkpt lat="46.93932" lon="5.86895">
        <ele>570</ele>
        <time>2017-10-26T10:51:35Z</time>
      </trkpt>
      <trkpt lat="46.93925" lon="5.86938">
        <ele>570</ele>
        <time>2017-10-26T10:52:05Z</time>
      </trkpt>
      <trkpt lat="46.93925" lon="5.86946">
        <ele>570</ele>
        <time>2017-10-26T10:52:10Z</time>
      </trkpt>
      <trkpt lat="46.93931" lon="5.86968">
        <ele>569</ele>
        <time>2017-10-26T10:52:22Z</time>
      </trkpt>
      <trkpt lat="46.93938" lon="5.86976">
        <ele>570</ele>
        <time>2017-10-26T10:52:31Z</time>
      </trkpt>
      <trkpt lat="46.93948" lon="5.86982">
        <ele>571</ele>
        <time>2017-10-26T10:52:41Z</time>
      </trkpt>
      <trkpt lat="46.93951" lon="5.86988">
        <ele>572</ele>
        <time>2017-10-26T10:52:46Z</time>
      </trkpt>
      <trkpt lat="46.93953" lon="5.87017">
        <ele>572</ele>
        <time>2017-10-26T10:53:06Z</time>
      </trkpt>
      <trkpt lat="46.93952" lon="5.87032">
        <ele>572</ele>
        <time>2017-10-26T10:53:17Z</time>
      </trkpt>
      <trkpt lat="46.93953" lon="5.86989">
        <ele>576</ele>
        <time>2017-10-26T10:58:05Z</time>
      </trkpt>
      <trkpt lat="46.93949" lon="5.86976">
        <ele>576</ele>
        <time>2017-10-26T10:58:18Z</time>
      </trkpt>
      <trkpt lat="46.93937" lon="5.86961">
        <ele>575</ele>
        <time>2017-10-26T10:59:22Z</time>
      </trkpt>
      <trkpt lat="46.93934" lon="5.86949">
        <ele>573</ele>
        <time>2017-10-26T10:59:31Z</time>
      </trkpt>
      <trkpt lat="46.93936" lon="5.86936">
        <ele>571</ele>
        <time>2017-10-26T10:59:39Z</time>
      </trkpt>
      <trkpt lat="46.9394" lon="5.86924">
        <ele>570</ele>
        <time>2017-10-26T10:59:44Z</time>
      </trkpt>
      <trkpt lat="46.93941" lon="5.86909">
        <ele>569</ele>
        <time>2017-10-26T10:59:53Z</time>
      </trkpt>
      <trkpt lat="46.93943" lon="5.86894">
        <ele>570</ele>
        <time>2017-10-26T11:00:08Z</time>
      </trkpt>
      <trkpt lat="46.93959" lon="5.8686">
        <ele>574</ele>
        <time>2017-10-26T11:00:33Z</time>
      </trkpt>
      <trkpt lat="46.93969" lon="5.86836">
        <ele>575</ele>
        <time>2017-10-26T11:00:53Z</time>
      </trkpt>
      <trkpt lat="46.93969" lon="5.86794">
        <ele>576</ele>
        <time>2017-10-26T11:01:14Z</time>
      </trkpt>
      <trkpt lat="46.93966" lon="5.8678">
        <ele>577</ele>
        <time>2017-10-26T11:01:23Z</time>
      </trkpt>
      <trkpt lat="46.93957" lon="5.86756">
        <ele>578</ele>
        <time>2017-10-26T11:01:40Z</time>
      </trkpt>
      <trkpt lat="46.93955" lon="5.86743">
        <ele>579</ele>
        <time>2017-10-26T11:01:50Z</time>
      </trkpt>
      <trkpt lat="46.9395" lon="5.86714">
        <ele>579</ele>
        <time>2017-10-26T11:02:10Z</time>
      </trkpt>
      <trkpt lat="46.93945" lon="5.86701">
        <ele>580</ele>
        <time>2017-10-26T11:02:18Z</time>
      </trkpt>
      <trkpt lat="46.93941" lon="5.86688">
        <ele>582</ele>
        <time>2017-10-26T11:02:26Z</time>
      </trkpt>
      <trkpt lat="46.93937" lon="5.86675">
        <ele>581</ele>
        <time>2017-10-26T11:02:34Z</time>
      </trkpt>
      <trkpt lat="46.93931" lon="5.86663">
        <ele>582</ele>
        <time>2017-10-26T11:02:42Z</time>
      </trkpt>
      <trkpt lat="46.93918" lon="5.86609">
        <ele>583</ele>
        <time>2017-10-26T11:03:20Z</time>
      </trkpt>
      <trkpt lat="46.93909" lon="5.86586">
        <ele>584</ele>
        <time>2017-10-26T11:03:43Z</time>
      </trkpt>
      <trkpt lat="46.93908" lon="5.86573">
        <ele>584</ele>
        <time>2017-10-26T11:03:52Z</time>
      </trkpt>
      <trkpt lat="46.93901" lon="5.86563">
        <ele>585</ele>
        <time>2017-10-26T11:04:02Z</time>
      </trkpt>
      <trkpt lat="46.93902" lon="5.86549">
        <ele>586</ele>
        <time>2017-10-26T11:04:12Z</time>
      </trkpt>
      <trkpt lat="46.93898" lon="5.86537">
        <ele>587</ele>
        <time>2017-10-26T11:04:22Z</time>
      </trkpt>
      <trkpt lat="46.939" lon="5.86523">
        <ele>587</ele>
        <time>2017-10-26T11:04:31Z</time>
      </trkpt>
      <trkpt lat="46.93897" lon="5.8651">
        <ele>589</ele>
        <time>2017-10-26T11:04:44Z</time>
      </trkpt>
      <trkpt lat="46.93896" lon="5.86497">
        <ele>591</ele>
        <time>2017-10-26T11:04:55Z</time>
      </trkpt>
      <trkpt lat="46.93898" lon="5.86483">
        <ele>593</ele>
        <time>2017-10-26T11:05:05Z</time>
      </trkpt>
      <trkpt lat="46.93895" lon="5.86469">
        <ele>594</ele>
        <time>2017-10-26T11:05:13Z</time>
      </trkpt>
      <trkpt lat="46.93893" lon="5.86456">
        <ele>596</ele>
        <time>2017-10-26T11:05:21Z</time>
      </trkpt>
      <trkpt lat="46.93891" lon="5.86443">
        <ele>597</ele>
        <time>2017-10-26T11:05:30Z</time>
      </trkpt>
      <trkpt lat="46.9388" lon="5.86419">
        <ele>599</ele>
        <time>2017-10-26T11:05:48Z</time>
      </trkpt>
      <trkpt lat="46.93875" lon="5.86364">
        <ele>608</ele>
        <time>2017-10-26T11:06:30Z</time>
      </trkpt>
      <trkpt lat="46.93878" lon="5.86351">
        <ele>609</ele>
        <time>2017-10-26T11:06:40Z</time>
      </trkpt>
      <trkpt lat="46.93881" lon="5.86338">
        <ele>609</ele>
        <time>2017-10-26T11:06:51Z</time>
      </trkpt>
      <trkpt lat="46.93876" lon="5.86326">
        <ele>607</ele>
        <time>2017-10-26T11:07:07Z</time>
      </trkpt>
      <trkpt lat="46.93884" lon="5.86298">
        <ele>604</ele>
        <time>2017-10-26T11:07:25Z</time>
      </trkpt>
      <trkpt lat="46.93875" lon="5.86243">
        <ele>597</ele>
        <time>2017-10-26T11:08:04Z</time>
      </trkpt>
      <trkpt lat="46.93874" lon="5.86229">
        <ele>595</ele>
        <time>2017-10-26T11:08:15Z</time>
      </trkpt>
      <trkpt lat="46.93872" lon="5.86216">
        <ele>595</ele>
        <time>2017-10-26T11:08:26Z</time>
      </trkpt>
      <trkpt lat="46.93867" lon="5.86189">
        <ele>589</ele>
        <time>2017-10-26T11:08:46Z</time>
      </trkpt>
      <trkpt lat="46.93865" lon="5.86161">
        <ele>584</ele>
        <time>2017-10-26T11:09:13Z</time>
      </trkpt>
      <trkpt lat="46.93868" lon="5.86155">
        <ele>582</ele>
        <time>2017-10-26T11:09:22Z</time>
      </trkpt>
      <trkpt lat="46.93872" lon="5.8615">
        <ele>582</ele>
        <time>2017-10-26T11:09:30Z</time>
      </trkpt>
      <trkpt lat="46.93874" lon="5.86144">
        <ele>580</ele>
        <time>2017-10-26T11:09:43Z</time>
      </trkpt>
      <trkpt lat="46.93877" lon="5.86138">
        <ele>578</ele>
        <time>2017-10-26T11:10:07Z</time>
      </trkpt>
      <trkpt lat="46.93882" lon="5.86144">
        <ele>572</ele>
        <time>2017-10-26T11:10:37Z</time>
      </trkpt>
      <trkpt lat="46.93889" lon="5.86154">
        <ele>571</ele>
        <time>2017-10-26T11:10:48Z</time>
      </trkpt>
      <trkpt lat="46.93895" lon="5.86164">
        <ele>568</ele>
        <time>2017-10-26T11:11:00Z</time>
      </trkpt>
      <trkpt lat="46.93908" lon="5.86183">
        <ele>565</ele>
        <time>2017-10-26T11:11:24Z</time>
      </trkpt>
      <trkpt lat="46.93914" lon="5.86194">
        <ele>565</ele>
        <time>2017-10-26T11:11:38Z</time>
      </trkpt>
      <trkpt lat="46.9392" lon="5.86204">
        <ele>562</ele>
        <time>2017-10-26T11:11:57Z</time>
      </trkpt>
      <trkpt lat="46.93927" lon="5.86212">
        <ele>561</ele>
        <time>2017-10-26T11:12:12Z</time>
      </trkpt>
      <trkpt lat="46.93942" lon="5.86228">
        <ele>557</ele>
        <time>2017-10-26T11:12:36Z</time>
      </trkpt>
      <trkpt lat="46.9395" lon="5.86234">
        <ele>554</ele>
        <time>2017-10-26T11:12:48Z</time>
      </trkpt>
      <trkpt lat="46.93965" lon="5.8625">
        <ele>552</ele>
        <time>2017-10-26T11:13:06Z</time>
      </trkpt>
      <trkpt lat="46.93971" lon="5.86261">
        <ele>550</ele>
        <time>2017-10-26T11:13:17Z</time>
      </trkpt>
      <trkpt lat="46.9398" lon="5.86265">
        <ele>548</ele>
        <time>2017-10-26T11:13:26Z</time>
      </trkpt>
      <trkpt lat="46.93988" lon="5.86273">
        <ele>547</ele>
        <time>2017-10-26T11:13:36Z</time>
      </trkpt>
      <trkpt lat="46.94016" lon="5.86271">
        <ele>543</ele>
        <time>2017-10-26T11:14:01Z</time>
      </trkpt>
      <trkpt lat="46.94025" lon="5.86267">
        <ele>543</ele>
        <time>2017-10-26T11:14:10Z</time>
      </trkpt>
      <trkpt lat="46.94035" lon="5.86268">
        <ele>540</ele>
        <time>2017-10-26T11:14:20Z</time>
      </trkpt>
      <trkpt lat="46.94044" lon="5.86261">
        <ele>538</ele>
        <time>2017-10-26T11:14:30Z</time>
      </trkpt>
      <trkpt lat="46.94053" lon="5.86258">
        <ele>536</ele>
        <time>2017-10-26T11:14:40Z</time>
      </trkpt>
      <trkpt lat="46.94059" lon="5.86255">
        <ele>535</ele>
        <time>2017-10-26T11:14:44Z</time>
      </trkpt>
      <trkpt lat="46.94087" lon="5.86225">
        <ele>527</ele>
        <time>2017-10-26T11:15:21Z</time>
      </trkpt>
      <trkpt lat="46.94095" lon="5.86217">
        <ele>527</ele>
        <time>2017-10-26T11:15:35Z</time>
      </trkpt>
      <trkpt lat="46.94113" lon="5.86214">
        <ele>523</ele>
        <time>2017-10-26T11:16:02Z</time>
      </trkpt>
      <trkpt lat="46.94122" lon="5.86215">
        <ele>522</ele>
        <time>2017-10-26T11:16:11Z</time>
      </trkpt>
      <trkpt lat="46.94128" lon="5.86217">
        <ele>519</ele>
        <time>2017-10-26T11:16:16Z</time>
      </trkpt>
      <trkpt lat="46.94133" lon="5.86216">
        <ele>519</ele>
        <time>2017-10-26T11:16:21Z</time>
      </trkpt>
      <trkpt lat="46.94143" lon="5.86209">
        <ele>517</ele>
        <time>2017-10-26T11:16:29Z</time>
      </trkpt>
      <trkpt lat="46.94147" lon="5.86208">
        <ele>516</ele>
        <time>2017-10-26T11:16:33Z</time>
      </trkpt>
      <trkpt lat="46.94152" lon="5.86209">
        <ele>516</ele>
        <time>2017-10-26T11:16:38Z</time>
      </trkpt>
      <trkpt lat="46.94157" lon="5.8621">
        <ele>516</ele>
        <time>2017-10-26T11:16:43Z</time>
      </trkpt>
      <trkpt lat="46.94162" lon="5.86207">
        <ele>516</ele>
        <time>2017-10-26T11:16:48Z</time>
      </trkpt>
      <trkpt lat="46.94166" lon="5.86202">
        <ele>515</ele>
        <time>2017-10-26T11:16:52Z</time>
      </trkpt>
      <trkpt lat="46.94164" lon="5.86195">
        <ele>513</ele>
        <time>2017-10-26T11:16:56Z</time>
      </trkpt>
      <trkpt lat="46.94163" lon="5.86188">
        <ele>513</ele>
        <time>2017-10-26T11:17:01Z</time>
      </trkpt>
      <trkpt lat="46.94169" lon="5.86194">
        <ele>512</ele>
        <time>2017-10-26T11:17:49Z</time>
      </trkpt>
      <trkpt lat="46.94168" lon="5.86187">
        <ele>511</ele>
        <time>2017-10-26T11:17:59Z</time>
      </trkpt>
      <trkpt lat="46.94172" lon="5.86189">
        <ele>506</ele>
        <time>2017-10-26T11:18:44Z</time>
      </trkpt>
      <trkpt lat="46.94182" lon="5.8619">
        <ele>506</ele>
        <time>2017-10-26T11:18:57Z</time>
      </trkpt>
      <trkpt lat="46.9419" lon="5.86188">
        <ele>506</ele>
        <time>2017-10-26T11:19:09Z</time>
      </trkpt>
      <trkpt lat="46.94197" lon="5.86178">
        <ele>506</ele>
        <time>2017-10-26T11:19:28Z</time>
      </trkpt>
      <trkpt lat="46.94214" lon="5.8614">
        <ele>511</ele>
        <time>2017-10-26T11:20:20Z</time>
      </trkpt>
      <trkpt lat="46.94223" lon="5.86138">
        <ele>512</ele>
        <time>2017-10-26T11:21:05Z</time>
      </trkpt>
      <trkpt lat="46.94224" lon="5.8611">
        <ele>519</ele>
        <time>2017-10-26T11:21:47Z</time>
      </trkpt>
      <trkpt lat="46.94222" lon="5.86096">
        <ele>521</ele>
        <time>2017-10-26T11:22:00Z</time>
      </trkpt>
      <trkpt lat="46.94222" lon="5.86082">
        <ele>522</ele>
        <time>2017-10-26T11:22:11Z</time>
      </trkpt>
      <trkpt lat="46.94221" lon="5.86069">
        <ele>522</ele>
        <time>2017-10-26T11:22:23Z</time>
      </trkpt>
      <trkpt lat="46.94222" lon="5.86042">
        <ele>525</ele>
        <time>2017-10-26T11:22:52Z</time>
      </trkpt>
      <trkpt lat="46.94221" lon="5.86029">
        <ele>528</ele>
        <time>2017-10-26T11:23:10Z</time>
      </trkpt>
      <trkpt lat="46.94229" lon="5.86024">
        <ele>532</ele>
        <time>2017-10-26T11:23:54Z</time>
      </trkpt>
      <trkpt lat="46.94244" lon="5.86037">
        <ele>534</ele>
        <time>2017-10-26T11:24:57Z</time>
      </trkpt>
      <trkpt lat="46.94264" lon="5.86039">
        <ele>544</ele>
        <time>2017-10-26T11:25:42Z</time>
      </trkpt>
      <trkpt lat="46.94266" lon="5.86023">
        <ele>551</ele>
        <time>2017-10-26T11:26:18Z</time>
      </trkpt>
      <trkpt lat="46.94262" lon="5.85991">
        <ele>566</ele>
        <time>2017-10-26T11:26:58Z</time>
      </trkpt>
      <trkpt lat="46.94267" lon="5.85968">
        <ele>573</ele>
        <time>2017-10-26T11:27:31Z</time>
      </trkpt>
      <trkpt lat="46.94267" lon="5.85954">
        <ele>577</ele>
        <time>2017-10-26T11:27:45Z</time>
      </trkpt>
      <trkpt lat="46.94268" lon="5.85934">
        <ele>580</ele>
        <time>2017-10-26T11:28:12Z</time>
      </trkpt>
      <trkpt lat="46.94266" lon="5.85918">
        <ele>584</ele>
        <time>2017-10-26T11:28:47Z</time>
      </trkpt>
      <trkpt lat="46.94272" lon="5.85886">
        <ele>591</ele>
        <time>2017-10-26T11:29:29Z</time>
      </trkpt>
      <trkpt lat="46.94271" lon="5.85873">
        <ele>592</ele>
        <time>2017-10-26T11:29:41Z</time>
      </trkpt>
      <trkpt lat="46.94274" lon="5.8586">
        <ele>593</ele>
        <time>2017-10-26T11:29:56Z</time>
      </trkpt>
      <trkpt lat="46.94272" lon="5.85846">
        <ele>595</ele>
        <time>2017-10-26T11:30:09Z</time>
      </trkpt>
      <trkpt lat="46.94276" lon="5.85819">
        <ele>597</ele>
        <time>2017-10-26T11:30:36Z</time>
      </trkpt>
      <trkpt lat="46.94273" lon="5.85806">
        <ele>598</ele>
        <time>2017-10-26T11:30:50Z</time>
      </trkpt>
      <trkpt lat="46.94271" lon="5.85788">
        <ele>602</ele>
        <time>2017-10-26T11:31:09Z</time>
      </trkpt>
      <trkpt lat="46.94273" lon="5.85782">
        <ele>603</ele>
        <time>2017-10-26T11:31:16Z</time>
      </trkpt>
      <trkpt lat="46.94272" lon="5.85774">
        <ele>605</ele>
        <time>2017-10-26T11:33:46Z</time>
      </trkpt>
      <trkpt lat="46.94274" lon="5.85765">
        <ele>605</ele>
        <time>2017-10-26T11:34:47Z</time>
      </trkpt>
      <trkpt lat="46.94276" lon="5.85752">
        <ele>605</ele>
        <time>2017-10-26T11:34:58Z</time>
      </trkpt>
      <trkpt lat="46.94273" lon="5.8574">
        <ele>605</ele>
        <time>2017-10-26T11:35:08Z</time>
      </trkpt>
      <trkpt lat="46.94275" lon="5.85713">
        <ele>606</ele>
        <time>2017-10-26T11:35:27Z</time>
      </trkpt>
      <trkpt lat="46.94275" lon="5.85699">
        <ele>606</ele>
        <time>2017-10-26T11:35:37Z</time>
      </trkpt>
      <trkpt lat="46.9427" lon="5.85687">
        <ele>606</ele>
        <time>2017-10-26T11:35:46Z</time>
      </trkpt>
      <trkpt lat="46.94268" lon="5.85674">
        <ele>606</ele>
        <time>2017-10-26T11:35:57Z</time>
      </trkpt>
      <trkpt lat="46.94269" lon="5.8562">
        <ele>606</ele>
        <time>2017-10-26T11:36:32Z</time>
      </trkpt>
      <trkpt lat="46.94269" lon="5.85613">
        <ele>606</ele>
        <time>2017-10-26T11:36:37Z</time>
      </trkpt>
      <trkpt lat="46.94271" lon="5.85607">
        <ele>606</ele>
        <time>2017-10-26T11:36:42Z</time>
      </trkpt>
      <trkpt lat="46.9427" lon="5.85599">
        <ele>607</ele>
        <time>2017-10-26T11:36:48Z</time>
      </trkpt>
      <trkpt lat="46.9427" lon="5.85592">
        <ele>607</ele>
        <time>2017-10-26T11:36:54Z</time>
      </trkpt>
      <trkpt lat="46.9427" lon="5.85584">
        <ele>606</ele>
        <time>2017-10-26T11:37:03Z</time>
      </trkpt>
      <trkpt lat="46.94269" lon="5.85578">
        <ele>606</ele>
        <time>2017-10-26T11:37:10Z</time>
      </trkpt>
      <trkpt lat="46.94267" lon="5.85572">
        <ele>607</ele>
        <time>2017-10-26T11:37:18Z</time>
      </trkpt>
      <trkpt lat="46.94266" lon="5.85557">
        <ele>609</ele>
        <time>2017-10-26T11:37:29Z</time>
      </trkpt>
      <trkpt lat="46.94267" lon="5.85543">
        <ele>609</ele>
        <time>2017-10-26T11:37:42Z</time>
      </trkpt>
      <trkpt lat="46.94263" lon="5.85515">
        <ele>610</ele>
        <time>2017-10-26T11:38:03Z</time>
      </trkpt>
      <trkpt lat="46.94262" lon="5.85501">
        <ele>612</ele>
        <time>2017-10-26T11:38:13Z</time>
      </trkpt>
      <trkpt lat="46.94263" lon="5.85494">
        <ele>612</ele>
        <time>2017-10-26T11:38:19Z</time>
      </trkpt>
      <trkpt lat="46.94265" lon="5.85472">
        <ele>613</ele>
        <time>2017-10-26T11:38:34Z</time>
      </trkpt>
      <trkpt lat="46.94267" lon="5.85465">
        <ele>613</ele>
        <time>2017-10-26T11:38:38Z</time>
      </trkpt>
      <trkpt lat="46.94268" lon="5.85457">
        <ele>613</ele>
        <time>2017-10-26T11:38:43Z</time>
      </trkpt>
      <trkpt lat="46.94269" lon="5.85449">
        <ele>612</ele>
        <time>2017-10-26T11:38:48Z</time>
      </trkpt>
      <trkpt lat="46.94269" lon="5.85441">
        <ele>612</ele>
        <time>2017-10-26T11:38:52Z</time>
      </trkpt>
      <trkpt lat="46.94269" lon="5.85435">
        <ele>612</ele>
        <time>2017-10-26T11:38:56Z</time>
      </trkpt>
      <trkpt lat="46.94266" lon="5.85428">
        <ele>611</ele>
        <time>2017-10-26T11:39:01Z</time>
      </trkpt>
      <trkpt lat="46.94266" lon="5.85421">
        <ele>611</ele>
        <time>2017-10-26T11:39:07Z</time>
      </trkpt>
      <trkpt lat="46.9426" lon="5.85408">
        <ele>611</ele>
        <time>2017-10-26T11:39:16Z</time>
      </trkpt>
      <trkpt lat="46.94252" lon="5.854">
        <ele>611</ele>
        <time>2017-10-26T11:39:26Z</time>
      </trkpt>
      <trkpt lat="46.94248" lon="5.85388">
        <ele>612</ele>
        <time>2017-10-26T11:39:34Z</time>
      </trkpt>
      <trkpt lat="46.94242" lon="5.85348">
        <ele>614</ele>
        <time>2017-10-26T11:40:12Z</time>
      </trkpt>
      <trkpt lat="46.94239" lon="5.85335">
        <ele>614</ele>
        <time>2017-10-26T11:40:28Z</time>
      </trkpt>
      <trkpt lat="46.94245" lon="5.8532">
        <ele>613</ele>
        <time>2017-10-26T11:40:41Z</time>
      </trkpt>
      <trkpt lat="46.94246" lon="5.85306">
        <ele>613</ele>
        <time>2017-10-26T11:40:52Z</time>
      </trkpt>
      <trkpt lat="46.94249" lon="5.85297">
        <ele>612</ele>
        <time>2017-10-26T11:40:57Z</time>
      </trkpt>
      <trkpt lat="46.94252" lon="5.8529">
        <ele>612</ele>
        <time>2017-10-26T11:41:01Z</time>
      </trkpt>
      <trkpt lat="46.94255" lon="5.85276">
        <ele>611</ele>
        <time>2017-10-26T11:41:15Z</time>
      </trkpt>
      <trkpt lat="46.94257" lon="5.8527">
        <ele>610</ele>
        <time>2017-10-26T11:41:21Z</time>
      </trkpt>
      <trkpt lat="46.94263" lon="5.8525">
        <ele>609</ele>
        <time>2017-10-26T11:41:34Z</time>
      </trkpt>
      <trkpt lat="46.94264" lon="5.85243">
        <ele>609</ele>
        <time>2017-10-26T11:41:39Z</time>
      </trkpt>
      <trkpt lat="46.94266" lon="5.85237">
        <ele>610</ele>
        <time>2017-10-26T11:41:44Z</time>
      </trkpt>
      <trkpt lat="46.94277" lon="5.85196">
        <ele>603</ele>
        <time>2017-10-26T11:42:20Z</time>
      </trkpt>
      <trkpt lat="46.94279" lon="5.85183">
        <ele>600</ele>
        <time>2017-10-26T11:42:28Z</time>
      </trkpt>
      <trkpt lat="46.94284" lon="5.85171">
        <ele>600</ele>
        <time>2017-10-26T11:42:36Z</time>
      </trkpt>
      <trkpt lat="46.94286" lon="5.85157">
        <ele>599</ele>
        <time>2017-10-26T11:42:44Z</time>
      </trkpt>
      <trkpt lat="46.94287" lon="5.85143">
        <ele>600</ele>
        <time>2017-10-26T11:42:53Z</time>
      </trkpt>
      <trkpt lat="46.9429" lon="5.85131">
        <ele>600</ele>
        <time>2017-10-26T11:43:01Z</time>
      </trkpt>
      <trkpt lat="46.94273" lon="5.85082">
        <ele>602</ele>
        <time>2017-10-26T11:43:40Z</time>
      </trkpt>
      <trkpt lat="46.94267" lon="5.85072">
        <ele>601</ele>
        <time>2017-10-26T11:43:53Z</time>
      </trkpt>
      <trkpt lat="46.94266" lon="5.85052">
        <ele>603</ele>
        <time>2017-10-26T11:44:18Z</time>
      </trkpt>
      <trkpt lat="46.94265" lon="5.85037">
        <ele>600</ele>
        <time>2017-10-26T11:44:48Z</time>
      </trkpt>
      <trkpt lat="46.9427" lon="5.85023">
        <ele>600</ele>
        <time>2017-10-26T11:45:02Z</time>
      </trkpt>
      <trkpt lat="46.94278" lon="5.84996">
        <ele>600</ele>
        <time>2017-10-26T11:45:17Z</time>
      </trkpt>
      <trkpt lat="46.94276" lon="5.84981">
        <ele>600</ele>
        <time>2017-10-26T11:45:25Z</time>
      </trkpt>
      <trkpt lat="46.94277" lon="5.84967">
        <ele>600</ele>
        <time>2017-10-26T11:45:34Z</time>
      </trkpt>
      <trkpt lat="46.94275" lon="5.84953">
        <ele>600</ele>
        <time>2017-10-26T11:45:42Z</time>
      </trkpt>
      <trkpt lat="46.94274" lon="5.84939">
        <ele>600</ele>
        <time>2017-10-26T11:45:53Z</time>
      </trkpt>
      <trkpt lat="46.94274" lon="5.84932">
        <ele>600</ele>
        <time>2017-10-26T11:46:03Z</time>
      </trkpt>
      <trkpt lat="46.94276" lon="5.8492">
        <ele>602</ele>
        <time>2017-10-26T11:46:28Z</time>
      </trkpt>
      <trkpt lat="46.94266" lon="5.84894">
        <ele>606</ele>
        <time>2017-10-26T11:46:48Z</time>
      </trkpt>
      <trkpt lat="46.94265" lon="5.84887">
        <ele>606</ele>
        <time>2017-10-26T11:46:55Z</time>
      </trkpt>
      <trkpt lat="46.94258" lon="5.84868">
        <ele>610</ele>
        <time>2017-10-26T11:47:12Z</time>
      </trkpt>
      <trkpt lat="46.94257" lon="5.84862">
        <ele>611</ele>
        <time>2017-10-26T11:47:18Z</time>
      </trkpt>
      <trkpt lat="46.94254" lon="5.84848">
        <ele>611</ele>
        <time>2017-10-26T11:47:29Z</time>
      </trkpt>
      <trkpt lat="46.94253" lon="5.84841">
        <ele>611</ele>
        <time>2017-10-26T11:47:35Z</time>
      </trkpt>
      <trkpt lat="46.94252" lon="5.84825">
        <ele>611</ele>
        <time>2017-10-26T11:47:46Z</time>
      </trkpt>
      <trkpt lat="46.94248" lon="5.84798">
        <ele>612</ele>
        <time>2017-10-26T11:48:05Z</time>
      </trkpt>
      <trkpt lat="46.94252" lon="5.84783">
        <ele>611</ele>
        <time>2017-10-26T11:48:15Z</time>
      </trkpt>
      <trkpt lat="46.94252" lon="5.84776">
        <ele>611</ele>
        <time>2017-10-26T11:48:20Z</time>
      </trkpt>
      <trkpt lat="46.94254" lon="5.8477">
        <ele>612</ele>
        <time>2017-10-26T11:48:25Z</time>
      </trkpt>
      <trkpt lat="46.94256" lon="5.84763">
        <ele>612</ele>
        <time>2017-10-26T11:48:29Z</time>
      </trkpt>
      <trkpt lat="46.94257" lon="5.84755">
        <ele>611</ele>
        <time>2017-10-26T11:48:35Z</time>
      </trkpt>
      <trkpt lat="46.94257" lon="5.84732">
        <ele>610</ele>
        <time>2017-10-26T11:48:48Z</time>
      </trkpt>
      <trkpt lat="46.94256" lon="5.84725">
        <ele>610</ele>
        <time>2017-10-26T11:48:53Z</time>
      </trkpt>
      <trkpt lat="46.94254" lon="5.84717">
        <ele>610</ele>
        <time>2017-10-26T11:48:57Z</time>
      </trkpt>
      <trkpt lat="46.94251" lon="5.84712">
        <ele>610</ele>
        <time>2017-10-26T11:49:01Z</time>
      </trkpt>
      <trkpt lat="46.94249" lon="5.84706">
        <ele>610</ele>
        <time>2017-10-26T11:49:08Z</time>
      </trkpt>
      <trkpt lat="46.94249" lon="5.84698">
        <ele>610</ele>
        <time>2017-10-26T11:49:14Z</time>
      </trkpt>
      <trkpt lat="46.94247" lon="5.84692">
        <ele>610</ele>
        <time>2017-10-26T11:49:19Z</time>
      </trkpt>
      <trkpt lat="46.94246" lon="5.84684">
        <ele>611</ele>
        <time>2017-10-26T11:49:25Z</time>
      </trkpt>
      <trkpt lat="46.94247" lon="5.84677">
        <ele>612</ele>
        <time>2017-10-26T11:49:33Z</time>
      </trkpt>
      <trkpt lat="46.94245" lon="5.84671">
        <ele>612</ele>
        <time>2017-10-26T11:49:37Z</time>
      </trkpt>
      <trkpt lat="46.94246" lon="5.84649">
        <ele>610</ele>
        <time>2017-10-26T11:49:48Z</time>
      </trkpt>
      <trkpt lat="46.94245" lon="5.84642">
        <ele>608</ele>
        <time>2017-10-26T11:49:52Z</time>
      </trkpt>
      <trkpt lat="46.94242" lon="5.84636">
        <ele>607</ele>
        <time>2017-10-26T11:49:56Z</time>
      </trkpt>
      <trkpt lat="46.9424" lon="5.84622">
        <ele>605</ele>
        <time>2017-10-26T11:50:05Z</time>
      </trkpt>
      <trkpt lat="46.94237" lon="5.84615">
        <ele>605</ele>
        <time>2017-10-26T11:50:10Z</time>
      </trkpt>
      <trkpt lat="46.94236" lon="5.84608">
        <ele>606</ele>
        <time>2017-10-26T11:50:15Z</time>
      </trkpt>
      <trkpt lat="46.94233" lon="5.84602">
        <ele>606</ele>
        <time>2017-10-26T11:50:19Z</time>
      </trkpt>
      <trkpt lat="46.94231" lon="5.84597">
        <ele>607</ele>
        <time>2017-10-26T11:50:24Z</time>
      </trkpt>
      <trkpt lat="46.9423" lon="5.84589">
        <ele>607</ele>
        <time>2017-10-26T11:50:29Z</time>
      </trkpt>
      <trkpt lat="46.94227" lon="5.84585">
        <ele>607</ele>
        <time>2017-10-26T11:50:35Z</time>
      </trkpt>
      <trkpt lat="46.94226" lon="5.84578">
        <ele>607</ele>
        <time>2017-10-26T11:50:40Z</time>
      </trkpt>
      <trkpt lat="46.94226" lon="5.84571">
        <ele>606</ele>
        <time>2017-10-26T11:50:45Z</time>
      </trkpt>
      <trkpt lat="46.94224" lon="5.84564">
        <ele>606</ele>
        <time>2017-10-26T11:50:50Z</time>
      </trkpt>
      <trkpt lat="46.94223" lon="5.8455">
        <ele>606</ele>
        <time>2017-10-26T11:51:02Z</time>
      </trkpt>
      <trkpt lat="46.94222" lon="5.84542">
        <ele>606</ele>
        <time>2017-10-26T11:51:07Z</time>
      </trkpt>
      <trkpt lat="46.9422" lon="5.84515">
        <ele>606</ele>
        <time>2017-10-26T11:51:24Z</time>
      </trkpt>
      <trkpt lat="46.94223" lon="5.84488">
        <ele>607</ele>
        <time>2017-10-26T11:51:43Z</time>
      </trkpt>
      <trkpt lat="46.94223" lon="5.84475">
        <ele>606</ele>
        <time>2017-10-26T11:51:50Z</time>
      </trkpt>
      <trkpt lat="46.94222" lon="5.84468">
        <ele>604</ele>
        <time>2017-10-26T11:51:55Z</time>
      </trkpt>
      <trkpt lat="46.94221" lon="5.8446">
        <ele>603</ele>
        <time>2017-10-26T11:52:00Z</time>
      </trkpt>
      <trkpt lat="46.9422" lon="5.84454">
        <ele>603</ele>
        <time>2017-10-26T11:52:06Z</time>
      </trkpt>
      <trkpt lat="46.9422" lon="5.84446">
        <ele>602</ele>
        <time>2017-10-26T11:52:11Z</time>
      </trkpt>
      <trkpt lat="46.94218" lon="5.84439">
        <ele>602</ele>
        <time>2017-10-26T11:52:16Z</time>
      </trkpt>
      <trkpt lat="46.94219" lon="5.84411">
        <ele>595</ele>
        <time>2017-10-26T11:52:38Z</time>
      </trkpt>
      <trkpt lat="46.94223" lon="5.84407">
        <ele>594</ele>
        <time>2017-10-26T11:52:45Z</time>
      </trkpt>
      <trkpt lat="46.94228" lon="5.84401">
        <ele>593</ele>
        <time>2017-10-26T11:52:58Z</time>
      </trkpt>
      <trkpt lat="46.94233" lon="5.844">
        <ele>593</ele>
        <time>2017-10-26T11:53:07Z</time>
      </trkpt>
      <trkpt lat="46.94234" lon="5.84393">
        <ele>591</ele>
        <time>2017-10-26T11:54:31Z</time>
      </trkpt>
      <trkpt lat="46.94226" lon="5.8435">
        <ele>583</ele>
        <time>2017-10-26T12:00:48Z</time>
      </trkpt>
      <trkpt lat="46.94228" lon="5.84343">
        <ele>584</ele>
        <time>2017-10-26T12:00:56Z</time>
      </trkpt>
      <trkpt lat="46.94227" lon="5.84336">
        <ele>585</ele>
        <time>2017-10-26T12:01:02Z</time>
      </trkpt>
      <trkpt lat="46.94231" lon="5.8431">
        <ele>583</ele>
        <time>2017-10-26T12:01:19Z</time>
      </trkpt>
      <trkpt lat="46.9423" lon="5.84303">
        <ele>584</ele>
        <time>2017-10-26T12:01:26Z</time>
      </trkpt>
      <trkpt lat="46.94231" lon="5.84289">
        <ele>587</ele>
        <time>2017-10-26T12:01:39Z</time>
      </trkpt>
      <trkpt lat="46.94235" lon="5.84276">
        <ele>587</ele>
        <time>2017-10-26T12:01:52Z</time>
      </trkpt>
      <trkpt lat="46.94237" lon="5.84263">
        <ele>587</ele>
        <time>2017-10-26T12:02:01Z</time>
      </trkpt>
      <trkpt lat="46.94241" lon="5.8425">
        <ele>586</ele>
        <time>2017-10-26T12:02:12Z</time>
      </trkpt>
      <trkpt lat="46.94243" lon="5.84237">
        <ele>583</ele>
        <time>2017-10-26T12:02:22Z</time>
      </trkpt>
      <trkpt lat="46.94242" lon="5.84196">
        <ele>581</ele>
        <time>2017-10-26T12:02:52Z</time>
      </trkpt>
      <trkpt lat="46.94242" lon="5.84183">
        <ele>579</ele>
        <time>2017-10-26T12:03:02Z</time>
      </trkpt>
      <trkpt lat="46.9424" lon="5.84169">
        <ele>579</ele>
        <time>2017-10-26T12:03:11Z</time>
      </trkpt>
      <trkpt lat="46.94237" lon="5.84141">
        <ele>576</ele>
        <time>2017-10-26T12:03:28Z</time>
      </trkpt>
      <trkpt lat="46.94235" lon="5.84128">
        <ele>573</ele>
        <time>2017-10-26T12:03:37Z</time>
      </trkpt>
      <trkpt lat="46.94236" lon="5.84114">
        <ele>569</ele>
        <time>2017-10-26T12:03:49Z</time>
      </trkpt>
      <trkpt lat="46.94233" lon="5.84101">
        <ele>567</ele>
        <time>2017-10-26T12:03:56Z</time>
      </trkpt>
      <trkpt lat="46.94233" lon="5.84073">
        <ele>565</ele>
        <time>2017-10-26T12:04:17Z</time>
      </trkpt>
      <trkpt lat="46.94227" lon="5.84046">
        <ele>565</ele>
        <time>2017-10-26T12:04:33Z</time>
      </trkpt>
      <trkpt lat="46.94218" lon="5.84022">
        <ele>566</ele>
        <time>2017-10-26T12:04:52Z</time>
      </trkpt>
      <trkpt lat="46.94212" lon="5.83996">
        <ele>563</ele>
        <time>2017-10-26T12:05:13Z</time>
      </trkpt>
      <trkpt lat="46.94206" lon="5.83985">
        <ele>559</ele>
        <time>2017-10-26T12:05:27Z</time>
      </trkpt>
      <trkpt lat="46.94204" lon="5.83971">
        <ele>557</ele>
        <time>2017-10-26T12:05:41Z</time>
      </trkpt>
      <trkpt lat="46.94175" lon="5.83925">
        <ele>550</ele>
        <time>2017-10-26T12:06:51Z</time>
      </trkpt>
      <trkpt lat="46.94171" lon="5.83912">
        <ele>547</ele>
        <time>2017-10-26T12:07:05Z</time>
      </trkpt>
      <trkpt lat="46.94165" lon="5.83902">
        <ele>547</ele>
        <time>2017-10-26T12:07:15Z</time>
      </trkpt>
      <trkpt lat="46.94154" lon="5.83878">
        <ele>541</ele>
        <time>2017-10-26T12:07:36Z</time>
      </trkpt>
      <trkpt lat="46.94152" lon="5.83865">
        <ele>539</ele>
        <time>2017-10-26T12:07:47Z</time>
      </trkpt>
      <trkpt lat="46.94141" lon="5.83842">
        <ele>537</ele>
        <time>2017-10-26T12:08:07Z</time>
      </trkpt>
      <trkpt lat="46.94139" lon="5.83828">
        <ele>537</ele>
        <time>2017-10-26T12:08:19Z</time>
      </trkpt>
      <trkpt lat="46.94134" lon="5.83817">
        <ele>539</ele>
        <time>2017-10-26T12:08:32Z</time>
      </trkpt>
      <trkpt lat="46.94126" lon="5.8381">
        <ele>537</ele>
        <time>2017-10-26T12:08:44Z</time>
      </trkpt>
      <trkpt lat="46.94121" lon="5.83798">
        <ele>535</ele>
        <time>2017-10-26T12:08:55Z</time>
      </trkpt>
      <trkpt lat="46.94115" lon="5.83789">
        <ele>533</ele>
        <time>2017-10-26T12:09:07Z</time>
      </trkpt>
      <trkpt lat="46.94106" lon="5.83776">
        <ele>532</ele>
        <time>2017-10-26T12:09:32Z</time>
      </trkpt>
      <trkpt lat="46.94099" lon="5.8375">
        <ele>531</ele>
        <time>2017-10-26T12:09:59Z</time>
      </trkpt>
      <trkpt lat="46.94092" lon="5.83724">
        <ele>528</ele>
        <time>2017-10-26T12:10:23Z</time>
      </trkpt>
      <trkpt lat="46.94091" lon="5.8371">
        <ele>525</ele>
        <time>2017-10-26T12:10:33Z</time>
      </trkpt>
      <trkpt lat="46.94094" lon="5.83696">
        <ele>524</ele>
        <time>2017-10-26T12:10:44Z</time>
      </trkpt>
      <trkpt lat="46.94089" lon="5.83676">
        <ele>522</ele>
        <time>2017-10-26T12:11:03Z</time>
      </trkpt>
      <trkpt lat="46.94083" lon="5.8367">
        <ele>522</ele>
        <time>2017-10-26T12:11:30Z</time>
      </trkpt>
      <trkpt lat="46.94079" lon="5.83671">
        <ele>520</ele>
        <time>2017-10-26T12:11:46Z</time>
      </trkpt>
      <trkpt lat="46.94074" lon="5.8367">
        <ele>517</ele>
        <time>2017-10-26T12:13:10Z</time>
      </trkpt>
      <trkpt lat="46.94072" lon="5.83664">
        <ele>516</ele>
        <time>2017-10-26T12:13:18Z</time>
      </trkpt>
      <trkpt lat="46.94064" lon="5.83657">
        <ele>518</ele>
        <time>2017-10-26T12:13:39Z</time>
      </trkpt>
      <trkpt lat="46.94054" lon="5.8366">
        <ele>520</ele>
        <time>2017-10-26T12:13:50Z</time>
      </trkpt>
      <trkpt lat="46.94039" lon="5.83655">
        <ele>520</ele>
        <time>2017-10-26T12:14:03Z</time>
      </trkpt>
      <trkpt lat="46.94033" lon="5.83656">
        <ele>519</ele>
        <time>2017-10-26T12:14:08Z</time>
      </trkpt>
      <trkpt lat="46.94028" lon="5.83655">
        <ele>519</ele>
        <time>2017-10-26T12:14:13Z</time>
      </trkpt>
      <trkpt lat="46.94015" lon="5.8365">
        <ele>519</ele>
        <time>2017-10-26T12:14:32Z</time>
      </trkpt>
      <trkpt lat="46.94015" lon="5.83641">
        <ele>520</ele>
        <time>2017-10-26T12:14:47Z</time>
      </trkpt>
      <trkpt lat="46.94006" lon="5.83636">
        <ele>520</ele>
        <time>2017-10-26T12:15:10Z</time>
      </trkpt>
      <trkpt lat="46.93997" lon="5.83631">
        <ele>518</ele>
        <time>2017-10-26T12:15:40Z</time>
      </trkpt>
      <trkpt lat="46.93989" lon="5.83624">
        <ele>519</ele>
        <time>2017-10-26T12:16:00Z</time>
      </trkpt>
      <trkpt lat="46.93979" lon="5.83619">
        <ele>520</ele>
        <time>2017-10-26T12:16:33Z</time>
      </trkpt>
      <trkpt lat="46.9399" lon="5.83611">
        <ele>518</ele>
        <time>2017-10-26T12:18:28Z</time>
      </trkpt>
      <trkpt lat="46.93986" lon="5.83604">
        <ele>516</ele>
        <time>2017-10-26T12:19:10Z</time>
      </trkpt>
      <trkpt lat="46.93978" lon="5.83601">
        <ele>515</ele>
        <time>2017-10-26T12:19:28Z</time>
      </trkpt>
      <trkpt lat="46.93973" lon="5.83597">
        <ele>512</ele>
        <time>2017-10-26T12:19:46Z</time>
      </trkpt>
      <trkpt lat="46.9397" lon="5.83592">
        <ele>512</ele>
        <time>2017-10-26T12:19:51Z</time>
      </trkpt>
      <trkpt lat="46.93961" lon="5.83595">
        <ele>513</ele>
        <time>2017-10-26T12:19:59Z</time>
      </trkpt>
      <trkpt lat="46.93949" lon="5.83606">
        <ele>514</ele>
        <time>2017-10-26T12:20:12Z</time>
      </trkpt>
      <trkpt lat="46.93943" lon="5.83617">
        <ele>515</ele>
        <time>2017-10-26T12:20:22Z</time>
      </trkpt>
      <trkpt lat="46.93934" lon="5.83624">
        <ele>515</ele>
        <time>2017-10-26T12:20:33Z</time>
      </trkpt>
      <trkpt lat="46.93929" lon="5.83627">
        <ele>516</ele>
        <time>2017-10-26T12:20:39Z</time>
      </trkpt>
      <trkpt lat="46.93924" lon="5.83627">
        <ele>516</ele>
        <time>2017-10-26T12:20:46Z</time>
      </trkpt>
      <trkpt lat="46.9392" lon="5.83625">
        <ele>517</ele>
        <time>2017-10-26T12:20:52Z</time>
      </trkpt>
      <trkpt lat="46.93913" lon="5.83627">
        <ele>518</ele>
        <time>2017-10-26T12:21:51Z</time>
      </trkpt>
      <trkpt lat="46.93909" lon="5.83631">
        <ele>518</ele>
        <time>2017-10-26T12:21:56Z</time>
      </trkpt>
      <trkpt lat="46.93903" lon="5.83629">
        <ele>519</ele>
        <time>2017-10-26T12:22:01Z</time>
      </trkpt>
      <trkpt lat="46.93895" lon="5.83622">
        <ele>522</ele>
        <time>2017-10-26T12:22:14Z</time>
      </trkpt>
      <trkpt lat="46.93884" lon="5.83613">
        <ele>523</ele>
        <time>2017-10-26T12:22:43Z</time>
      </trkpt>
      <trkpt lat="46.93881" lon="5.83616">
        <ele>524</ele>
        <time>2017-10-26T12:26:08Z</time>
      </trkpt>
      <trkpt lat="46.93882" lon="5.83623">
        <ele>524</ele>
        <time>2017-10-26T12:26:15Z</time>
      </trkpt>
      <trkpt lat="46.93887" lon="5.8362">
        <ele>523</ele>
        <time>2017-10-26T12:28:59Z</time>
      </trkpt>
      <trkpt lat="46.93891" lon="5.83624">
        <ele>526</ele>
        <time>2017-10-26T12:29:59Z</time>
      </trkpt>
      <trkpt lat="46.93899" lon="5.83627">
        <ele>527</ele>
        <time>2017-10-26T12:30:52Z</time>
      </trkpt>
      <trkpt lat="46.93903" lon="5.83623">
        <ele>527</ele>
        <time>2017-10-26T12:30:59Z</time>
      </trkpt>
      <trkpt lat="46.93909" lon="5.83612">
        <ele>528</ele>
        <time>2017-10-26T12:31:12Z</time>
      </trkpt>
      <trkpt lat="46.93911" lon="5.83606">
        <ele>528</ele>
        <time>2017-10-26T12:31:19Z</time>
      </trkpt>
      <trkpt lat="46.93919" lon="5.83596">
        <ele>525</ele>
        <time>2017-10-26T12:31:32Z</time>
      </trkpt>
      <trkpt lat="46.93922" lon="5.83591">
        <ele>524</ele>
        <time>2017-10-26T12:31:37Z</time>
      </trkpt>
      <trkpt lat="46.93923" lon="5.83583">
        <ele>523</ele>
        <time>2017-10-26T12:31:44Z</time>
      </trkpt>
      <trkpt lat="46.93924" lon="5.83577">
        <ele>523</ele>
        <time>2017-10-26T12:31:48Z</time>
      </trkpt>
      <trkpt lat="46.93925" lon="5.8357">
        <ele>523</ele>
        <time>2017-10-26T12:31:54Z</time>
      </trkpt>
      <trkpt lat="46.93922" lon="5.83564">
        <ele>522</ele>
        <time>2017-10-26T12:32:09Z</time>
      </trkpt>
      <trkpt lat="46.93923" lon="5.83556">
        <ele>519</ele>
        <time>2017-10-26T12:34:29Z</time>
      </trkpt>
      <trkpt lat="46.93931" lon="5.83554">
        <ele>519</ele>
        <time>2017-10-26T12:35:12Z</time>
      </trkpt>
      <trkpt lat="46.93935" lon="5.83551">
        <ele>518</ele>
        <time>2017-10-26T12:35:19Z</time>
      </trkpt>
      <trkpt lat="46.93948" lon="5.83558">
        <ele>518</ele>
        <time>2017-10-26T12:35:40Z</time>
      </trkpt>
      <trkpt lat="46.93953" lon="5.83559">
        <ele>518</ele>
        <time>2017-10-26T12:35:47Z</time>
      </trkpt>
      <trkpt lat="46.93957" lon="5.83556">
        <ele>518</ele>
        <time>2017-10-26T12:35:52Z</time>
      </trkpt>
      <trkpt lat="46.93961" lon="5.83551">
        <ele>518</ele>
        <time>2017-10-26T12:35:56Z</time>
      </trkpt>
      <trkpt lat="46.93967" lon="5.83541">
        <ele>518</ele>
        <time>2017-10-26T12:36:06Z</time>
      </trkpt>
      <trkpt lat="46.93972" lon="5.83539">
        <ele>516</ele>
        <time>2017-10-26T12:36:13Z</time>
      </trkpt>
      <trkpt lat="46.9398" lon="5.83548">
        <ele>515</ele>
        <time>2017-10-26T12:36:23Z</time>
      </trkpt>
      <trkpt lat="46.93989" lon="5.83551">
        <ele>514</ele>
        <time>2017-10-26T12:36:34Z</time>
      </trkpt>
      <trkpt lat="46.93993" lon="5.83554">
        <ele>513</ele>
        <time>2017-10-26T12:39:34Z</time>
      </trkpt>
      <trkpt lat="46.93997" lon="5.8356">
        <ele>512</ele>
        <time>2017-10-26T12:39:41Z</time>
      </trkpt>
      <trkpt lat="46.94006" lon="5.83566">
        <ele>512</ele>
        <time>2017-10-26T12:39:53Z</time>
      </trkpt>
      <trkpt lat="46.94017" lon="5.83581">
        <ele>512</ele>
        <time>2017-10-26T12:40:09Z</time>
      </trkpt>
      <trkpt lat="46.94016" lon="5.83595">
        <ele>512</ele>
        <time>2017-10-26T12:40:20Z</time>
      </trkpt>
      <trkpt lat="46.94015" lon="5.83601">
        <ele>512</ele>
        <time>2017-10-26T12:40:24Z</time>
      </trkpt>
      <trkpt lat="46.94015" lon="5.83616">
        <ele>513</ele>
        <time>2017-10-26T12:40:35Z</time>
      </trkpt>
      <trkpt lat="46.94013" lon="5.83623">
        <ele>513</ele>
        <time>2017-10-26T12:40:42Z</time>
      </trkpt>
      <trkpt lat="46.94013" lon="5.8363">
        <ele>513</ele>
        <time>2017-10-26T12:40:49Z</time>
      </trkpt>
      <trkpt lat="46.94012" lon="5.83637">
        <ele>515</ele>
        <time>2017-10-26T12:40:57Z</time>
      </trkpt>
      <trkpt lat="46.94016" lon="5.83649">
        <ele>515</ele>
        <time>2017-10-26T12:41:04Z</time>
      </trkpt>
      <trkpt lat="46.94018" lon="5.83664">
        <ele>515</ele>
        <time>2017-10-26T12:41:13Z</time>
      </trkpt>
      <trkpt lat="46.94017" lon="5.83671">
        <ele>515</ele>
        <time>2017-10-26T12:41:18Z</time>
      </trkpt>
      <trkpt lat="46.94015" lon="5.83678">
        <ele>515</ele>
        <time>2017-10-26T12:41:24Z</time>
      </trkpt>
      <trkpt lat="46.94015" lon="5.83686">
        <ele>515</ele>
        <time>2017-10-26T12:41:28Z</time>
      </trkpt>
      <trkpt lat="46.94016" lon="5.83693">
        <ele>515</ele>
        <time>2017-10-26T12:41:32Z</time>
      </trkpt>
      <trkpt lat="46.94021" lon="5.83694">
        <ele>515</ele>
        <time>2017-10-26T12:41:36Z</time>
      </trkpt>
      <trkpt lat="46.94027" lon="5.83692">
        <ele>515</ele>
        <time>2017-10-26T12:41:41Z</time>
      </trkpt>
      <trkpt lat="46.94041" lon="5.83685">
        <ele>515</ele>
        <time>2017-10-26T12:41:54Z</time>
      </trkpt>
      <trkpt lat="46.94045" lon="5.83683">
        <ele>514</ele>
        <time>2017-10-26T12:41:59Z</time>
      </trkpt>
      <trkpt lat="46.94055" lon="5.83682">
        <ele>514</ele>
        <time>2017-10-26T12:42:10Z</time>
      </trkpt>
      <trkpt lat="46.94063" lon="5.83679">
        <ele>514</ele>
        <time>2017-10-26T12:42:26Z</time>
      </trkpt>
      <trkpt lat="46.94073" lon="5.83676">
        <ele>513</ele>
        <time>2017-10-26T12:42:40Z</time>
      </trkpt>
      <trkpt lat="46.94079" lon="5.8367">
        <ele>514</ele>
        <time>2017-10-26T12:43:34Z</time>
      </trkpt>
      <trkpt lat="46.94083" lon="5.83666">
        <ele>514</ele>
        <time>2017-10-26T12:43:55Z</time>
      </trkpt>
      <trkpt lat="46.94088" lon="5.83672">
        <ele>513</ele>
        <time>2017-10-26T12:44:10Z</time>
      </trkpt>
      <trkpt lat="46.94093" lon="5.83678">
        <ele>513</ele>
        <time>2017-10-26T12:44:25Z</time>
      </trkpt>
      <trkpt lat="46.94093" lon="5.83685">
        <ele>512</ele>
        <time>2017-10-26T12:44:33Z</time>
      </trkpt>
      <trkpt lat="46.94094" lon="5.83699">
        <ele>512</ele>
        <time>2017-10-26T12:44:44Z</time>
      </trkpt>
      <trkpt lat="46.94102" lon="5.83705">
        <ele>512</ele>
        <time>2017-10-26T12:45:03Z</time>
      </trkpt>
      <trkpt lat="46.94113" lon="5.83722">
        <ele>512</ele>
        <time>2017-10-26T12:45:52Z</time>
      </trkpt>
      <trkpt lat="46.94126" lon="5.83731">
        <ele>511</ele>
        <time>2017-10-26T12:46:25Z</time>
      </trkpt>
      <trkpt lat="46.94135" lon="5.83737">
        <ele>511</ele>
        <time>2017-10-26T12:46:38Z</time>
      </trkpt>
      <trkpt lat="46.94145" lon="5.83744">
        <ele>509</ele>
        <time>2017-10-26T12:46:54Z</time>
      </trkpt>
      <trkpt lat="46.94154" lon="5.83743">
        <ele>503</ele>
        <time>2017-10-26T12:47:07Z</time>
      </trkpt>
      <trkpt lat="46.94145" lon="5.83724">
        <ele>496</ele>
        <time>2017-10-26T12:47:39Z</time>
      </trkpt>
      <trkpt lat="46.94146" lon="5.83714">
        <ele>497</ele>
        <time>2017-10-26T12:47:54Z</time>
      </trkpt>
      <trkpt lat="46.94153" lon="5.83717">
        <ele>494</ele>
        <time>2017-10-26T12:49:14Z</time>
      </trkpt>
      <trkpt lat="46.94166" lon="5.83738">
        <ele>493</ele>
        <time>2017-10-26T12:49:42Z</time>
      </trkpt>
      <trkpt lat="46.94175" lon="5.83743">
        <ele>491</ele>
        <time>2017-10-26T12:49:56Z</time>
      </trkpt>
      <trkpt lat="46.94183" lon="5.83748">
        <ele>490</ele>
        <time>2017-10-26T12:50:08Z</time>
      </trkpt>
      <trkpt lat="46.94191" lon="5.83754">
        <ele>489</ele>
        <time>2017-10-26T12:50:15Z</time>
      </trkpt>
      <trkpt lat="46.94199" lon="5.83763">
        <ele>488</ele>
        <time>2017-10-26T12:50:22Z</time>
      </trkpt>
      <trkpt lat="46.94207" lon="5.8377">
        <ele>486</ele>
        <time>2017-10-26T12:50:40Z</time>
      </trkpt>
      <trkpt lat="46.94214" lon="5.83777">
        <ele>486</ele>
        <time>2017-10-26T12:50:56Z</time>
      </trkpt>
      <trkpt lat="46.94222" lon="5.83784">
        <ele>485</ele>
        <time>2017-10-26T12:51:06Z</time>
      </trkpt>
      <trkpt lat="46.94231" lon="5.83787">
        <ele>485</ele>
        <time>2017-10-26T12:51:17Z</time>
      </trkpt>
      <trkpt lat="46.94241" lon="5.83786">
        <ele>483</ele>
        <time>2017-10-26T12:51:28Z</time>
      </trkpt>
      <trkpt lat="46.9425" lon="5.83789">
        <ele>481</ele>
        <time>2017-10-26T12:51:43Z</time>
      </trkpt>
      <trkpt lat="46.94258" lon="5.83795">
        <ele>477</ele>
        <time>2017-10-26T12:51:58Z</time>
      </trkpt>
      <trkpt lat="46.9427" lon="5.83799">
        <ele>476</ele>
        <time>2017-10-26T12:52:13Z</time>
      </trkpt>
      <trkpt lat="46.94278" lon="5.83796">
        <ele>466</ele>
        <time>2017-10-26T12:52:31Z</time>
      </trkpt>
      <trkpt lat="46.94276" lon="5.83782">
        <ele>463</ele>
        <time>2017-10-26T12:52:48Z</time>
      </trkpt>
      <trkpt lat="46.94264" lon="5.8376">
        <ele>456</ele>
        <time>2017-10-26T12:53:17Z</time>
      </trkpt>
      <trkpt lat="46.94262" lon="5.83747">
        <ele>452</ele>
        <time>2017-10-26T12:53:35Z</time>
      </trkpt>
      <trkpt lat="46.94265" lon="5.83747">
        <ele>450</ele>
        <time>2017-10-26T12:54:15Z</time>
      </trkpt>
      <trkpt lat="46.94274" lon="5.83749">
        <ele>450</ele>
        <time>2017-10-26T12:54:29Z</time>
      </trkpt>
      <trkpt lat="46.94283" lon="5.83749">
        <ele>445</ele>
        <time>2017-10-26T12:54:44Z</time>
      </trkpt>
      <trkpt lat="46.94291" lon="5.83757">
        <ele>444</ele>
        <time>2017-10-26T12:54:58Z</time>
      </trkpt>
      <trkpt lat="46.94301" lon="5.83758">
        <ele>442</ele>
        <time>2017-10-26T12:55:09Z</time>
      </trkpt>
      <trkpt lat="46.94318" lon="5.8377">
        <ele>440</ele>
        <time>2017-10-26T12:55:29Z</time>
      </trkpt>
      <trkpt lat="46.94325" lon="5.83779">
        <ele>440</ele>
        <time>2017-10-26T12:55:41Z</time>
      </trkpt>
      <trkpt lat="46.94334" lon="5.83784">
        <ele>439</ele>
        <time>2017-10-26T12:55:54Z</time>
      </trkpt>
      <trkpt lat="46.94349" lon="5.83798">
        <ele>436</ele>
        <time>2017-10-26T12:56:15Z</time>
      </trkpt>
      <trkpt lat="46.94358" lon="5.838">
        <ele>435</ele>
        <time>2017-10-26T12:56:30Z</time>
      </trkpt>
      <trkpt lat="46.94366" lon="5.83807">
        <ele>430</ele>
        <time>2017-10-26T12:56:43Z</time>
      </trkpt>
      <trkpt lat="46.94374" lon="5.83819">
        <ele>429</ele>
        <time>2017-10-26T12:56:58Z</time>
      </trkpt>
      <trkpt lat="46.94399" lon="5.83834">
        <ele>416</ele>
        <time>2017-10-26T12:57:27Z</time>
      </trkpt>
      <trkpt lat="46.94408" lon="5.83829">
        <ele>414</ele>
        <time>2017-10-26T12:57:39Z</time>
      </trkpt>
      <trkpt lat="46.94417" lon="5.83822">
        <ele>411</ele>
        <time>2017-10-26T12:57:50Z</time>
      </trkpt>
      <trkpt lat="46.94426" lon="5.83821">
        <ele>409</ele>
        <time>2017-10-26T12:58:04Z</time>
      </trkpt>
      <trkpt lat="46.9443" lon="5.83812">
        <ele>401</ele>
        <time>2017-10-26T12:58:42Z</time>
      </trkpt>
      <trkpt lat="46.94441" lon="5.8381">
        <ele>398</ele>
        <time>2017-10-26T12:58:56Z</time>
      </trkpt>
      <trkpt lat="46.94451" lon="5.83797">
        <ele>393</ele>
        <time>2017-10-26T12:59:55Z</time>
      </trkpt>
      <trkpt lat="46.94456" lon="5.83785">
        <ele>391</ele>
        <time>2017-10-26T13:00:10Z</time>
      </trkpt>
      <trkpt lat="46.94462" lon="5.83775">
        <ele>390</ele>
        <time>2017-10-26T13:00:22Z</time>
      </trkpt>
      <trkpt lat="46.94476" lon="5.83757">
        <ele>384</ele>
        <time>2017-10-26T13:00:51Z</time>
      </trkpt>
      <trkpt lat="46.94482" lon="5.83747">
        <ele>381</ele>
        <time>2017-10-26T13:01:05Z</time>
      </trkpt>
      <trkpt lat="46.94495" lon="5.83727">
        <ele>379</ele>
        <time>2017-10-26T13:01:22Z</time>
      </trkpt>
      <trkpt lat="46.94501" lon="5.83716">
        <ele>379</ele>
        <time>2017-10-26T13:01:35Z</time>
      </trkpt>
      <trkpt lat="46.94517" lon="5.83682">
        <ele>369</ele>
        <time>2017-10-26T13:02:18Z</time>
      </trkpt>
      <trkpt lat="46.94524" lon="5.83668">
        <ele>366</ele>
        <time>2017-10-26T13:02:40Z</time>
      </trkpt>
      <trkpt lat="46.94528" lon="5.83664">
        <ele>362</ele>
        <time>2017-10-26T13:02:59Z</time>
      </trkpt>
      <trkpt lat="46.94528" lon="5.83657">
        <ele>360</ele>
        <time>2017-10-26T13:03:17Z</time>
      </trkpt>
      <trkpt lat="46.94531" lon="5.83649">
        <ele>357</ele>
        <time>2017-10-26T13:03:32Z</time>
      </trkpt>
      <trkpt lat="46.94534" lon="5.83643">
        <ele>357</ele>
        <time>2017-10-26T13:03:40Z</time>
      </trkpt>
      <trkpt lat="46.94537" lon="5.83637">
        <ele>356</ele>
        <time>2017-10-26T13:03:47Z</time>
      </trkpt>
      <trkpt lat="46.9454" lon="5.83632">
        <ele>355</ele>
        <time>2017-10-26T13:03:55Z</time>
      </trkpt>
      <trkpt lat="46.94542" lon="5.83625">
        <ele>355</ele>
        <time>2017-10-26T13:04:03Z</time>
      </trkpt>
      <trkpt lat="46.94543" lon="5.83604">
        <ele>350</ele>
        <time>2017-10-26T13:04:24Z</time>
      </trkpt>
      <trkpt lat="46.94541" lon="5.83598">
        <ele>349</ele>
        <time>2017-10-26T13:04:28Z</time>
      </trkpt>
      <trkpt lat="46.94543" lon="5.83591">
        <ele>348</ele>
        <time>2017-10-26T13:04:34Z</time>
      </trkpt>
      <trkpt lat="46.94542" lon="5.83578">
        <ele>346</ele>
        <time>2017-10-26T13:04:48Z</time>
      </trkpt>
      <trkpt lat="46.9454" lon="5.83571">
        <ele>345</ele>
        <time>2017-10-26T13:05:27Z</time>
      </trkpt>
      <trkpt lat="46.94546" lon="5.83572">
        <ele>343</ele>
        <time>2017-10-26T13:06:10Z</time>
      </trkpt>
      <trkpt lat="46.9455" lon="5.83574">
        <ele>343</ele>
        <time>2017-10-26T13:06:15Z</time>
      </trkpt>
      <trkpt lat="46.94568" lon="5.83585">
        <ele>337</ele>
        <time>2017-10-26T13:06:32Z</time>
      </trkpt>
      <trkpt lat="46.94572" lon="5.83589">
        <ele>336</ele>
        <time>2017-10-26T13:06:38Z</time>
      </trkpt>
      <trkpt lat="46.94592" lon="5.8361">
        <ele>333</ele>
        <time>2017-10-26T13:07:03Z</time>
      </trkpt>
      <trkpt lat="46.94601" lon="5.83615">
        <ele>333</ele>
        <time>2017-10-26T13:07:13Z</time>
      </trkpt>
      <trkpt lat="46.94607" lon="5.83616">
        <ele>333</ele>
        <time>2017-10-26T13:07:19Z</time>
      </trkpt>
      <trkpt lat="46.94617" lon="5.8361">
        <ele>332</ele>
        <time>2017-10-26T13:07:28Z</time>
      </trkpt>
      <trkpt lat="46.94623" lon="5.83598">
        <ele>331</ele>
        <time>2017-10-26T13:07:37Z</time>
      </trkpt>
      <trkpt lat="46.94628" lon="5.83586">
        <ele>330</ele>
        <time>2017-10-26T13:07:46Z</time>
      </trkpt>
      <trkpt lat="46.94631" lon="5.83581">
        <ele>330</ele>
        <time>2017-10-26T13:07:51Z</time>
      </trkpt>
      <trkpt lat="46.94635" lon="5.83576">
        <ele>329</ele>
        <time>2017-10-26T13:07:56Z</time>
      </trkpt>
      <trkpt lat="46.9464" lon="5.83573">
        <ele>329</ele>
        <time>2017-10-26T13:08:01Z</time>
      </trkpt>
      <trkpt lat="46.9465" lon="5.83577">
        <ele>328</ele>
        <time>2017-10-26T13:08:11Z</time>
      </trkpt>
      <trkpt lat="46.94659" lon="5.83584">
        <ele>328</ele>
        <time>2017-10-26T13:08:21Z</time>
      </trkpt>
      <trkpt lat="46.94662" lon="5.8359">
        <ele>328</ele>
        <time>2017-10-26T13:08:25Z</time>
      </trkpt>
      <trkpt lat="46.94678" lon="5.83606">
        <ele>326</ele>
        <time>2017-10-26T13:08:41Z</time>
      </trkpt>
      <trkpt lat="46.94695" lon="5.83614">
        <ele>325</ele>
        <time>2017-10-26T13:09:01Z</time>
      </trkpt>
      <trkpt lat="46.94718" lon="5.83627">
        <ele>325</ele>
        <time>2017-10-26T13:09:22Z</time>
      </trkpt>
      <trkpt lat="46.94751" lon="5.83636">
        <ele>324</ele>
        <time>2017-10-26T13:09:50Z</time>
      </trkpt>
      <trkpt lat="46.94761" lon="5.83638">
        <ele>324</ele>
        <time>2017-10-26T13:09:59Z</time>
      </trkpt>
      <trkpt lat="46.94767" lon="5.8364">
        <ele>324</ele>
        <time>2017-10-26T13:10:04Z</time>
      </trkpt>
      <trkpt lat="46.94775" lon="5.83647">
        <ele>324</ele>
        <time>2017-10-26T13:10:13Z</time>
      </trkpt>
      <trkpt lat="46.94781" lon="5.83647">
        <ele>324</ele>
        <time>2017-10-26T13:10:18Z</time>
      </trkpt>
      <trkpt lat="46.94784" lon="5.83642">
        <ele>324</ele>
        <time>2017-10-26T13:10:22Z</time>
      </trkpt>
      <trkpt lat="46.94791" lon="5.83624">
        <ele>323</ele>
        <time>2017-10-26T13:10:34Z</time>
      </trkpt>
      <trkpt lat="46.94794" lon="5.8362">
        <ele>323</ele>
        <time>2017-10-26T13:10:38Z</time>
      </trkpt>
      <trkpt lat="46.94816" lon="5.8357">
        <ele>325</ele>
        <time>2017-10-26T13:11:12Z</time>
      </trkpt>
      <trkpt lat="46.94842" lon="5.83527">
        <ele>328</ele>
        <time>2017-10-26T13:11:46Z</time>
      </trkpt>
      <trkpt lat="46.94852" lon="5.83499">
        <ele>330</ele>
        <time>2017-10-26T13:12:28Z</time>
      </trkpt>
      <trkpt lat="46.94857" lon="5.83487">
        <ele>330</ele>
        <time>2017-10-26T13:12:36Z</time>
      </trkpt>
      <trkpt lat="46.94857" lon="5.83479">
        <ele>330</ele>
        <time>2017-10-26T13:12:42Z</time>
      </trkpt>
      <trkpt lat="46.94864" lon="5.83465">
        <ele>330</ele>
        <time>2017-10-26T13:12:50Z</time>
      </trkpt>
      <trkpt lat="46.94876" lon="5.83439">
        <ele>332</ele>
        <time>2017-10-26T13:13:24Z</time>
      </trkpt>
      <trkpt lat="46.94899" lon="5.8339">
        <ele>332</ele>
        <time>2017-10-26T13:13:58Z</time>
      </trkpt>
      <trkpt lat="46.94904" lon="5.83376">
        <ele>332</ele>
        <time>2017-10-26T13:14:07Z</time>
      </trkpt>
      <trkpt lat="46.94914" lon="5.83352">
        <ele>332</ele>
        <time>2017-10-26T13:14:24Z</time>
      </trkpt>
      <trkpt lat="46.9492" lon="5.83332">
        <ele>332</ele>
        <time>2017-10-26T13:14:38Z</time>
      </trkpt>
      <trkpt lat="46.94928" lon="5.8329">
        <ele>334</ele>
        <time>2017-10-26T13:15:03Z</time>
      </trkpt>
      <trkpt lat="46.94931" lon="5.8326">
        <ele>334</ele>
        <time>2017-10-26T13:15:20Z</time>
      </trkpt>
      <trkpt lat="46.94934" lon="5.83247">
        <ele>334</ele>
        <time>2017-10-26T13:15:29Z</time>
      </trkpt>
      <trkpt lat="46.94937" lon="5.83242">
        <ele>334</ele>
        <time>2017-10-26T13:15:34Z</time>
      </trkpt>
      <trkpt lat="46.94947" lon="5.83236">
        <ele>334</ele>
        <time>2017-10-26T13:15:46Z</time>
      </trkpt>
      <trkpt lat="46.94952" lon="5.83235">
        <ele>334</ele>
        <time>2017-10-26T13:15:50Z</time>
      </trkpt>
      <trkpt lat="46.94956" lon="5.83236">
        <ele>335</ele>
        <time>2017-10-26T13:15:54Z</time>
      </trkpt>
      <trkpt lat="46.94989" lon="5.83255">
        <ele>333</ele>
        <time>2017-10-26T13:16:23Z</time>
      </trkpt>
      <trkpt lat="46.94994" lon="5.83253">
        <ele>333</ele>
        <time>2017-10-26T13:16:29Z</time>
      </trkpt>
      <trkpt lat="46.94998" lon="5.83231">
        <ele>334</ele>
        <time>2017-10-26T13:16:41Z</time>
      </trkpt>
      <trkpt lat="46.95004" lon="5.83232">
        <ele>334</ele>
        <time>2017-10-26T13:16:58Z</time>
      </trkpt>
      <trkpt lat="46.95008" lon="5.83236">
        <ele>334</ele>
        <time>2017-10-26T13:17:03Z</time>
      </trkpt>
      <trkpt lat="46.95012" lon="5.83238">
        <ele>335</ele>
        <time>2017-10-26T13:17:10Z</time>
      </trkpt>
      <trkpt lat="46.95017" lon="5.83234">
        <ele>334</ele>
        <time>2017-10-26T13:17:16Z</time>
      </trkpt>
      <trkpt lat="46.95037" lon="5.83192">
        <ele>334</ele>
        <time>2017-10-26T13:17:45Z</time>
      </trkpt>
      <trkpt lat="46.95042" lon="5.83188">
        <ele>333</ele>
        <time>2017-10-26T13:17:50Z</time>
      </trkpt>
      <trkpt lat="46.95047" lon="5.83187">
        <ele>333</ele>
        <time>2017-10-26T13:17:54Z</time>
      </trkpt>
      <trkpt lat="46.95056" lon="5.83188">
        <ele>333</ele>
        <time>2017-10-26T13:18:04Z</time>
      </trkpt>
      <trkpt lat="46.95062" lon="5.83185">
        <ele>333</ele>
        <time>2017-10-26T13:18:09Z</time>
      </trkpt>
      <trkpt lat="46.95066" lon="5.83182">
        <ele>333</ele>
        <time>2017-10-26T13:18:14Z</time>
      </trkpt>
      <trkpt lat="46.95069" lon="5.83175">
        <ele>333</ele>
        <time>2017-10-26T13:18:18Z</time>
      </trkpt>
      <trkpt lat="46.95073" lon="5.83154">
        <ele>334</ele>
        <time>2017-10-26T13:18:30Z</time>
      </trkpt>
      <trkpt lat="46.95076" lon="5.83148">
        <ele>334</ele>
        <time>2017-10-26T13:18:35Z</time>
      </trkpt>
      <trkpt lat="46.95078" lon="5.8314">
        <ele>334</ele>
        <time>2017-10-26T13:18:40Z</time>
      </trkpt>
      <trkpt lat="46.95082" lon="5.83136">
        <ele>335</ele>
        <time>2017-10-26T13:18:44Z</time>
      </trkpt>
      <trkpt lat="46.95085" lon="5.83129">
        <ele>335</ele>
        <time>2017-10-26T13:18:49Z</time>
      </trkpt>
      <trkpt lat="46.95087" lon="5.83122">
        <ele>334</ele>
        <time>2017-10-26T13:18:53Z</time>
      </trkpt>
      <trkpt lat="46.9509" lon="5.83116">
        <ele>334</ele>
        <time>2017-10-26T13:18:57Z</time>
      </trkpt>
      <trkpt lat="46.95095" lon="5.83114">
        <ele>334</ele>
        <time>2017-10-26T13:19:01Z</time>
      </trkpt>
      <trkpt lat="46.95104" lon="5.83115">
        <ele>334</ele>
        <time>2017-10-26T13:19:11Z</time>
      </trkpt>
      <trkpt lat="46.95109" lon="5.83113">
        <ele>334</ele>
        <time>2017-10-26T13:19:15Z</time>
      </trkpt>
      <trkpt lat="46.95113" lon="5.8311">
        <ele>335</ele>
        <time>2017-10-26T13:19:19Z</time>
      </trkpt>
      <trkpt lat="46.95115" lon="5.83103">
        <ele>335</ele>
        <time>2017-10-26T13:19:23Z</time>
      </trkpt>
      <trkpt lat="46.95117" lon="5.83096">
        <ele>334</ele>
        <time>2017-10-26T13:19:28Z</time>
      </trkpt>
      <trkpt lat="46.9512" lon="5.83082">
        <ele>334</ele>
        <time>2017-10-26T13:19:37Z</time>
      </trkpt>
      <trkpt lat="46.95121" lon="5.83075">
        <ele>334</ele>
        <time>2017-10-26T13:19:41Z</time>
      </trkpt>
      <trkpt lat="46.95123" lon="5.83067">
        <ele>334</ele>
        <time>2017-10-26T13:19:46Z</time>
      </trkpt>
      <trkpt lat="46.95127" lon="5.83045">
        <ele>334</ele>
        <time>2017-10-26T13:20:01Z</time>
      </trkpt>
      <trkpt lat="46.9514" lon="5.82986">
        <ele>337</ele>
        <time>2017-10-26T13:20:35Z</time>
      </trkpt>
      <trkpt lat="46.95142" lon="5.8298">
        <ele>338</ele>
        <time>2017-10-26T13:20:39Z</time>
      </trkpt>
      <trkpt lat="46.95144" lon="5.82973">
        <ele>338</ele>
        <time>2017-10-26T13:20:43Z</time>
      </trkpt>
      <trkpt lat="46.95149" lon="5.82944">
        <ele>338</ele>
        <time>2017-10-26T13:21:00Z</time>
      </trkpt>
      <trkpt lat="46.9517" lon="5.82889">
        <ele>339</ele>
        <time>2017-10-26T13:21:32Z</time>
      </trkpt>
      <trkpt lat="46.95175" lon="5.82874">
        <ele>339</ele>
        <time>2017-10-26T13:21:40Z</time>
      </trkpt>
      <trkpt lat="46.95177" lon="5.82868">
        <ele>339</ele>
        <time>2017-10-26T13:21:43Z</time>
      </trkpt>
      <trkpt lat="46.95181" lon="5.82855">
        <ele>340</ele>
        <time>2017-10-26T13:21:53Z</time>
      </trkpt>
      <trkpt lat="46.95186" lon="5.82851">
        <ele>340</ele>
        <time>2017-10-26T13:22:07Z</time>
      </trkpt>
      <trkpt lat="46.9519" lon="5.82837">
        <ele>340</ele>
        <time>2017-10-26T13:22:15Z</time>
      </trkpt>
      <trkpt lat="46.95192" lon="5.8283">
        <ele>340</ele>
        <time>2017-10-26T13:22:19Z</time>
      </trkpt>
      <trkpt lat="46.95194" lon="5.82824">
        <ele>341</ele>
        <time>2017-10-26T13:22:24Z</time>
      </trkpt>
      <trkpt lat="46.95197" lon="5.82819">
        <ele>341</ele>
        <time>2017-10-26T13:22:28Z</time>
      </trkpt>
      <trkpt lat="46.95209" lon="5.82812">
        <ele>341</ele>
        <time>2017-10-26T13:23:00Z</time>
      </trkpt>
      <trkpt lat="46.95223" lon="5.82807">
        <ele>341</ele>
        <time>2017-10-26T13:23:12Z</time>
      </trkpt>
      <trkpt lat="46.95227" lon="5.8281">
        <ele>341</ele>
        <time>2017-10-26T13:23:17Z</time>
      </trkpt>
      <trkpt lat="46.95264" lon="5.82829">
        <ele>343</ele>
        <time>2017-10-26T13:23:50Z</time>
      </trkpt>
      <trkpt lat="46.95294" lon="5.82834">
        <ele>343</ele>
        <time>2017-10-26T13:24:14Z</time>
      </trkpt>
      <trkpt lat="46.95299" lon="5.82834">
        <ele>342</ele>
        <time>2017-10-26T13:24:18Z</time>
      </trkpt>
      <trkpt lat="46.95325" lon="5.8283">
        <ele>343</ele>
        <time>2017-10-26T13:24:40Z</time>
      </trkpt>
      <trkpt lat="46.9533" lon="5.82827">
        <ele>343</ele>
        <time>2017-10-26T13:24:44Z</time>
      </trkpt>
      <trkpt lat="46.95336" lon="5.82822">
        <ele>343</ele>
        <time>2017-10-26T13:24:56Z</time>
      </trkpt>
      <trkpt lat="46.95351" lon="5.82818">
        <ele>341</ele>
        <time>2017-10-26T13:25:08Z</time>
      </trkpt>
      <trkpt lat="46.95357" lon="5.82816">
        <ele>342</ele>
        <time>2017-10-26T13:25:13Z</time>
      </trkpt>
      <trkpt lat="46.95367" lon="5.82814">
        <ele>341</ele>
        <time>2017-10-26T13:25:21Z</time>
      </trkpt>
      <trkpt lat="46.95406" lon="5.82794">
        <ele>339</ele>
        <time>2017-10-26T13:25:54Z</time>
      </trkpt>
      <trkpt lat="46.95445" lon="5.8277">
        <ele>337</ele>
        <time>2017-10-26T13:26:27Z</time>
      </trkpt>
      <trkpt lat="46.9545" lon="5.82768">
        <ele>337</ele>
        <time>2017-10-26T13:26:31Z</time>
      </trkpt>
      <trkpt lat="46.95459" lon="5.82759">
        <ele>337</ele>
        <time>2017-10-26T13:26:39Z</time>
      </trkpt>
      <trkpt lat="46.95494" lon="5.8274">
        <ele>336</ele>
        <time>2017-10-26T13:27:11Z</time>
      </trkpt>
      <trkpt lat="46.95529" lon="5.82717">
        <ele>336</ele>
        <time>2017-10-26T13:27:43Z</time>
      </trkpt>
      <trkpt lat="46.95547" lon="5.82703">
        <ele>336</ele>
        <time>2017-10-26T13:28:00Z</time>
      </trkpt>
      <trkpt lat="46.9557" lon="5.82671">
        <ele>335</ele>
        <time>2017-10-26T13:28:24Z</time>
      </trkpt>
      <trkpt lat="46.9558" lon="5.82646">
        <ele>336</ele>
        <time>2017-10-26T13:28:40Z</time>
      </trkpt>
      <trkpt lat="46.95594" lon="5.82606">
        <ele>337</ele>
        <time>2017-10-26T13:29:04Z</time>
      </trkpt>
      <trkpt lat="46.95599" lon="5.82594">
        <ele>337</ele>
        <time>2017-10-26T13:29:12Z</time>
      </trkpt>
      <trkpt lat="46.95601" lon="5.82588">
        <ele>337</ele>
        <time>2017-10-26T13:29:16Z</time>
      </trkpt>
      <trkpt lat="46.956" lon="5.82581">
        <ele>337</ele>
        <time>2017-10-26T13:29:20Z</time>
      </trkpt>
      <trkpt lat="46.9561" lon="5.8253">
        <ele>337</ele>
        <time>2017-10-26T13:29:52Z</time>
      </trkpt>
      <trkpt lat="46.95617" lon="5.82479">
        <ele>338</ele>
        <time>2017-10-26T13:30:19Z</time>
      </trkpt>
      <trkpt lat="46.95619" lon="5.82465">
        <ele>337</ele>
        <time>2017-10-26T13:30:28Z</time>
      </trkpt>
      <trkpt lat="46.95625" lon="5.82443">
        <ele>338</ele>
        <time>2017-10-26T13:30:40Z</time>
      </trkpt>
      <trkpt lat="46.95626" lon="5.82435">
        <ele>338</ele>
        <time>2017-10-26T13:30:44Z</time>
      </trkpt>
      <trkpt lat="46.95627" lon="5.82429">
        <ele>338</ele>
        <time>2017-10-26T13:30:48Z</time>
      </trkpt>
      <trkpt lat="46.95629" lon="5.82421">
        <ele>338</ele>
        <time>2017-10-26T13:30:53Z</time>
      </trkpt>
      <trkpt lat="46.95631" lon="5.82407">
        <ele>338</ele>
        <time>2017-10-26T13:31:01Z</time>
      </trkpt>
      <trkpt lat="46.95633" lon="5.82391">
        <ele>339</ele>
        <time>2017-10-26T13:31:09Z</time>
      </trkpt>
      <trkpt lat="46.95636" lon="5.82378">
        <ele>339</ele>
        <time>2017-10-26T13:31:19Z</time>
      </trkpt>
      <trkpt lat="46.95644" lon="5.82321">
        <ele>342</ele>
        <time>2017-10-26T13:31:53Z</time>
      </trkpt>
      <trkpt lat="46.95651" lon="5.82294">
        <ele>346</ele>
        <time>2017-10-26T13:32:12Z</time>
      </trkpt>
      <trkpt lat="46.95652" lon="5.82288">
        <ele>347</ele>
        <time>2017-10-26T13:32:16Z</time>
      </trkpt>
      <trkpt lat="46.95651" lon="5.8228">
        <ele>348</ele>
        <time>2017-10-26T13:32:21Z</time>
      </trkpt>
      <trkpt lat="46.95646" lon="5.82276">
        <ele>349</ele>
        <time>2017-10-26T13:32:26Z</time>
      </trkpt>
      <trkpt lat="46.95641" lon="5.82273">
        <ele>349</ele>
        <time>2017-10-26T13:32:30Z</time>
      </trkpt>
      <trkpt lat="46.95626" lon="5.82269">
        <ele>351</ele>
        <time>2017-10-26T13:32:43Z</time>
      </trkpt>
      <trkpt lat="46.95606" lon="5.8226">
        <ele>353</ele>
        <time>2017-10-26T13:33:00Z</time>
      </trkpt>
      <trkpt lat="46.95597" lon="5.82257">
        <ele>351</ele>
        <time>2017-10-26T13:33:08Z</time>
      </trkpt>
      <trkpt lat="46.95592" lon="5.82254">
        <ele>351</ele>
        <time>2017-10-26T13:33:12Z</time>
      </trkpt>
      <trkpt lat="46.95575" lon="5.82242">
        <ele>354</ele>
        <time>2017-10-26T13:33:28Z</time>
      </trkpt>
      <trkpt lat="46.95571" lon="5.82239">
        <ele>354</ele>
        <time>2017-10-26T13:33:32Z</time>
      </trkpt>
      <trkpt lat="46.95566" lon="5.82236">
        <ele>353</ele>
        <time>2017-10-26T13:33:36Z</time>
      </trkpt>
      <trkpt lat="46.95563" lon="5.82231">
        <ele>353</ele>
        <time>2017-10-26T13:33:40Z</time>
      </trkpt>
      <trkpt lat="46.95554" lon="5.82224">
        <ele>352</ele>
        <time>2017-10-26T13:33:48Z</time>
      </trkpt>
      <trkpt lat="46.95546" lon="5.82217">
        <ele>352</ele>
        <time>2017-10-26T13:33:56Z</time>
      </trkpt>
      <trkpt lat="46.95537" lon="5.82212">
        <ele>354</ele>
        <time>2017-10-26T13:34:04Z</time>
      </trkpt>
      <trkpt lat="46.95514" lon="5.82194">
        <ele>355</ele>
        <time>2017-10-26T13:34:25Z</time>
      </trkpt>
      <trkpt lat="46.95509" lon="5.8219">
        <ele>354</ele>
        <time>2017-10-26T13:34:30Z</time>
      </trkpt>
      <trkpt lat="46.95504" lon="5.82185">
        <ele>355</ele>
        <time>2017-10-26T13:34:35Z</time>
      </trkpt>
      <trkpt lat="46.95499" lon="5.82182">
        <ele>355</ele>
        <time>2017-10-26T13:34:39Z</time>
      </trkpt>
      <trkpt lat="46.95495" lon="5.82179">
        <ele>356</ele>
        <time>2017-10-26T13:34:43Z</time>
      </trkpt>
      <trkpt lat="46.9549" lon="5.82177">
        <ele>356</ele>
        <time>2017-10-26T13:34:48Z</time>
      </trkpt>
      <trkpt lat="46.95477" lon="5.82165">
        <ele>356</ele>
        <time>2017-10-26T13:35:00Z</time>
      </trkpt>
      <trkpt lat="46.95473" lon="5.82161">
        <ele>357</ele>
        <time>2017-10-26T13:35:04Z</time>
      </trkpt>
      <trkpt lat="46.95469" lon="5.82158">
        <ele>358</ele>
        <time>2017-10-26T13:35:08Z</time>
      </trkpt>
      <trkpt lat="46.95459" lon="5.82152">
        <ele>358</ele>
        <time>2017-10-26T13:35:16Z</time>
      </trkpt>
      <trkpt lat="46.95446" lon="5.82143">
        <ele>357</ele>
        <time>2017-10-26T13:35:29Z</time>
      </trkpt>
      <trkpt lat="46.95432" lon="5.82131">
        <ele>357</ele>
        <time>2017-10-26T13:35:41Z</time>
      </trkpt>
      <trkpt lat="46.95414" lon="5.8212">
        <ele>359</ele>
        <time>2017-10-26T13:35:57Z</time>
      </trkpt>
      <trkpt lat="46.95406" lon="5.82111">
        <ele>359</ele>
        <time>2017-10-26T13:36:05Z</time>
      </trkpt>
      <trkpt lat="46.95402" lon="5.82107">
        <ele>359</ele>
        <time>2017-10-26T13:36:09Z</time>
      </trkpt>
      <trkpt lat="46.95398" lon="5.82102">
        <ele>360</ele>
        <time>2017-10-26T13:36:13Z</time>
      </trkpt>
      <trkpt lat="46.95392" lon="5.82091">
        <ele>362</ele>
        <time>2017-10-26T13:36:22Z</time>
      </trkpt>
      <trkpt lat="46.95387" lon="5.82085">
        <ele>362</ele>
        <time>2017-10-26T13:36:27Z</time>
      </trkpt>
      <trkpt lat="46.95379" lon="5.82076">
        <ele>362</ele>
        <time>2017-10-26T13:36:36Z</time>
      </trkpt>
      <trkpt lat="46.9537" lon="5.82069">
        <ele>361</ele>
        <time>2017-10-26T13:36:43Z</time>
      </trkpt>
      <trkpt lat="46.95367" lon="5.82064">
        <ele>361</ele>
        <time>2017-10-26T13:36:47Z</time>
      </trkpt>
      <trkpt lat="46.95363" lon="5.82058">
        <ele>361</ele>
        <time>2017-10-26T13:36:51Z</time>
      </trkpt>
      <trkpt lat="46.9536" lon="5.82051">
        <ele>361</ele>
        <time>2017-10-26T13:36:55Z</time>
      </trkpt>
      <trkpt lat="46.95357" lon="5.82046">
        <ele>361</ele>
        <time>2017-10-26T13:36:59Z</time>
      </trkpt>
      <trkpt lat="46.95354" lon="5.82041">
        <ele>361</ele>
        <time>2017-10-26T13:37:03Z</time>
      </trkpt>
      <trkpt lat="46.95341" lon="5.82034">
        <ele>359</ele>
        <time>2017-10-26T13:37:12Z</time>
      </trkpt>
      <trkpt lat="46.95325" lon="5.82032">
        <ele>358</ele>
        <time>2017-10-26T13:37:24Z</time>
      </trkpt>
      <trkpt lat="46.9532" lon="5.82034">
        <ele>358</ele>
        <time>2017-10-26T13:37:28Z</time>
      </trkpt>
      <trkpt lat="46.9531" lon="5.82035">
        <ele>357</ele>
        <time>2017-10-26T13:37:36Z</time>
      </trkpt>
      <trkpt lat="46.953" lon="5.82035">
        <ele>358</ele>
        <time>2017-10-26T13:37:44Z</time>
      </trkpt>
      <trkpt lat="46.95296" lon="5.82034">
        <ele>358</ele>
        <time>2017-10-26T13:37:48Z</time>
      </trkpt>
      <trkpt lat="46.95291" lon="5.82031">
        <ele>359</ele>
        <time>2017-10-26T13:37:53Z</time>
      </trkpt>
      <trkpt lat="46.95278" lon="5.8202">
        <ele>359</ele>
        <time>2017-10-26T13:38:06Z</time>
      </trkpt>
      <trkpt lat="46.95273" lon="5.82016">
        <ele>360</ele>
        <time>2017-10-26T13:38:11Z</time>
      </trkpt>
      <trkpt lat="46.95266" lon="5.82005">
        <ele>360</ele>
        <time>2017-10-26T13:38:20Z</time>
      </trkpt>
      <trkpt lat="46.95262" lon="5.82001">
        <ele>361</ele>
        <time>2017-10-26T13:38:25Z</time>
      </trkpt>
      <trkpt lat="46.95259" lon="5.81994">
        <ele>361</ele>
        <time>2017-10-26T13:38:30Z</time>
      </trkpt>
      <trkpt lat="46.95252" lon="5.81984">
        <ele>361</ele>
        <time>2017-10-26T13:38:39Z</time>
      </trkpt>
      <trkpt lat="46.95253" lon="5.81978">
        <ele>361</ele>
        <time>2017-10-26T13:38:44Z</time>
      </trkpt>
      <trkpt lat="46.95256" lon="5.81963">
        <ele>361</ele>
        <time>2017-10-26T13:38:53Z</time>
      </trkpt>
      <trkpt lat="46.95256" lon="5.81957">
        <ele>361</ele>
        <time>2017-10-26T13:38:57Z</time>
      </trkpt>
      <trkpt lat="46.95253" lon="5.81936">
        <ele>363</ele>
        <time>2017-10-26T13:39:09Z</time>
      </trkpt>
      <trkpt lat="46.95254" lon="5.81928">
        <ele>364</ele>
        <time>2017-10-26T13:39:13Z</time>
      </trkpt>
      <trkpt lat="46.95253" lon="5.8192">
        <ele>363</ele>
        <time>2017-10-26T13:39:18Z</time>
      </trkpt>
      <trkpt lat="46.95251" lon="5.81913">
        <ele>363</ele>
        <time>2017-10-26T13:39:26Z</time>
      </trkpt>
      <trkpt lat="46.95249" lon="5.81892">
        <ele>362</ele>
        <time>2017-10-26T13:39:38Z</time>
      </trkpt>
      <trkpt lat="46.95249" lon="5.81883">
        <ele>363</ele>
        <time>2017-10-26T13:39:43Z</time>
      </trkpt>
      <trkpt lat="46.95248" lon="5.81877">
        <ele>363</ele>
        <time>2017-10-26T13:39:47Z</time>
      </trkpt>
      <trkpt lat="46.95247" lon="5.8187">
        <ele>363</ele>
        <time>2017-10-26T13:39:51Z</time>
      </trkpt>
      <trkpt lat="46.95246" lon="5.81863">
        <ele>363</ele>
        <time>2017-10-26T13:39:55Z</time>
      </trkpt>
      <trkpt lat="46.95247" lon="5.81856">
        <ele>363</ele>
        <time>2017-10-26T13:39:59Z</time>
      </trkpt>
      <trkpt lat="46.95247" lon="5.81848">
        <ele>364</ele>
        <time>2017-10-26T13:40:04Z</time>
      </trkpt>
      <trkpt lat="46.95244" lon="5.81842">
        <ele>364</ele>
        <time>2017-10-26T13:40:08Z</time>
      </trkpt>
      <trkpt lat="46.95241" lon="5.81837">
        <ele>363</ele>
        <time>2017-10-26T13:40:12Z</time>
      </trkpt>
      <trkpt lat="46.95234" lon="5.81824">
        <ele>363</ele>
        <time>2017-10-26T13:40:20Z</time>
      </trkpt>
      <trkpt lat="46.95233" lon="5.81818">
        <ele>363</ele>
        <time>2017-10-26T13:40:24Z</time>
      </trkpt>
      <trkpt lat="46.9523" lon="5.81811">
        <ele>363</ele>
        <time>2017-10-26T13:40:29Z</time>
      </trkpt>
      <trkpt lat="46.95225" lon="5.81808">
        <ele>363</ele>
        <time>2017-10-26T13:40:33Z</time>
      </trkpt>
      <trkpt lat="46.9522" lon="5.81807">
        <ele>363</ele>
        <time>2017-10-26T13:40:37Z</time>
      </trkpt>
      <trkpt lat="46.95215" lon="5.81808">
        <ele>363</ele>
        <time>2017-10-26T13:40:40Z</time>
      </trkpt>
      <trkpt lat="46.95204" lon="5.81809">
        <ele>363</ele>
        <time>2017-10-26T13:40:48Z</time>
      </trkpt>
      <trkpt lat="46.95198" lon="5.81811">
        <ele>363</ele>
        <time>2017-10-26T13:40:52Z</time>
      </trkpt>
      <trkpt lat="46.95183" lon="5.81813">
        <ele>362</ele>
        <time>2017-10-26T13:41:04Z</time>
      </trkpt>
      <trkpt lat="46.95159" lon="5.8182">
        <ele>362</ele>
        <time>2017-10-26T13:41:24Z</time>
      </trkpt>
      <trkpt lat="46.95154" lon="5.81821">
        <ele>362</ele>
        <time>2017-10-26T13:41:29Z</time>
      </trkpt>
      <trkpt lat="46.95138" lon="5.81823">
        <ele>359</ele>
        <time>2017-10-26T13:41:42Z</time>
      </trkpt>
      <trkpt lat="46.95123" lon="5.8183">
        <ele>358</ele>
        <time>2017-10-26T13:41:54Z</time>
      </trkpt>
      <trkpt lat="46.95114" lon="5.81837">
        <ele>358</ele>
        <time>2017-10-26T13:42:02Z</time>
      </trkpt>
      <trkpt lat="46.95096" lon="5.81851">
        <ele>357</ele>
        <time>2017-10-26T13:42:18Z</time>
      </trkpt>
      <trkpt lat="46.95091" lon="5.81855">
        <ele>357</ele>
        <time>2017-10-26T13:42:22Z</time>
      </trkpt>
      <trkpt lat="46.95078" lon="5.81867">
        <ele>356</ele>
        <time>2017-10-26T13:42:34Z</time>
      </trkpt>
      <trkpt lat="46.95074" lon="5.81871">
        <ele>357</ele>
        <time>2017-10-26T13:42:38Z</time>
      </trkpt>
      <trkpt lat="46.95065" lon="5.81876">
        <ele>357</ele>
        <time>2017-10-26T13:42:46Z</time>
      </trkpt>
      <trkpt lat="46.95061" lon="5.8188">
        <ele>356</ele>
        <time>2017-10-26T13:42:50Z</time>
      </trkpt>
      <trkpt lat="46.95056" lon="5.81882">
        <ele>356</ele>
        <time>2017-10-26T13:42:54Z</time>
      </trkpt>
      <trkpt lat="46.95051" lon="5.81885">
        <ele>357</ele>
        <time>2017-10-26T13:42:58Z</time>
      </trkpt>
      <trkpt lat="46.95042" lon="5.81884">
        <ele>357</ele>
        <time>2017-10-26T13:43:06Z</time>
      </trkpt>
      <trkpt lat="46.95032" lon="5.81879">
        <ele>357</ele>
        <time>2017-10-26T13:43:16Z</time>
      </trkpt>
      <trkpt lat="46.95026" lon="5.81879">
        <ele>357</ele>
        <time>2017-10-26T13:43:21Z</time>
      </trkpt>
      <trkpt lat="46.95012" lon="5.81872">
        <ele>358</ele>
        <time>2017-10-26T13:43:34Z</time>
      </trkpt>
      <trkpt lat="46.95007" lon="5.81869">
        <ele>358</ele>
        <time>2017-10-26T13:43:39Z</time>
      </trkpt>
      <trkpt lat="46.95001" lon="5.81866">
        <ele>358</ele>
        <time>2017-10-26T13:43:44Z</time>
      </trkpt>
      <trkpt lat="46.94987" lon="5.81854">
        <ele>359</ele>
        <time>2017-10-26T13:43:59Z</time>
      </trkpt>
      <trkpt lat="46.94983" lon="5.8185">
        <ele>358</ele>
        <time>2017-10-26T13:44:03Z</time>
      </trkpt>
      <trkpt lat="46.9498" lon="5.81845">
        <ele>358</ele>
        <time>2017-10-26T13:44:07Z</time>
      </trkpt>
      <trkpt lat="46.94977" lon="5.81831">
        <ele>357</ele>
        <time>2017-10-26T13:44:15Z</time>
      </trkpt>
      <trkpt lat="46.94977" lon="5.81824">
        <ele>356</ele>
        <time>2017-10-26T13:44:20Z</time>
      </trkpt>
    </trkseg>
  </trk>
</gpx>